<?xml version="1.0" encoding="UTF-8" standalone="no" ?>
<gpx xmlns="http://www.topografix.com/GPX/1/1" xmlns:xsi="http://www.w3.org/2001/XMLSchema-instance" xsi:schemaLocation="http://www.topografix.com/GPX/1/1 http://www.topografix.com/GPX/1/1/gpx.xsd" version="1.1" creator="VisuGPX - https://www.visugpx.com">
  <metadata>
    <name>Vers Néronde</name>
    <desc><![CDATA[Les environs de Néronde, Bussières, Sainte Colombe ]]></desc>
  </metadata>
  <trk>
    <name><![CDATA[20180611205501-cB14M]]></name>
    <trkseg>
      <trkpt lat="45.83867" lon="4.23654">
        <ele>477</ele>
        <time>2018-06-11T12:13:11Z</time>
      </trkpt>
      <trkpt lat="45.8387" lon="4.23657">
        <ele>477</ele>
        <time>2018-06-11T12:13:17Z</time>
      </trkpt>
      <trkpt lat="45.83871" lon="4.2366">
        <ele>477</ele>
        <time>2018-06-11T12:13:23Z</time>
      </trkpt>
      <trkpt lat="45.83873" lon="4.23666">
        <ele>477</ele>
        <time>2018-06-11T12:13:28Z</time>
      </trkpt>
      <trkpt lat="45.8388" lon="4.2367">
        <ele>475</ele>
        <time>2018-06-11T12:13:34Z</time>
      </trkpt>
      <trkpt lat="45.83884" lon="4.23671">
        <ele>475</ele>
        <time>2018-06-11T12:13:40Z</time>
      </trkpt>
      <trkpt lat="45.8389" lon="4.23675">
        <ele>474</ele>
        <time>2018-06-11T12:13:45Z</time>
      </trkpt>
      <trkpt lat="45.83894" lon="4.23677">
        <ele>474</ele>
        <time>2018-06-11T12:13:50Z</time>
      </trkpt>
      <trkpt lat="45.83899" lon="4.23676">
        <ele>473</ele>
        <time>2018-06-11T12:13:56Z</time>
      </trkpt>
      <trkpt lat="45.83905" lon="4.23674">
        <ele>473</ele>
        <time>2018-06-11T12:14:01Z</time>
      </trkpt>
      <trkpt lat="45.83912" lon="4.2367">
        <ele>472</ele>
        <time>2018-06-11T12:14:07Z</time>
      </trkpt>
      <trkpt lat="45.83916" lon="4.23664">
        <ele>472</ele>
        <time>2018-06-11T12:14:12Z</time>
      </trkpt>
      <trkpt lat="45.83921" lon="4.2366">
        <ele>471</ele>
        <time>2018-06-11T12:14:18Z</time>
      </trkpt>
      <trkpt lat="45.83924" lon="4.23658">
        <ele>471</ele>
        <time>2018-06-11T12:14:23Z</time>
      </trkpt>
      <trkpt lat="45.8393" lon="4.23656">
        <ele>470</ele>
        <time>2018-06-11T12:14:29Z</time>
      </trkpt>
      <trkpt lat="45.83936" lon="4.23652">
        <ele>469</ele>
        <time>2018-06-11T12:14:35Z</time>
      </trkpt>
      <trkpt lat="45.8394" lon="4.23649">
        <ele>469</ele>
        <time>2018-06-11T12:14:40Z</time>
      </trkpt>
      <trkpt lat="45.83946" lon="4.23645">
        <ele>469</ele>
        <time>2018-06-11T12:14:46Z</time>
      </trkpt>
      <trkpt lat="45.83954" lon="4.23643">
        <ele>468</ele>
        <time>2018-06-11T12:14:52Z</time>
      </trkpt>
      <trkpt lat="45.83961" lon="4.23644">
        <ele>467</ele>
        <time>2018-06-11T12:14:58Z</time>
      </trkpt>
      <trkpt lat="45.83965" lon="4.23644">
        <ele>467</ele>
        <time>2018-06-11T12:15:04Z</time>
      </trkpt>
      <trkpt lat="45.83967" lon="4.23644">
        <ele>466</ele>
        <time>2018-06-11T12:15:10Z</time>
      </trkpt>
      <trkpt lat="45.8397" lon="4.23643">
        <ele>466</ele>
        <time>2018-06-11T12:15:15Z</time>
      </trkpt>
      <trkpt lat="45.83974" lon="4.2364">
        <ele>466</ele>
        <time>2018-06-11T12:15:21Z</time>
      </trkpt>
      <trkpt lat="45.83983" lon="4.2364">
        <ele>465</ele>
        <time>2018-06-11T12:15:27Z</time>
      </trkpt>
      <trkpt lat="45.83985" lon="4.23641">
        <ele>465</ele>
        <time>2018-06-11T12:15:33Z</time>
      </trkpt>
      <trkpt lat="45.83982" lon="4.23646">
        <ele>465</ele>
        <time>2018-06-11T12:15:39Z</time>
      </trkpt>
      <trkpt lat="45.83979" lon="4.23651">
        <ele>464</ele>
        <time>2018-06-11T12:15:44Z</time>
      </trkpt>
      <trkpt lat="45.83975" lon="4.23659">
        <ele>464</ele>
        <time>2018-06-11T12:15:50Z</time>
      </trkpt>
      <trkpt lat="45.83971" lon="4.23669">
        <ele>462</ele>
        <time>2018-06-11T12:15:56Z</time>
      </trkpt>
      <trkpt lat="45.83969" lon="4.23675">
        <ele>462</ele>
        <time>2018-06-11T12:16:01Z</time>
      </trkpt>
      <trkpt lat="45.83967" lon="4.23682">
        <ele>462</ele>
        <time>2018-06-11T12:16:07Z</time>
      </trkpt>
      <trkpt lat="45.83967" lon="4.2369">
        <ele>462</ele>
        <time>2018-06-11T12:16:12Z</time>
      </trkpt>
      <trkpt lat="45.83969" lon="4.23697">
        <ele>462</ele>
        <time>2018-06-11T12:16:17Z</time>
      </trkpt>
      <trkpt lat="45.83973" lon="4.23699">
        <ele>462</ele>
        <time>2018-06-11T12:16:23Z</time>
      </trkpt>
      <trkpt lat="45.83979" lon="4.23698">
        <ele>461</ele>
        <time>2018-06-11T12:16:28Z</time>
      </trkpt>
      <trkpt lat="45.83984" lon="4.23698">
        <ele>461</ele>
        <time>2018-06-11T12:16:33Z</time>
      </trkpt>
      <trkpt lat="45.83993" lon="4.23699">
        <ele>461</ele>
        <time>2018-06-11T12:16:39Z</time>
      </trkpt>
      <trkpt lat="45.83999" lon="4.23704">
        <ele>461</ele>
        <time>2018-06-11T12:16:44Z</time>
      </trkpt>
      <trkpt lat="45.84002" lon="4.23707">
        <ele>453</ele>
        <time>2018-06-11T12:16:49Z</time>
      </trkpt>
      <trkpt lat="45.8401" lon="4.23714">
        <ele>453</ele>
        <time>2018-06-11T12:16:55Z</time>
      </trkpt>
      <trkpt lat="45.84015" lon="4.23721">
        <ele>453</ele>
        <time>2018-06-11T12:17:00Z</time>
      </trkpt>
      <trkpt lat="45.84021" lon="4.23725">
        <ele>452</ele>
        <time>2018-06-11T12:17:06Z</time>
      </trkpt>
      <trkpt lat="45.84028" lon="4.23731">
        <ele>452</ele>
        <time>2018-06-11T12:17:12Z</time>
      </trkpt>
      <trkpt lat="45.84034" lon="4.23735">
        <ele>452</ele>
        <time>2018-06-11T12:17:17Z</time>
      </trkpt>
      <trkpt lat="45.84039" lon="4.23739">
        <ele>451</ele>
        <time>2018-06-11T12:17:23Z</time>
      </trkpt>
      <trkpt lat="45.84043" lon="4.23744">
        <ele>450</ele>
        <time>2018-06-11T12:17:28Z</time>
      </trkpt>
      <trkpt lat="45.84049" lon="4.23748">
        <ele>450</ele>
        <time>2018-06-11T12:17:34Z</time>
      </trkpt>
      <trkpt lat="45.84053" lon="4.23757">
        <ele>457</ele>
        <time>2018-06-11T12:17:40Z</time>
      </trkpt>
      <trkpt lat="45.84056" lon="4.23764">
        <ele>457</ele>
        <time>2018-06-11T12:17:45Z</time>
      </trkpt>
      <trkpt lat="45.84059" lon="4.23769">
        <ele>457</ele>
        <time>2018-06-11T12:17:50Z</time>
      </trkpt>
      <trkpt lat="45.84064" lon="4.23771">
        <ele>457</ele>
        <time>2018-06-11T12:17:56Z</time>
      </trkpt>
      <trkpt lat="45.8407" lon="4.23772">
        <ele>456</ele>
        <time>2018-06-11T12:18:02Z</time>
      </trkpt>
      <trkpt lat="45.84077" lon="4.23778">
        <ele>457</ele>
        <time>2018-06-11T12:18:08Z</time>
      </trkpt>
      <trkpt lat="45.84083" lon="4.23783">
        <ele>458</ele>
        <time>2018-06-11T12:18:13Z</time>
      </trkpt>
      <trkpt lat="45.84089" lon="4.23789">
        <ele>455</ele>
        <time>2018-06-11T12:18:19Z</time>
      </trkpt>
      <trkpt lat="45.84094" lon="4.23796">
        <ele>456</ele>
        <time>2018-06-11T12:18:24Z</time>
      </trkpt>
      <trkpt lat="45.84101" lon="4.23802">
        <ele>457</ele>
        <time>2018-06-11T12:18:30Z</time>
      </trkpt>
      <trkpt lat="45.84103" lon="4.23801">
        <ele>457</ele>
        <time>2018-06-11T12:18:35Z</time>
      </trkpt>
      <trkpt lat="45.84106" lon="4.23799">
        <ele>456</ele>
        <time>2018-06-11T12:18:41Z</time>
      </trkpt>
      <trkpt lat="45.84112" lon="4.23801">
        <ele>457</ele>
        <time>2018-06-11T12:18:46Z</time>
      </trkpt>
      <trkpt lat="45.84121" lon="4.23805">
        <ele>457</ele>
        <time>2018-06-11T12:18:52Z</time>
      </trkpt>
      <trkpt lat="45.84128" lon="4.23811">
        <ele>457</ele>
        <time>2018-06-11T12:18:58Z</time>
      </trkpt>
      <trkpt lat="45.84132" lon="4.23815">
        <ele>457</ele>
        <time>2018-06-11T12:19:04Z</time>
      </trkpt>
      <trkpt lat="45.84132" lon="4.23824">
        <ele>457</ele>
        <time>2018-06-11T12:19:10Z</time>
      </trkpt>
      <trkpt lat="45.8413" lon="4.23833">
        <ele>458</ele>
        <time>2018-06-11T12:19:16Z</time>
      </trkpt>
      <trkpt lat="45.84125" lon="4.23841">
        <ele>462</ele>
        <time>2018-06-11T12:19:22Z</time>
      </trkpt>
      <trkpt lat="45.84122" lon="4.23852">
        <ele>462</ele>
        <time>2018-06-11T12:19:28Z</time>
      </trkpt>
      <trkpt lat="45.84119" lon="4.23864">
        <ele>463</ele>
        <time>2018-06-11T12:19:34Z</time>
      </trkpt>
      <trkpt lat="45.84121" lon="4.23874">
        <ele>463</ele>
        <time>2018-06-11T12:19:40Z</time>
      </trkpt>
      <trkpt lat="45.8412" lon="4.23883">
        <ele>463</ele>
        <time>2018-06-11T12:19:46Z</time>
      </trkpt>
      <trkpt lat="45.84118" lon="4.23894">
        <ele>464</ele>
        <time>2018-06-11T12:19:52Z</time>
      </trkpt>
      <trkpt lat="45.84118" lon="4.23905">
        <ele>464</ele>
        <time>2018-06-11T12:19:58Z</time>
      </trkpt>
      <trkpt lat="45.84119" lon="4.23914">
        <ele>464</ele>
        <time>2018-06-11T12:20:03Z</time>
      </trkpt>
      <trkpt lat="45.84122" lon="4.23925">
        <ele>466</ele>
        <time>2018-06-11T12:20:09Z</time>
      </trkpt>
      <trkpt lat="45.84124" lon="4.23932">
        <ele>466</ele>
        <time>2018-06-11T12:20:14Z</time>
      </trkpt>
      <trkpt lat="45.84127" lon="4.2394">
        <ele>465</ele>
        <time>2018-06-11T12:20:20Z</time>
      </trkpt>
      <trkpt lat="45.8413" lon="4.23946">
        <ele>465</ele>
        <time>2018-06-11T12:20:25Z</time>
      </trkpt>
      <trkpt lat="45.84137" lon="4.23957">
        <ele>464</ele>
        <time>2018-06-11T12:20:31Z</time>
      </trkpt>
      <trkpt lat="45.84141" lon="4.23963">
        <ele>464</ele>
        <time>2018-06-11T12:20:36Z</time>
      </trkpt>
      <trkpt lat="45.84146" lon="4.23969">
        <ele>463</ele>
        <time>2018-06-11T12:20:41Z</time>
      </trkpt>
      <trkpt lat="45.84148" lon="4.23976">
        <ele>463</ele>
        <time>2018-06-11T12:20:47Z</time>
      </trkpt>
      <trkpt lat="45.8415" lon="4.23979">
        <ele>462</ele>
        <time>2018-06-11T12:20:53Z</time>
      </trkpt>
      <trkpt lat="45.84151" lon="4.23983">
        <ele>462</ele>
        <time>2018-06-11T12:20:59Z</time>
      </trkpt>
      <trkpt lat="45.8415" lon="4.23985">
        <ele>462</ele>
        <time>2018-06-11T12:21:04Z</time>
      </trkpt>
      <trkpt lat="45.8415" lon="4.23983">
        <ele>462</ele>
        <time>2018-06-11T12:21:09Z</time>
      </trkpt>
      <trkpt lat="45.8415" lon="4.23984">
        <ele>462</ele>
        <time>2018-06-11T12:21:15Z</time>
      </trkpt>
      <trkpt lat="45.8415" lon="4.23983">
        <ele>462</ele>
        <time>2018-06-11T12:21:21Z</time>
      </trkpt>
      <trkpt lat="45.8415" lon="4.23983">
        <ele>462</ele>
        <time>2018-06-11T12:21:27Z</time>
      </trkpt>
      <trkpt lat="45.84151" lon="4.23981">
        <ele>462</ele>
        <time>2018-06-11T12:21:32Z</time>
      </trkpt>
      <trkpt lat="45.84151" lon="4.23981">
        <ele>462</ele>
        <time>2018-06-11T12:21:37Z</time>
      </trkpt>
      <trkpt lat="45.84151" lon="4.23981">
        <ele>462</ele>
        <time>2018-06-11T12:21:43Z</time>
      </trkpt>
      <trkpt lat="45.84151" lon="4.23981">
        <ele>462</ele>
        <time>2018-06-11T12:21:49Z</time>
      </trkpt>
      <trkpt lat="45.84152" lon="4.23982">
        <ele>462</ele>
        <time>2018-06-11T12:21:55Z</time>
      </trkpt>
      <trkpt lat="45.84152" lon="4.23982">
        <ele>462</ele>
        <time>2018-06-11T12:22:01Z</time>
      </trkpt>
      <trkpt lat="45.84152" lon="4.23982">
        <ele>462</ele>
        <time>2018-06-11T12:22:07Z</time>
      </trkpt>
      <trkpt lat="45.84153" lon="4.23982">
        <ele>462</ele>
        <time>2018-06-11T12:22:13Z</time>
      </trkpt>
      <trkpt lat="45.84153" lon="4.23982">
        <ele>462</ele>
        <time>2018-06-11T12:22:18Z</time>
      </trkpt>
      <trkpt lat="45.84153" lon="4.23982">
        <ele>462</ele>
        <time>2018-06-11T12:22:24Z</time>
      </trkpt>
      <trkpt lat="45.84153" lon="4.23982">
        <ele>462</ele>
        <time>2018-06-11T12:22:29Z</time>
      </trkpt>
      <trkpt lat="45.84153" lon="4.23982">
        <ele>462</ele>
        <time>2018-06-11T12:22:35Z</time>
      </trkpt>
      <trkpt lat="45.84152" lon="4.23982">
        <ele>462</ele>
        <time>2018-06-11T12:22:40Z</time>
      </trkpt>
      <trkpt lat="45.84149" lon="4.23984">
        <ele>462</ele>
        <time>2018-06-11T12:22:46Z</time>
      </trkpt>
      <trkpt lat="45.84147" lon="4.23991">
        <ele>462</ele>
        <time>2018-06-11T12:22:51Z</time>
      </trkpt>
      <trkpt lat="45.84151" lon="4.24002">
        <ele>462</ele>
        <time>2018-06-11T12:22:57Z</time>
      </trkpt>
      <trkpt lat="45.84154" lon="4.2401">
        <ele>462</ele>
        <time>2018-06-11T12:23:03Z</time>
      </trkpt>
      <trkpt lat="45.84158" lon="4.24016">
        <ele>463</ele>
        <time>2018-06-11T12:23:08Z</time>
      </trkpt>
      <trkpt lat="45.84162" lon="4.2402">
        <ele>463</ele>
        <time>2018-06-11T12:23:14Z</time>
      </trkpt>
      <trkpt lat="45.84165" lon="4.24028">
        <ele>464</ele>
        <time>2018-06-11T12:23:20Z</time>
      </trkpt>
      <trkpt lat="45.84169" lon="4.2404">
        <ele>464</ele>
        <time>2018-06-11T12:23:26Z</time>
      </trkpt>
      <trkpt lat="45.84173" lon="4.24047">
        <ele>465</ele>
        <time>2018-06-11T12:23:32Z</time>
      </trkpt>
      <trkpt lat="45.84176" lon="4.24056">
        <ele>465</ele>
        <time>2018-06-11T12:23:38Z</time>
      </trkpt>
      <trkpt lat="45.84179" lon="4.24064">
        <ele>466</ele>
        <time>2018-06-11T12:23:44Z</time>
      </trkpt>
      <trkpt lat="45.84181" lon="4.24072">
        <ele>466</ele>
        <time>2018-06-11T12:23:50Z</time>
      </trkpt>
      <trkpt lat="45.84184" lon="4.2408">
        <ele>466</ele>
        <time>2018-06-11T12:23:56Z</time>
      </trkpt>
      <trkpt lat="45.84188" lon="4.24087">
        <ele>469</ele>
        <time>2018-06-11T12:24:01Z</time>
      </trkpt>
      <trkpt lat="45.84191" lon="4.24093">
        <ele>470</ele>
        <time>2018-06-11T12:24:07Z</time>
      </trkpt>
      <trkpt lat="45.84197" lon="4.24097">
        <ele>471</ele>
        <time>2018-06-11T12:24:13Z</time>
      </trkpt>
      <trkpt lat="45.84201" lon="4.24101">
        <ele>471</ele>
        <time>2018-06-11T12:24:18Z</time>
      </trkpt>
      <trkpt lat="45.84207" lon="4.24104">
        <ele>472</ele>
        <time>2018-06-11T12:24:24Z</time>
      </trkpt>
      <trkpt lat="45.84211" lon="4.24107">
        <ele>472</ele>
        <time>2018-06-11T12:24:30Z</time>
      </trkpt>
      <trkpt lat="45.84216" lon="4.24114">
        <ele>473</ele>
        <time>2018-06-11T12:24:35Z</time>
      </trkpt>
      <trkpt lat="45.84221" lon="4.24118">
        <ele>473</ele>
        <time>2018-06-11T12:24:41Z</time>
      </trkpt>
      <trkpt lat="45.84224" lon="4.24126">
        <ele>473</ele>
        <time>2018-06-11T12:24:47Z</time>
      </trkpt>
      <trkpt lat="45.84228" lon="4.24136">
        <ele>474</ele>
        <time>2018-06-11T12:24:53Z</time>
      </trkpt>
      <trkpt lat="45.8423" lon="4.24141">
        <ele>474</ele>
        <time>2018-06-11T12:24:59Z</time>
      </trkpt>
      <trkpt lat="45.84233" lon="4.2415">
        <ele>474</ele>
        <time>2018-06-11T12:25:04Z</time>
      </trkpt>
      <trkpt lat="45.84237" lon="4.24158">
        <ele>474</ele>
        <time>2018-06-11T12:25:10Z</time>
      </trkpt>
      <trkpt lat="45.84239" lon="4.24164">
        <ele>475</ele>
        <time>2018-06-11T12:25:15Z</time>
      </trkpt>
      <trkpt lat="45.84244" lon="4.24176">
        <ele>477</ele>
        <time>2018-06-11T12:25:21Z</time>
      </trkpt>
      <trkpt lat="45.84247" lon="4.24183">
        <ele>478</ele>
        <time>2018-06-11T12:25:27Z</time>
      </trkpt>
      <trkpt lat="45.84251" lon="4.2419">
        <ele>477</ele>
        <time>2018-06-11T12:25:33Z</time>
      </trkpt>
      <trkpt lat="45.84253" lon="4.24197">
        <ele>478</ele>
        <time>2018-06-11T12:25:39Z</time>
      </trkpt>
      <trkpt lat="45.84257" lon="4.24203">
        <ele>478</ele>
        <time>2018-06-11T12:25:44Z</time>
      </trkpt>
      <trkpt lat="45.8426" lon="4.24211">
        <ele>478</ele>
        <time>2018-06-11T12:25:50Z</time>
      </trkpt>
      <trkpt lat="45.84263" lon="4.24216">
        <ele>478</ele>
        <time>2018-06-11T12:25:55Z</time>
      </trkpt>
      <trkpt lat="45.84266" lon="4.24222">
        <ele>478</ele>
        <time>2018-06-11T12:26:00Z</time>
      </trkpt>
      <trkpt lat="45.84269" lon="4.24227">
        <ele>478</ele>
        <time>2018-06-11T12:26:06Z</time>
      </trkpt>
      <trkpt lat="45.84276" lon="4.24234">
        <ele>478</ele>
        <time>2018-06-11T12:26:12Z</time>
      </trkpt>
      <trkpt lat="45.84281" lon="4.24237">
        <ele>478</ele>
        <time>2018-06-11T12:26:18Z</time>
      </trkpt>
      <trkpt lat="45.84286" lon="4.24243">
        <ele>478</ele>
        <time>2018-06-11T12:26:24Z</time>
      </trkpt>
      <trkpt lat="45.84292" lon="4.2425">
        <ele>477</ele>
        <time>2018-06-11T12:26:30Z</time>
      </trkpt>
      <trkpt lat="45.84297" lon="4.24255">
        <ele>478</ele>
        <time>2018-06-11T12:26:36Z</time>
      </trkpt>
      <trkpt lat="45.84302" lon="4.24262">
        <ele>478</ele>
        <time>2018-06-11T12:26:42Z</time>
      </trkpt>
      <trkpt lat="45.84308" lon="4.24268">
        <ele>478</ele>
        <time>2018-06-11T12:26:48Z</time>
      </trkpt>
      <trkpt lat="45.84311" lon="4.2427">
        <ele>478</ele>
        <time>2018-06-11T12:26:53Z</time>
      </trkpt>
      <trkpt lat="45.84314" lon="4.24272">
        <ele>477</ele>
        <time>2018-06-11T12:26:58Z</time>
      </trkpt>
      <trkpt lat="45.8432" lon="4.24269">
        <ele>477</ele>
        <time>2018-06-11T12:27:04Z</time>
      </trkpt>
      <trkpt lat="45.84326" lon="4.24266">
        <ele>476</ele>
        <time>2018-06-11T12:27:10Z</time>
      </trkpt>
      <trkpt lat="45.84333" lon="4.24267">
        <ele>476</ele>
        <time>2018-06-11T12:27:16Z</time>
      </trkpt>
      <trkpt lat="45.84339" lon="4.24266">
        <ele>477</ele>
        <time>2018-06-11T12:27:22Z</time>
      </trkpt>
      <trkpt lat="45.84346" lon="4.24264">
        <ele>478</ele>
        <time>2018-06-11T12:27:28Z</time>
      </trkpt>
      <trkpt lat="45.84351" lon="4.24264">
        <ele>479</ele>
        <time>2018-06-11T12:27:34Z</time>
      </trkpt>
      <trkpt lat="45.84358" lon="4.24266">
        <ele>479</ele>
        <time>2018-06-11T12:27:40Z</time>
      </trkpt>
      <trkpt lat="45.84363" lon="4.24267">
        <ele>480</ele>
        <time>2018-06-11T12:27:46Z</time>
      </trkpt>
      <trkpt lat="45.84367" lon="4.24267">
        <ele>480</ele>
        <time>2018-06-11T12:27:52Z</time>
      </trkpt>
      <trkpt lat="45.84371" lon="4.24267">
        <ele>481</ele>
        <time>2018-06-11T12:27:58Z</time>
      </trkpt>
      <trkpt lat="45.84376" lon="4.24265">
        <ele>481</ele>
        <time>2018-06-11T12:28:04Z</time>
      </trkpt>
      <trkpt lat="45.8438" lon="4.24264">
        <ele>482</ele>
        <time>2018-06-11T12:28:09Z</time>
      </trkpt>
      <trkpt lat="45.84387" lon="4.24264">
        <ele>482</ele>
        <time>2018-06-11T12:28:15Z</time>
      </trkpt>
      <trkpt lat="45.84392" lon="4.24264">
        <ele>483</ele>
        <time>2018-06-11T12:28:20Z</time>
      </trkpt>
      <trkpt lat="45.84397" lon="4.24265">
        <ele>483</ele>
        <time>2018-06-11T12:28:26Z</time>
      </trkpt>
      <trkpt lat="45.84402" lon="4.24264">
        <ele>484</ele>
        <time>2018-06-11T12:28:32Z</time>
      </trkpt>
      <trkpt lat="45.84408" lon="4.24267">
        <ele>484</ele>
        <time>2018-06-11T12:28:38Z</time>
      </trkpt>
      <trkpt lat="45.84412" lon="4.24269">
        <ele>484</ele>
        <time>2018-06-11T12:28:43Z</time>
      </trkpt>
      <trkpt lat="45.84416" lon="4.24269">
        <ele>484</ele>
        <time>2018-06-11T12:28:49Z</time>
      </trkpt>
      <trkpt lat="45.84422" lon="4.2427">
        <ele>491</ele>
        <time>2018-06-11T12:28:54Z</time>
      </trkpt>
      <trkpt lat="45.84429" lon="4.24272">
        <ele>492</ele>
        <time>2018-06-11T12:29:00Z</time>
      </trkpt>
      <trkpt lat="45.84434" lon="4.24271">
        <ele>492</ele>
        <time>2018-06-11T12:29:06Z</time>
      </trkpt>
      <trkpt lat="45.84439" lon="4.24274">
        <ele>493</ele>
        <time>2018-06-11T12:29:11Z</time>
      </trkpt>
      <trkpt lat="45.84441" lon="4.24273">
        <ele>493</ele>
        <time>2018-06-11T12:29:16Z</time>
      </trkpt>
      <trkpt lat="45.84447" lon="4.24273">
        <ele>494</ele>
        <time>2018-06-11T12:29:22Z</time>
      </trkpt>
      <trkpt lat="45.84452" lon="4.24275">
        <ele>494</ele>
        <time>2018-06-11T12:29:28Z</time>
      </trkpt>
      <trkpt lat="45.84457" lon="4.24277">
        <ele>495</ele>
        <time>2018-06-11T12:29:33Z</time>
      </trkpt>
      <trkpt lat="45.84463" lon="4.24279">
        <ele>495</ele>
        <time>2018-06-11T12:29:39Z</time>
      </trkpt>
      <trkpt lat="45.84468" lon="4.24282">
        <ele>496</ele>
        <time>2018-06-11T12:29:45Z</time>
      </trkpt>
      <trkpt lat="45.84472" lon="4.24283">
        <ele>496</ele>
        <time>2018-06-11T12:29:50Z</time>
      </trkpt>
      <trkpt lat="45.84476" lon="4.24284">
        <ele>496</ele>
        <time>2018-06-11T12:29:55Z</time>
      </trkpt>
      <trkpt lat="45.84484" lon="4.24287">
        <ele>497</ele>
        <time>2018-06-11T12:30:01Z</time>
      </trkpt>
      <trkpt lat="45.8449" lon="4.24292">
        <ele>497</ele>
        <time>2018-06-11T12:30:07Z</time>
      </trkpt>
      <trkpt lat="45.84495" lon="4.24295">
        <ele>497</ele>
        <time>2018-06-11T12:30:13Z</time>
      </trkpt>
      <trkpt lat="45.845" lon="4.24298">
        <ele>497</ele>
        <time>2018-06-11T12:30:19Z</time>
      </trkpt>
      <trkpt lat="45.84503" lon="4.24299">
        <ele>507</ele>
        <time>2018-06-11T12:30:25Z</time>
      </trkpt>
      <trkpt lat="45.84507" lon="4.24302">
        <ele>507</ele>
        <time>2018-06-11T12:30:30Z</time>
      </trkpt>
      <trkpt lat="45.84512" lon="4.24304">
        <ele>508</ele>
        <time>2018-06-11T12:30:36Z</time>
      </trkpt>
      <trkpt lat="45.84514" lon="4.24305">
        <ele>508</ele>
        <time>2018-06-11T12:30:41Z</time>
      </trkpt>
      <trkpt lat="45.84519" lon="4.2431">
        <ele>508</ele>
        <time>2018-06-11T12:30:47Z</time>
      </trkpt>
      <trkpt lat="45.84524" lon="4.24312">
        <ele>508</ele>
        <time>2018-06-11T12:30:52Z</time>
      </trkpt>
      <trkpt lat="45.84528" lon="4.24319">
        <ele>508</ele>
        <time>2018-06-11T12:30:58Z</time>
      </trkpt>
      <trkpt lat="45.84532" lon="4.24329">
        <ele>509</ele>
        <time>2018-06-11T12:31:03Z</time>
      </trkpt>
      <trkpt lat="45.84536" lon="4.24337">
        <ele>509</ele>
        <time>2018-06-11T12:31:09Z</time>
      </trkpt>
      <trkpt lat="45.84538" lon="4.24341">
        <ele>510</ele>
        <time>2018-06-11T12:31:14Z</time>
      </trkpt>
      <trkpt lat="45.8454" lon="4.24343">
        <ele>510</ele>
        <time>2018-06-11T12:31:20Z</time>
      </trkpt>
      <trkpt lat="45.84544" lon="4.2435">
        <ele>511</ele>
        <time>2018-06-11T12:31:26Z</time>
      </trkpt>
      <trkpt lat="45.84547" lon="4.24353">
        <ele>511</ele>
        <time>2018-06-11T12:31:32Z</time>
      </trkpt>
      <trkpt lat="45.8455" lon="4.2436">
        <ele>511</ele>
        <time>2018-06-11T12:31:37Z</time>
      </trkpt>
      <trkpt lat="45.84557" lon="4.24367">
        <ele>512</ele>
        <time>2018-06-11T12:31:43Z</time>
      </trkpt>
      <trkpt lat="45.84561" lon="4.24373">
        <ele>512</ele>
        <time>2018-06-11T12:31:49Z</time>
      </trkpt>
      <trkpt lat="45.84563" lon="4.24374">
        <ele>512</ele>
        <time>2018-06-11T12:31:55Z</time>
      </trkpt>
      <trkpt lat="45.84565" lon="4.24377">
        <ele>512</ele>
        <time>2018-06-11T12:32:00Z</time>
      </trkpt>
      <trkpt lat="45.84566" lon="4.24384">
        <ele>513</ele>
        <time>2018-06-11T12:32:06Z</time>
      </trkpt>
      <trkpt lat="45.84571" lon="4.24391">
        <ele>513</ele>
        <time>2018-06-11T12:32:12Z</time>
      </trkpt>
      <trkpt lat="45.84572" lon="4.24397">
        <ele>513</ele>
        <time>2018-06-11T12:32:17Z</time>
      </trkpt>
      <trkpt lat="45.84577" lon="4.24401">
        <ele>513</ele>
        <time>2018-06-11T12:32:23Z</time>
      </trkpt>
      <trkpt lat="45.84581" lon="4.24406">
        <ele>513</ele>
        <time>2018-06-11T12:32:29Z</time>
      </trkpt>
      <trkpt lat="45.84587" lon="4.24412">
        <ele>516</ele>
        <time>2018-06-11T12:32:35Z</time>
      </trkpt>
      <trkpt lat="45.8459" lon="4.24415">
        <ele>516</ele>
        <time>2018-06-11T12:32:41Z</time>
      </trkpt>
      <trkpt lat="45.84591" lon="4.24422">
        <ele>516</ele>
        <time>2018-06-11T12:32:46Z</time>
      </trkpt>
      <trkpt lat="45.84593" lon="4.24431">
        <ele>517</ele>
        <time>2018-06-11T12:32:52Z</time>
      </trkpt>
      <trkpt lat="45.84596" lon="4.24436">
        <ele>518</ele>
        <time>2018-06-11T12:32:58Z</time>
      </trkpt>
      <trkpt lat="45.84599" lon="4.24442">
        <ele>519</ele>
        <time>2018-06-11T12:33:04Z</time>
      </trkpt>
      <trkpt lat="45.84603" lon="4.24449">
        <ele>519</ele>
        <time>2018-06-11T12:33:09Z</time>
      </trkpt>
      <trkpt lat="45.84609" lon="4.24455">
        <ele>520</ele>
        <time>2018-06-11T12:33:15Z</time>
      </trkpt>
      <trkpt lat="45.84614" lon="4.24458">
        <ele>520</ele>
        <time>2018-06-11T12:33:20Z</time>
      </trkpt>
      <trkpt lat="45.8462" lon="4.24461">
        <ele>520</ele>
        <time>2018-06-11T12:33:26Z</time>
      </trkpt>
      <trkpt lat="45.84626" lon="4.24467">
        <ele>520</ele>
        <time>2018-06-11T12:33:32Z</time>
      </trkpt>
      <trkpt lat="45.84631" lon="4.24472">
        <ele>520</ele>
        <time>2018-06-11T12:33:38Z</time>
      </trkpt>
      <trkpt lat="45.84634" lon="4.24479">
        <ele>521</ele>
        <time>2018-06-11T12:33:43Z</time>
      </trkpt>
      <trkpt lat="45.84638" lon="4.24485">
        <ele>521</ele>
        <time>2018-06-11T12:33:48Z</time>
      </trkpt>
      <trkpt lat="45.84644" lon="4.24492">
        <ele>521</ele>
        <time>2018-06-11T12:33:54Z</time>
      </trkpt>
      <trkpt lat="45.84648" lon="4.24497">
        <ele>521</ele>
        <time>2018-06-11T12:34:00Z</time>
      </trkpt>
      <trkpt lat="45.84652" lon="4.24508">
        <ele>523</ele>
        <time>2018-06-11T12:34:06Z</time>
      </trkpt>
      <trkpt lat="45.84654" lon="4.24517">
        <ele>524</ele>
        <time>2018-06-11T12:34:12Z</time>
      </trkpt>
      <trkpt lat="45.84659" lon="4.24526">
        <ele>524</ele>
        <time>2018-06-11T12:34:18Z</time>
      </trkpt>
      <trkpt lat="45.84663" lon="4.2453">
        <ele>524</ele>
        <time>2018-06-11T12:34:23Z</time>
      </trkpt>
      <trkpt lat="45.84667" lon="4.24537">
        <ele>528</ele>
        <time>2018-06-11T12:34:29Z</time>
      </trkpt>
      <trkpt lat="45.8467" lon="4.24543">
        <ele>528</ele>
        <time>2018-06-11T12:34:35Z</time>
      </trkpt>
      <trkpt lat="45.84675" lon="4.24549">
        <ele>529</ele>
        <time>2018-06-11T12:34:41Z</time>
      </trkpt>
      <trkpt lat="45.84679" lon="4.24561">
        <ele>529</ele>
        <time>2018-06-11T12:34:47Z</time>
      </trkpt>
      <trkpt lat="45.84683" lon="4.24566">
        <ele>529</ele>
        <time>2018-06-11T12:34:53Z</time>
      </trkpt>
      <trkpt lat="45.84684" lon="4.24576">
        <ele>529</ele>
        <time>2018-06-11T12:34:58Z</time>
      </trkpt>
      <trkpt lat="45.84689" lon="4.24583">
        <ele>529</ele>
        <time>2018-06-11T12:35:03Z</time>
      </trkpt>
      <trkpt lat="45.84692" lon="4.24591">
        <ele>531</ele>
        <time>2018-06-11T12:35:09Z</time>
      </trkpt>
      <trkpt lat="45.84694" lon="4.24595">
        <ele>532</ele>
        <time>2018-06-11T12:35:15Z</time>
      </trkpt>
      <trkpt lat="45.84696" lon="4.24601">
        <ele>532</ele>
        <time>2018-06-11T12:35:21Z</time>
      </trkpt>
      <trkpt lat="45.84698" lon="4.24611">
        <ele>532</ele>
        <time>2018-06-11T12:35:27Z</time>
      </trkpt>
      <trkpt lat="45.84701" lon="4.24614">
        <ele>533</ele>
        <time>2018-06-11T12:35:33Z</time>
      </trkpt>
      <trkpt lat="45.84707" lon="4.24623">
        <ele>533</ele>
        <time>2018-06-11T12:35:39Z</time>
      </trkpt>
      <trkpt lat="45.84712" lon="4.2463">
        <ele>533</ele>
        <time>2018-06-11T12:35:45Z</time>
      </trkpt>
      <trkpt lat="45.84716" lon="4.24635">
        <ele>533</ele>
        <time>2018-06-11T12:35:51Z</time>
      </trkpt>
      <trkpt lat="45.84718" lon="4.24638">
        <ele>533</ele>
        <time>2018-06-11T12:35:57Z</time>
      </trkpt>
      <trkpt lat="45.8472" lon="4.24641">
        <ele>533</ele>
        <time>2018-06-11T12:36:02Z</time>
      </trkpt>
      <trkpt lat="45.84727" lon="4.24646">
        <ele>533</ele>
        <time>2018-06-11T12:36:08Z</time>
      </trkpt>
      <trkpt lat="45.84733" lon="4.24652">
        <ele>533</ele>
        <time>2018-06-11T12:36:14Z</time>
      </trkpt>
      <trkpt lat="45.84737" lon="4.24656">
        <ele>533</ele>
        <time>2018-06-11T12:36:20Z</time>
      </trkpt>
      <trkpt lat="45.84742" lon="4.2466">
        <ele>533</ele>
        <time>2018-06-11T12:36:25Z</time>
      </trkpt>
      <trkpt lat="45.84746" lon="4.24664">
        <ele>532</ele>
        <time>2018-06-11T12:36:30Z</time>
      </trkpt>
      <trkpt lat="45.8475" lon="4.24669">
        <ele>532</ele>
        <time>2018-06-11T12:36:36Z</time>
      </trkpt>
      <trkpt lat="45.84753" lon="4.2467">
        <ele>533</ele>
        <time>2018-06-11T12:36:42Z</time>
      </trkpt>
      <trkpt lat="45.84758" lon="4.24674">
        <ele>534</ele>
        <time>2018-06-11T12:36:48Z</time>
      </trkpt>
      <trkpt lat="45.84764" lon="4.24681">
        <ele>535</ele>
        <time>2018-06-11T12:36:54Z</time>
      </trkpt>
      <trkpt lat="45.84771" lon="4.24689">
        <ele>536</ele>
        <time>2018-06-11T12:37:00Z</time>
      </trkpt>
      <trkpt lat="45.84774" lon="4.24692">
        <ele>536</ele>
        <time>2018-06-11T12:37:05Z</time>
      </trkpt>
      <trkpt lat="45.8478" lon="4.24695">
        <ele>537</ele>
        <time>2018-06-11T12:37:11Z</time>
      </trkpt>
      <trkpt lat="45.84786" lon="4.24702">
        <ele>537</ele>
        <time>2018-06-11T12:37:17Z</time>
      </trkpt>
      <trkpt lat="45.84792" lon="4.24707">
        <ele>537</ele>
        <time>2018-06-11T12:37:22Z</time>
      </trkpt>
      <trkpt lat="45.84795" lon="4.24708">
        <ele>537</ele>
        <time>2018-06-11T12:37:28Z</time>
      </trkpt>
      <trkpt lat="45.84801" lon="4.24713">
        <ele>538</ele>
        <time>2018-06-11T12:37:34Z</time>
      </trkpt>
      <trkpt lat="45.84805" lon="4.2472">
        <ele>538</ele>
        <time>2018-06-11T12:37:40Z</time>
      </trkpt>
      <trkpt lat="45.84809" lon="4.24724">
        <ele>538</ele>
        <time>2018-06-11T12:37:45Z</time>
      </trkpt>
      <trkpt lat="45.84813" lon="4.24728">
        <ele>538</ele>
        <time>2018-06-11T12:37:51Z</time>
      </trkpt>
      <trkpt lat="45.84819" lon="4.24735">
        <ele>538</ele>
        <time>2018-06-11T12:37:57Z</time>
      </trkpt>
      <trkpt lat="45.84822" lon="4.2474">
        <ele>538</ele>
        <time>2018-06-11T12:38:03Z</time>
      </trkpt>
      <trkpt lat="45.84824" lon="4.24746">
        <ele>538</ele>
        <time>2018-06-11T12:38:08Z</time>
      </trkpt>
      <trkpt lat="45.8483" lon="4.24751">
        <ele>539</ele>
        <time>2018-06-11T12:38:13Z</time>
      </trkpt>
      <trkpt lat="45.84834" lon="4.24756">
        <ele>540</ele>
        <time>2018-06-11T12:38:19Z</time>
      </trkpt>
      <trkpt lat="45.8484" lon="4.24762">
        <ele>541</ele>
        <time>2018-06-11T12:38:25Z</time>
      </trkpt>
      <trkpt lat="45.84844" lon="4.24765">
        <ele>542</ele>
        <time>2018-06-11T12:38:31Z</time>
      </trkpt>
      <trkpt lat="45.84848" lon="4.24773">
        <ele>542</ele>
        <time>2018-06-11T12:38:37Z</time>
      </trkpt>
      <trkpt lat="45.84852" lon="4.24778">
        <ele>543</ele>
        <time>2018-06-11T12:38:43Z</time>
      </trkpt>
      <trkpt lat="45.84858" lon="4.24787">
        <ele>543</ele>
        <time>2018-06-11T12:38:49Z</time>
      </trkpt>
      <trkpt lat="45.84862" lon="4.24792">
        <ele>543</ele>
        <time>2018-06-11T12:38:55Z</time>
      </trkpt>
      <trkpt lat="45.84867" lon="4.24799">
        <ele>544</ele>
        <time>2018-06-11T12:39:01Z</time>
      </trkpt>
      <trkpt lat="45.8487" lon="4.24809">
        <ele>544</ele>
        <time>2018-06-11T12:39:07Z</time>
      </trkpt>
      <trkpt lat="45.84872" lon="4.24819">
        <ele>544</ele>
        <time>2018-06-11T12:39:13Z</time>
      </trkpt>
      <trkpt lat="45.84875" lon="4.24829">
        <ele>544</ele>
        <time>2018-06-11T12:39:19Z</time>
      </trkpt>
      <trkpt lat="45.84876" lon="4.24834">
        <ele>543</ele>
        <time>2018-06-11T12:39:25Z</time>
      </trkpt>
      <trkpt lat="45.84879" lon="4.24842">
        <ele>544</ele>
        <time>2018-06-11T12:39:31Z</time>
      </trkpt>
      <trkpt lat="45.84882" lon="4.24847">
        <ele>544</ele>
        <time>2018-06-11T12:39:37Z</time>
      </trkpt>
      <trkpt lat="45.84883" lon="4.24855">
        <ele>544</ele>
        <time>2018-06-11T12:39:43Z</time>
      </trkpt>
      <trkpt lat="45.84884" lon="4.24864">
        <ele>544</ele>
        <time>2018-06-11T12:39:48Z</time>
      </trkpt>
      <trkpt lat="45.84887" lon="4.24876">
        <ele>544</ele>
        <time>2018-06-11T12:39:54Z</time>
      </trkpt>
      <trkpt lat="45.84888" lon="4.24881">
        <ele>544</ele>
        <time>2018-06-11T12:39:59Z</time>
      </trkpt>
      <trkpt lat="45.8489" lon="4.24886">
        <ele>544</ele>
        <time>2018-06-11T12:40:04Z</time>
      </trkpt>
      <trkpt lat="45.84891" lon="4.24896">
        <ele>544</ele>
        <time>2018-06-11T12:40:10Z</time>
      </trkpt>
      <trkpt lat="45.84893" lon="4.24906">
        <ele>544</ele>
        <time>2018-06-11T12:40:16Z</time>
      </trkpt>
      <trkpt lat="45.84895" lon="4.24914">
        <ele>544</ele>
        <time>2018-06-11T12:40:21Z</time>
      </trkpt>
      <trkpt lat="45.84896" lon="4.24921">
        <ele>546</ele>
        <time>2018-06-11T12:40:27Z</time>
      </trkpt>
      <trkpt lat="45.84896" lon="4.24932">
        <ele>546</ele>
        <time>2018-06-11T12:40:33Z</time>
      </trkpt>
      <trkpt lat="45.84897" lon="4.24941">
        <ele>546</ele>
        <time>2018-06-11T12:40:39Z</time>
      </trkpt>
      <trkpt lat="45.849" lon="4.24949">
        <ele>546</ele>
        <time>2018-06-11T12:40:45Z</time>
      </trkpt>
      <trkpt lat="45.849" lon="4.24954">
        <ele>546</ele>
        <time>2018-06-11T12:40:51Z</time>
      </trkpt>
      <trkpt lat="45.84902" lon="4.24963">
        <ele>547</ele>
        <time>2018-06-11T12:40:57Z</time>
      </trkpt>
      <trkpt lat="45.84904" lon="4.24973">
        <ele>547</ele>
        <time>2018-06-11T12:41:02Z</time>
      </trkpt>
      <trkpt lat="45.84905" lon="4.24986">
        <ele>547</ele>
        <time>2018-06-11T12:41:08Z</time>
      </trkpt>
      <trkpt lat="45.84906" lon="4.24993">
        <ele>547</ele>
        <time>2018-06-11T12:41:14Z</time>
      </trkpt>
      <trkpt lat="45.84906" lon="4.24998">
        <ele>548</ele>
        <time>2018-06-11T12:41:19Z</time>
      </trkpt>
      <trkpt lat="45.84908" lon="4.25008">
        <ele>550</ele>
        <time>2018-06-11T12:41:25Z</time>
      </trkpt>
      <trkpt lat="45.8491" lon="4.25016">
        <ele>550</ele>
        <time>2018-06-11T12:41:31Z</time>
      </trkpt>
      <trkpt lat="45.84912" lon="4.25021">
        <ele>550</ele>
        <time>2018-06-11T12:41:36Z</time>
      </trkpt>
      <trkpt lat="45.84913" lon="4.25025">
        <ele>551</ele>
        <time>2018-06-11T12:41:42Z</time>
      </trkpt>
      <trkpt lat="45.84912" lon="4.25026">
        <ele>551</ele>
        <time>2018-06-11T12:41:48Z</time>
      </trkpt>
      <trkpt lat="45.84911" lon="4.25026">
        <ele>551</ele>
        <time>2018-06-11T12:41:54Z</time>
      </trkpt>
      <trkpt lat="45.8491" lon="4.25028">
        <ele>551</ele>
        <time>2018-06-11T12:42:00Z</time>
      </trkpt>
      <trkpt lat="45.84909" lon="4.25027">
        <ele>551</ele>
        <time>2018-06-11T12:42:05Z</time>
      </trkpt>
      <trkpt lat="45.84908" lon="4.25029">
        <ele>551</ele>
        <time>2018-06-11T12:42:11Z</time>
      </trkpt>
      <trkpt lat="45.84908" lon="4.25032">
        <ele>551</ele>
        <time>2018-06-11T12:42:17Z</time>
      </trkpt>
      <trkpt lat="45.84908" lon="4.25032">
        <ele>551</ele>
        <time>2018-06-11T12:42:22Z</time>
      </trkpt>
      <trkpt lat="45.84907" lon="4.2503">
        <ele>551</ele>
        <time>2018-06-11T12:42:28Z</time>
      </trkpt>
      <trkpt lat="45.84908" lon="4.25029">
        <ele>551</ele>
        <time>2018-06-11T12:42:36Z</time>
      </trkpt>
      <trkpt lat="45.84907" lon="4.25029">
        <ele>551</ele>
        <time>2018-06-11T12:42:42Z</time>
      </trkpt>
      <trkpt lat="45.84905" lon="4.25028">
        <ele>551</ele>
        <time>2018-06-11T12:42:47Z</time>
      </trkpt>
      <trkpt lat="45.84905" lon="4.25027">
        <ele>551</ele>
        <time>2018-06-11T12:42:53Z</time>
      </trkpt>
      <trkpt lat="45.84909" lon="4.25027">
        <ele>551</ele>
        <time>2018-06-11T12:42:59Z</time>
      </trkpt>
      <trkpt lat="45.84913" lon="4.25026">
        <ele>551</ele>
        <time>2018-06-11T12:43:05Z</time>
      </trkpt>
      <trkpt lat="45.84913" lon="4.25026">
        <ele>551</ele>
        <time>2018-06-11T12:43:10Z</time>
      </trkpt>
      <trkpt lat="45.8491" lon="4.25026">
        <ele>551</ele>
        <time>2018-06-11T12:43:15Z</time>
      </trkpt>
      <trkpt lat="45.84911" lon="4.25025">
        <ele>551</ele>
        <time>2018-06-11T12:43:20Z</time>
      </trkpt>
      <trkpt lat="45.84911" lon="4.25022">
        <ele>550</ele>
        <time>2018-06-11T12:43:25Z</time>
      </trkpt>
      <trkpt lat="45.84911" lon="4.25022">
        <ele>550</ele>
        <time>2018-06-11T12:43:31Z</time>
      </trkpt>
      <trkpt lat="45.84911" lon="4.25022">
        <ele>550</ele>
        <time>2018-06-11T12:43:36Z</time>
      </trkpt>
      <trkpt lat="45.84912" lon="4.25021">
        <ele>550</ele>
        <time>2018-06-11T12:43:42Z</time>
      </trkpt>
      <trkpt lat="45.84912" lon="4.25022">
        <ele>550</ele>
        <time>2018-06-11T12:43:47Z</time>
      </trkpt>
      <trkpt lat="45.84913" lon="4.25021">
        <ele>550</ele>
        <time>2018-06-11T12:43:52Z</time>
      </trkpt>
      <trkpt lat="45.84913" lon="4.2502">
        <ele>550</ele>
        <time>2018-06-11T12:43:58Z</time>
      </trkpt>
      <trkpt lat="45.84912" lon="4.2502">
        <ele>550</ele>
        <time>2018-06-11T12:44:04Z</time>
      </trkpt>
      <trkpt lat="45.84912" lon="4.2502">
        <ele>550</ele>
        <time>2018-06-11T12:44:10Z</time>
      </trkpt>
      <trkpt lat="45.84912" lon="4.2502">
        <ele>550</ele>
        <time>2018-06-11T12:44:16Z</time>
      </trkpt>
      <trkpt lat="45.84912" lon="4.25019">
        <ele>550</ele>
        <time>2018-06-11T12:44:21Z</time>
      </trkpt>
      <trkpt lat="45.84913" lon="4.25018">
        <ele>550</ele>
        <time>2018-06-11T12:44:27Z</time>
      </trkpt>
      <trkpt lat="45.84913" lon="4.25018">
        <ele>550</ele>
        <time>2018-06-11T12:44:33Z</time>
      </trkpt>
      <trkpt lat="45.84913" lon="4.25018">
        <ele>550</ele>
        <time>2018-06-11T12:44:38Z</time>
      </trkpt>
      <trkpt lat="45.84913" lon="4.25018">
        <ele>550</ele>
        <time>2018-06-11T12:44:43Z</time>
      </trkpt>
      <trkpt lat="45.84913" lon="4.25018">
        <ele>550</ele>
        <time>2018-06-11T12:44:49Z</time>
      </trkpt>
      <trkpt lat="45.84912" lon="4.25019">
        <ele>550</ele>
        <time>2018-06-11T12:44:54Z</time>
      </trkpt>
      <trkpt lat="45.84912" lon="4.25019">
        <ele>550</ele>
        <time>2018-06-11T12:44:59Z</time>
      </trkpt>
      <trkpt lat="45.84912" lon="4.25019">
        <ele>550</ele>
        <time>2018-06-11T12:45:05Z</time>
      </trkpt>
      <trkpt lat="45.84912" lon="4.25019">
        <ele>550</ele>
        <time>2018-06-11T12:45:11Z</time>
      </trkpt>
      <trkpt lat="45.84912" lon="4.25019">
        <ele>550</ele>
        <time>2018-06-11T12:45:16Z</time>
      </trkpt>
      <trkpt lat="45.84912" lon="4.25019">
        <ele>550</ele>
        <time>2018-06-11T12:45:22Z</time>
      </trkpt>
      <trkpt lat="45.84912" lon="4.25019">
        <ele>550</ele>
        <time>2018-06-11T12:45:28Z</time>
      </trkpt>
      <trkpt lat="45.84912" lon="4.25019">
        <ele>550</ele>
        <time>2018-06-11T12:45:33Z</time>
      </trkpt>
      <trkpt lat="45.84912" lon="4.25019">
        <ele>550</ele>
        <time>2018-06-11T12:45:39Z</time>
      </trkpt>
      <trkpt lat="45.84913" lon="4.25019">
        <ele>550</ele>
        <time>2018-06-11T12:45:44Z</time>
      </trkpt>
      <trkpt lat="45.84913" lon="4.25019">
        <ele>550</ele>
        <time>2018-06-11T12:45:49Z</time>
      </trkpt>
      <trkpt lat="45.84913" lon="4.25019">
        <ele>550</ele>
        <time>2018-06-11T12:45:54Z</time>
      </trkpt>
      <trkpt lat="45.84913" lon="4.25019">
        <ele>550</ele>
        <time>2018-06-11T12:46:00Z</time>
      </trkpt>
      <trkpt lat="45.84913" lon="4.25019">
        <ele>550</ele>
        <time>2018-06-11T12:46:06Z</time>
      </trkpt>
      <trkpt lat="45.84913" lon="4.25019">
        <ele>550</ele>
        <time>2018-06-11T12:46:12Z</time>
      </trkpt>
      <trkpt lat="45.84913" lon="4.25019">
        <ele>550</ele>
        <time>2018-06-11T12:46:17Z</time>
      </trkpt>
      <trkpt lat="45.84913" lon="4.25019">
        <ele>550</ele>
        <time>2018-06-11T12:46:22Z</time>
      </trkpt>
      <trkpt lat="45.84912" lon="4.25019">
        <ele>550</ele>
        <time>2018-06-11T12:46:27Z</time>
      </trkpt>
      <trkpt lat="45.84912" lon="4.25019">
        <ele>550</ele>
        <time>2018-06-11T12:46:32Z</time>
      </trkpt>
      <trkpt lat="45.84912" lon="4.25019">
        <ele>550</ele>
        <time>2018-06-11T12:46:38Z</time>
      </trkpt>
      <trkpt lat="45.84912" lon="4.25019">
        <ele>550</ele>
        <time>2018-06-11T12:46:43Z</time>
      </trkpt>
      <trkpt lat="45.84912" lon="4.25019">
        <ele>550</ele>
        <time>2018-06-11T12:46:49Z</time>
      </trkpt>
      <trkpt lat="45.84912" lon="4.25019">
        <ele>550</ele>
        <time>2018-06-11T12:46:54Z</time>
      </trkpt>
      <trkpt lat="45.84912" lon="4.25019">
        <ele>550</ele>
        <time>2018-06-11T12:47:00Z</time>
      </trkpt>
      <trkpt lat="45.84912" lon="4.25019">
        <ele>550</ele>
        <time>2018-06-11T12:47:06Z</time>
      </trkpt>
      <trkpt lat="45.84912" lon="4.25019">
        <ele>550</ele>
        <time>2018-06-11T12:47:12Z</time>
      </trkpt>
      <trkpt lat="45.84911" lon="4.25021">
        <ele>550</ele>
        <time>2018-06-11T12:47:18Z</time>
      </trkpt>
      <trkpt lat="45.8491" lon="4.25028">
        <ele>551</ele>
        <time>2018-06-11T12:47:23Z</time>
      </trkpt>
      <trkpt lat="45.84908" lon="4.25039">
        <ele>552</ele>
        <time>2018-06-11T12:47:29Z</time>
      </trkpt>
      <trkpt lat="45.84908" lon="4.25048">
        <ele>552</ele>
        <time>2018-06-11T12:47:35Z</time>
      </trkpt>
      <trkpt lat="45.84908" lon="4.25057">
        <ele>552</ele>
        <time>2018-06-11T12:47:41Z</time>
      </trkpt>
      <trkpt lat="45.84909" lon="4.25064">
        <ele>553</ele>
        <time>2018-06-11T12:47:46Z</time>
      </trkpt>
      <trkpt lat="45.84909" lon="4.2507">
        <ele>553</ele>
        <time>2018-06-11T12:47:51Z</time>
      </trkpt>
      <trkpt lat="45.8491" lon="4.25076">
        <ele>553</ele>
        <time>2018-06-11T12:47:57Z</time>
      </trkpt>
      <trkpt lat="45.84911" lon="4.25088">
        <ele>555</ele>
        <time>2018-06-11T12:48:03Z</time>
      </trkpt>
      <trkpt lat="45.84913" lon="4.25101">
        <ele>556</ele>
        <time>2018-06-11T12:48:09Z</time>
      </trkpt>
      <trkpt lat="45.84912" lon="4.25109">
        <ele>557</ele>
        <time>2018-06-11T12:48:14Z</time>
      </trkpt>
      <trkpt lat="45.84911" lon="4.25121">
        <ele>558</ele>
        <time>2018-06-11T12:48:20Z</time>
      </trkpt>
      <trkpt lat="45.8491" lon="4.25133">
        <ele>558</ele>
        <time>2018-06-11T12:48:26Z</time>
      </trkpt>
      <trkpt lat="45.84909" lon="4.25141">
        <ele>559</ele>
        <time>2018-06-11T12:48:31Z</time>
      </trkpt>
      <trkpt lat="45.84909" lon="4.25151">
        <ele>559</ele>
        <time>2018-06-11T12:48:37Z</time>
      </trkpt>
      <trkpt lat="45.8491" lon="4.25158">
        <ele>559</ele>
        <time>2018-06-11T12:48:42Z</time>
      </trkpt>
      <trkpt lat="45.84909" lon="4.25165">
        <ele>560</ele>
        <time>2018-06-11T12:48:48Z</time>
      </trkpt>
      <trkpt lat="45.84909" lon="4.25176">
        <ele>562</ele>
        <time>2018-06-11T12:48:53Z</time>
      </trkpt>
      <trkpt lat="45.84911" lon="4.25185">
        <ele>563</ele>
        <time>2018-06-11T12:48:58Z</time>
      </trkpt>
      <trkpt lat="45.84915" lon="4.25195">
        <ele>563</ele>
        <time>2018-06-11T12:49:04Z</time>
      </trkpt>
      <trkpt lat="45.84916" lon="4.25201">
        <ele>564</ele>
        <time>2018-06-11T12:49:09Z</time>
      </trkpt>
      <trkpt lat="45.84918" lon="4.25209">
        <ele>562</ele>
        <time>2018-06-11T12:49:14Z</time>
      </trkpt>
      <trkpt lat="45.84919" lon="4.25216">
        <ele>562</ele>
        <time>2018-06-11T12:49:19Z</time>
      </trkpt>
      <trkpt lat="45.8492" lon="4.25223">
        <ele>563</ele>
        <time>2018-06-11T12:49:25Z</time>
      </trkpt>
      <trkpt lat="45.8492" lon="4.2523">
        <ele>564</ele>
        <time>2018-06-11T12:49:30Z</time>
      </trkpt>
      <trkpt lat="45.84922" lon="4.25238">
        <ele>565</ele>
        <time>2018-06-11T12:49:36Z</time>
      </trkpt>
      <trkpt lat="45.84925" lon="4.25245">
        <ele>565</ele>
        <time>2018-06-11T12:49:42Z</time>
      </trkpt>
      <trkpt lat="45.84928" lon="4.25253">
        <ele>567</ele>
        <time>2018-06-11T12:49:48Z</time>
      </trkpt>
      <trkpt lat="45.84931" lon="4.25264">
        <ele>567</ele>
        <time>2018-06-11T12:49:54Z</time>
      </trkpt>
      <trkpt lat="45.84932" lon="4.25267">
        <ele>567</ele>
        <time>2018-06-11T12:49:59Z</time>
      </trkpt>
      <trkpt lat="45.84935" lon="4.25271">
        <ele>567</ele>
        <time>2018-06-11T12:50:05Z</time>
      </trkpt>
      <trkpt lat="45.84938" lon="4.25279">
        <ele>567</ele>
        <time>2018-06-11T12:50:11Z</time>
      </trkpt>
      <trkpt lat="45.8494" lon="4.25285">
        <ele>567</ele>
        <time>2018-06-11T12:50:16Z</time>
      </trkpt>
      <trkpt lat="45.84948" lon="4.25298">
        <ele>567</ele>
        <time>2018-06-11T12:50:21Z</time>
      </trkpt>
      <trkpt lat="45.84949" lon="4.25307">
        <ele>568</ele>
        <time>2018-06-11T12:50:27Z</time>
      </trkpt>
      <trkpt lat="45.84952" lon="4.25314">
        <ele>568</ele>
        <time>2018-06-11T12:50:32Z</time>
      </trkpt>
      <trkpt lat="45.84954" lon="4.25321">
        <ele>568</ele>
        <time>2018-06-11T12:50:37Z</time>
      </trkpt>
      <trkpt lat="45.84957" lon="4.2533">
        <ele>568</ele>
        <time>2018-06-11T12:50:43Z</time>
      </trkpt>
      <trkpt lat="45.84959" lon="4.25335">
        <ele>571</ele>
        <time>2018-06-11T12:50:48Z</time>
      </trkpt>
      <trkpt lat="45.84963" lon="4.25345">
        <ele>571</ele>
        <time>2018-06-11T12:50:54Z</time>
      </trkpt>
      <trkpt lat="45.84965" lon="4.25352">
        <ele>572</ele>
        <time>2018-06-11T12:50:59Z</time>
      </trkpt>
      <trkpt lat="45.84969" lon="4.25357">
        <ele>572</ele>
        <time>2018-06-11T12:51:04Z</time>
      </trkpt>
      <trkpt lat="45.84973" lon="4.25364">
        <ele>572</ele>
        <time>2018-06-11T12:51:10Z</time>
      </trkpt>
      <trkpt lat="45.84977" lon="4.25371">
        <ele>572</ele>
        <time>2018-06-11T12:51:15Z</time>
      </trkpt>
      <trkpt lat="45.84981" lon="4.25381">
        <ele>572</ele>
        <time>2018-06-11T12:51:21Z</time>
      </trkpt>
      <trkpt lat="45.84981" lon="4.25386">
        <ele>573</ele>
        <time>2018-06-11T12:51:27Z</time>
      </trkpt>
      <trkpt lat="45.84981" lon="4.2539">
        <ele>573</ele>
        <time>2018-06-11T12:51:32Z</time>
      </trkpt>
      <trkpt lat="45.84982" lon="4.25395">
        <ele>573</ele>
        <time>2018-06-11T12:51:37Z</time>
      </trkpt>
      <trkpt lat="45.84983" lon="4.25403">
        <ele>573</ele>
        <time>2018-06-11T12:51:42Z</time>
      </trkpt>
      <trkpt lat="45.84984" lon="4.25417">
        <ele>576</ele>
        <time>2018-06-11T12:51:48Z</time>
      </trkpt>
      <trkpt lat="45.84983" lon="4.25425">
        <ele>576</ele>
        <time>2018-06-11T12:51:54Z</time>
      </trkpt>
      <trkpt lat="45.84983" lon="4.25436">
        <ele>577</ele>
        <time>2018-06-11T12:52:00Z</time>
      </trkpt>
      <trkpt lat="45.84982" lon="4.25447">
        <ele>577</ele>
        <time>2018-06-11T12:52:06Z</time>
      </trkpt>
      <trkpt lat="45.84981" lon="4.25453">
        <ele>577</ele>
        <time>2018-06-11T12:52:11Z</time>
      </trkpt>
      <trkpt lat="45.84979" lon="4.25458">
        <ele>577</ele>
        <time>2018-06-11T12:52:16Z</time>
      </trkpt>
      <trkpt lat="45.84978" lon="4.25464">
        <ele>578</ele>
        <time>2018-06-11T12:52:22Z</time>
      </trkpt>
      <trkpt lat="45.84975" lon="4.2547">
        <ele>578</ele>
        <time>2018-06-11T12:52:28Z</time>
      </trkpt>
      <trkpt lat="45.84972" lon="4.25477">
        <ele>578</ele>
        <time>2018-06-11T12:52:33Z</time>
      </trkpt>
      <trkpt lat="45.84969" lon="4.25491">
        <ele>578</ele>
        <time>2018-06-11T12:52:38Z</time>
      </trkpt>
      <trkpt lat="45.84967" lon="4.25499">
        <ele>578</ele>
        <time>2018-06-11T12:52:44Z</time>
      </trkpt>
      <trkpt lat="45.84968" lon="4.25505">
        <ele>580</ele>
        <time>2018-06-11T12:52:49Z</time>
      </trkpt>
      <trkpt lat="45.84965" lon="4.25512">
        <ele>580</ele>
        <time>2018-06-11T12:52:55Z</time>
      </trkpt>
      <trkpt lat="45.84964" lon="4.25519">
        <ele>581</ele>
        <time>2018-06-11T12:53:01Z</time>
      </trkpt>
      <trkpt lat="45.84961" lon="4.25528">
        <ele>581</ele>
        <time>2018-06-11T12:53:06Z</time>
      </trkpt>
      <trkpt lat="45.8496" lon="4.25539">
        <ele>581</ele>
        <time>2018-06-11T12:53:12Z</time>
      </trkpt>
      <trkpt lat="45.84957" lon="4.25549">
        <ele>581</ele>
        <time>2018-06-11T12:53:18Z</time>
      </trkpt>
      <trkpt lat="45.84956" lon="4.25557">
        <ele>582</ele>
        <time>2018-06-11T12:53:24Z</time>
      </trkpt>
      <trkpt lat="45.84956" lon="4.25566">
        <ele>582</ele>
        <time>2018-06-11T12:53:29Z</time>
      </trkpt>
      <trkpt lat="45.84955" lon="4.25576">
        <ele>582</ele>
        <time>2018-06-11T12:53:34Z</time>
      </trkpt>
      <trkpt lat="45.84952" lon="4.25584">
        <ele>584</ele>
        <time>2018-06-11T12:53:39Z</time>
      </trkpt>
      <trkpt lat="45.84951" lon="4.25595">
        <ele>584</ele>
        <time>2018-06-11T12:53:45Z</time>
      </trkpt>
      <trkpt lat="45.84949" lon="4.25602">
        <ele>584</ele>
        <time>2018-06-11T12:53:50Z</time>
      </trkpt>
      <trkpt lat="45.84945" lon="4.25613">
        <ele>585</ele>
        <time>2018-06-11T12:53:56Z</time>
      </trkpt>
      <trkpt lat="45.84945" lon="4.25617">
        <ele>585</ele>
        <time>2018-06-11T12:54:01Z</time>
      </trkpt>
      <trkpt lat="45.84942" lon="4.25625">
        <ele>585</ele>
        <time>2018-06-11T12:54:06Z</time>
      </trkpt>
      <trkpt lat="45.84941" lon="4.2563">
        <ele>585</ele>
        <time>2018-06-11T12:54:12Z</time>
      </trkpt>
      <trkpt lat="45.8494" lon="4.25634">
        <ele>586</ele>
        <time>2018-06-11T12:54:18Z</time>
      </trkpt>
      <trkpt lat="45.84938" lon="4.25639">
        <ele>586</ele>
        <time>2018-06-11T12:54:23Z</time>
      </trkpt>
      <trkpt lat="45.84938" lon="4.25647">
        <ele>587</ele>
        <time>2018-06-11T12:54:29Z</time>
      </trkpt>
      <trkpt lat="45.84937" lon="4.2565">
        <ele>587</ele>
        <time>2018-06-11T12:54:35Z</time>
      </trkpt>
      <trkpt lat="45.84938" lon="4.25658">
        <ele>587</ele>
        <time>2018-06-11T12:54:40Z</time>
      </trkpt>
      <trkpt lat="45.84936" lon="4.25667">
        <ele>590</ele>
        <time>2018-06-11T12:54:46Z</time>
      </trkpt>
      <trkpt lat="45.84934" lon="4.25671">
        <ele>590</ele>
        <time>2018-06-11T12:54:51Z</time>
      </trkpt>
      <trkpt lat="45.84934" lon="4.25673">
        <ele>590</ele>
        <time>2018-06-11T12:54:57Z</time>
      </trkpt>
      <trkpt lat="45.8493" lon="4.2568">
        <ele>590</ele>
        <time>2018-06-11T12:55:02Z</time>
      </trkpt>
      <trkpt lat="45.84928" lon="4.25693">
        <ele>590</ele>
        <time>2018-06-11T12:55:08Z</time>
      </trkpt>
      <trkpt lat="45.84927" lon="4.25698">
        <ele>590</ele>
        <time>2018-06-11T12:55:14Z</time>
      </trkpt>
      <trkpt lat="45.84924" lon="4.25706">
        <ele>590</ele>
        <time>2018-06-11T12:55:20Z</time>
      </trkpt>
      <trkpt lat="45.8492" lon="4.25727">
        <ele>590</ele>
        <time>2018-06-11T12:55:26Z</time>
      </trkpt>
      <trkpt lat="45.84913" lon="4.25741">
        <ele>592</ele>
        <time>2018-06-11T12:55:32Z</time>
      </trkpt>
      <trkpt lat="45.8491" lon="4.25751">
        <ele>592</ele>
        <time>2018-06-11T12:55:38Z</time>
      </trkpt>
      <trkpt lat="45.8491" lon="4.25754">
        <ele>592</ele>
        <time>2018-06-11T12:55:44Z</time>
      </trkpt>
      <trkpt lat="45.84909" lon="4.25761">
        <ele>592</ele>
        <time>2018-06-11T12:55:49Z</time>
      </trkpt>
      <trkpt lat="45.84908" lon="4.25768">
        <ele>592</ele>
        <time>2018-06-11T12:55:55Z</time>
      </trkpt>
      <trkpt lat="45.84902" lon="4.25782">
        <ele>593</ele>
        <time>2018-06-11T12:56:01Z</time>
      </trkpt>
      <trkpt lat="45.84902" lon="4.25785">
        <ele>593</ele>
        <time>2018-06-11T12:56:07Z</time>
      </trkpt>
      <trkpt lat="45.849" lon="4.25795">
        <ele>593</ele>
        <time>2018-06-11T12:56:12Z</time>
      </trkpt>
      <trkpt lat="45.84895" lon="4.25803">
        <ele>593</ele>
        <time>2018-06-11T12:56:18Z</time>
      </trkpt>
      <trkpt lat="45.84891" lon="4.25823">
        <ele>594</ele>
        <time>2018-06-11T12:56:24Z</time>
      </trkpt>
      <trkpt lat="45.84889" lon="4.2583">
        <ele>594</ele>
        <time>2018-06-11T12:56:30Z</time>
      </trkpt>
      <trkpt lat="45.84887" lon="4.2584">
        <ele>597</ele>
        <time>2018-06-11T12:56:36Z</time>
      </trkpt>
      <trkpt lat="45.84884" lon="4.25848">
        <ele>597</ele>
        <time>2018-06-11T12:56:42Z</time>
      </trkpt>
      <trkpt lat="45.84883" lon="4.25855">
        <ele>597</ele>
        <time>2018-06-11T12:56:47Z</time>
      </trkpt>
      <trkpt lat="45.84882" lon="4.25863">
        <ele>597</ele>
        <time>2018-06-11T12:56:52Z</time>
      </trkpt>
      <trkpt lat="45.84882" lon="4.25865">
        <ele>597</ele>
        <time>2018-06-11T12:56:58Z</time>
      </trkpt>
      <trkpt lat="45.84882" lon="4.25865">
        <ele>597</ele>
        <time>2018-06-11T12:57:03Z</time>
      </trkpt>
      <trkpt lat="45.84882" lon="4.25865">
        <ele>597</ele>
        <time>2018-06-11T12:57:09Z</time>
      </trkpt>
      <trkpt lat="45.84882" lon="4.25865">
        <ele>597</ele>
        <time>2018-06-11T12:57:14Z</time>
      </trkpt>
      <trkpt lat="45.84882" lon="4.25865">
        <ele>597</ele>
        <time>2018-06-11T12:57:19Z</time>
      </trkpt>
      <trkpt lat="45.84882" lon="4.25865">
        <ele>597</ele>
        <time>2018-06-11T12:57:25Z</time>
      </trkpt>
      <trkpt lat="45.84882" lon="4.25865">
        <ele>597</ele>
        <time>2018-06-11T12:57:30Z</time>
      </trkpt>
      <trkpt lat="45.84882" lon="4.25865">
        <ele>597</ele>
        <time>2018-06-11T12:57:36Z</time>
      </trkpt>
      <trkpt lat="45.84882" lon="4.25865">
        <ele>597</ele>
        <time>2018-06-11T12:57:41Z</time>
      </trkpt>
      <trkpt lat="45.84882" lon="4.25865">
        <ele>597</ele>
        <time>2018-06-11T12:57:46Z</time>
      </trkpt>
      <trkpt lat="45.84882" lon="4.25865">
        <ele>597</ele>
        <time>2018-06-11T12:57:51Z</time>
      </trkpt>
      <trkpt lat="45.84882" lon="4.25865">
        <ele>597</ele>
        <time>2018-06-11T12:57:56Z</time>
      </trkpt>
      <trkpt lat="45.84882" lon="4.25865">
        <ele>597</ele>
        <time>2018-06-11T12:58:02Z</time>
      </trkpt>
      <trkpt lat="45.84882" lon="4.25865">
        <ele>597</ele>
        <time>2018-06-11T12:58:08Z</time>
      </trkpt>
      <trkpt lat="45.84882" lon="4.25865">
        <ele>597</ele>
        <time>2018-06-11T12:58:14Z</time>
      </trkpt>
      <trkpt lat="45.84882" lon="4.25865">
        <ele>597</ele>
        <time>2018-06-11T12:58:19Z</time>
      </trkpt>
      <trkpt lat="45.84882" lon="4.25865">
        <ele>597</ele>
        <time>2018-06-11T12:58:25Z</time>
      </trkpt>
      <trkpt lat="45.84882" lon="4.25865">
        <ele>597</ele>
        <time>2018-06-11T12:58:31Z</time>
      </trkpt>
      <trkpt lat="45.84882" lon="4.25865">
        <ele>597</ele>
        <time>2018-06-11T12:58:37Z</time>
      </trkpt>
      <trkpt lat="45.84882" lon="4.25865">
        <ele>597</ele>
        <time>2018-06-11T12:58:42Z</time>
      </trkpt>
      <trkpt lat="45.84882" lon="4.25865">
        <ele>597</ele>
        <time>2018-06-11T12:58:48Z</time>
      </trkpt>
      <trkpt lat="45.84883" lon="4.25866">
        <ele>598</ele>
        <time>2018-06-11T12:58:54Z</time>
      </trkpt>
      <trkpt lat="45.84886" lon="4.25868">
        <ele>598</ele>
        <time>2018-06-11T12:58:59Z</time>
      </trkpt>
      <trkpt lat="45.84895" lon="4.25868">
        <ele>598</ele>
        <time>2018-06-11T12:59:05Z</time>
      </trkpt>
      <trkpt lat="45.84902" lon="4.25864">
        <ele>598</ele>
        <time>2018-06-11T12:59:11Z</time>
      </trkpt>
      <trkpt lat="45.84905" lon="4.2586">
        <ele>598</ele>
        <time>2018-06-11T12:59:16Z</time>
      </trkpt>
      <trkpt lat="45.84912" lon="4.25855">
        <ele>598</ele>
        <time>2018-06-11T12:59:22Z</time>
      </trkpt>
      <trkpt lat="45.84918" lon="4.25845">
        <ele>600</ele>
        <time>2018-06-11T12:59:28Z</time>
      </trkpt>
      <trkpt lat="45.84921" lon="4.25839">
        <ele>600</ele>
        <time>2018-06-11T12:59:34Z</time>
      </trkpt>
      <trkpt lat="45.84926" lon="4.25837">
        <ele>600</ele>
        <time>2018-06-11T12:59:40Z</time>
      </trkpt>
      <trkpt lat="45.84933" lon="4.25834">
        <ele>601</ele>
        <time>2018-06-11T12:59:45Z</time>
      </trkpt>
      <trkpt lat="45.8494" lon="4.25831">
        <ele>596</ele>
        <time>2018-06-11T12:59:51Z</time>
      </trkpt>
      <trkpt lat="45.84947" lon="4.25832">
        <ele>596</ele>
        <time>2018-06-11T12:59:57Z</time>
      </trkpt>
      <trkpt lat="45.84955" lon="4.25836">
        <ele>602</ele>
        <time>2018-06-11T13:00:02Z</time>
      </trkpt>
      <trkpt lat="45.84963" lon="4.25838">
        <ele>602</ele>
        <time>2018-06-11T13:00:07Z</time>
      </trkpt>
      <trkpt lat="45.84971" lon="4.25838">
        <ele>602</ele>
        <time>2018-06-11T13:00:13Z</time>
      </trkpt>
      <trkpt lat="45.84977" lon="4.25839">
        <ele>602</ele>
        <time>2018-06-11T13:00:18Z</time>
      </trkpt>
      <trkpt lat="45.84982" lon="4.2584">
        <ele>602</ele>
        <time>2018-06-11T13:00:24Z</time>
      </trkpt>
      <trkpt lat="45.84989" lon="4.25841">
        <ele>602</ele>
        <time>2018-06-11T13:00:29Z</time>
      </trkpt>
      <trkpt lat="45.84995" lon="4.25843">
        <ele>601</ele>
        <time>2018-06-11T13:00:34Z</time>
      </trkpt>
      <trkpt lat="45.85004" lon="4.25847">
        <ele>602</ele>
        <time>2018-06-11T13:00:40Z</time>
      </trkpt>
      <trkpt lat="45.85012" lon="4.25852">
        <ele>603</ele>
        <time>2018-06-11T13:00:46Z</time>
      </trkpt>
      <trkpt lat="45.85019" lon="4.25854">
        <ele>603</ele>
        <time>2018-06-11T13:00:51Z</time>
      </trkpt>
      <trkpt lat="45.85024" lon="4.25856">
        <ele>604</ele>
        <time>2018-06-11T13:00:56Z</time>
      </trkpt>
      <trkpt lat="45.85032" lon="4.2586">
        <ele>604</ele>
        <time>2018-06-11T13:01:02Z</time>
      </trkpt>
      <trkpt lat="45.85038" lon="4.25861">
        <ele>604</ele>
        <time>2018-06-11T13:01:08Z</time>
      </trkpt>
      <trkpt lat="45.85044" lon="4.25863">
        <ele>604</ele>
        <time>2018-06-11T13:01:14Z</time>
      </trkpt>
      <trkpt lat="45.85053" lon="4.25867">
        <ele>604</ele>
        <time>2018-06-11T13:01:20Z</time>
      </trkpt>
      <trkpt lat="45.85058" lon="4.25869">
        <ele>604</ele>
        <time>2018-06-11T13:01:25Z</time>
      </trkpt>
      <trkpt lat="45.85054" lon="4.25866">
        <ele>604</ele>
        <time>2018-06-11T13:01:31Z</time>
      </trkpt>
      <trkpt lat="45.85057" lon="4.25863">
        <ele>604</ele>
        <time>2018-06-11T13:01:37Z</time>
      </trkpt>
      <trkpt lat="45.85059" lon="4.25864">
        <ele>604</ele>
        <time>2018-06-11T13:01:43Z</time>
      </trkpt>
      <trkpt lat="45.85068" lon="4.2587">
        <ele>604</ele>
        <time>2018-06-11T13:01:49Z</time>
      </trkpt>
      <trkpt lat="45.85075" lon="4.25869">
        <ele>604</ele>
        <time>2018-06-11T13:01:54Z</time>
      </trkpt>
      <trkpt lat="45.85082" lon="4.25871">
        <ele>604</ele>
        <time>2018-06-11T13:02:00Z</time>
      </trkpt>
      <trkpt lat="45.8509" lon="4.25869">
        <ele>602</ele>
        <time>2018-06-11T13:02:06Z</time>
      </trkpt>
      <trkpt lat="45.85095" lon="4.25871">
        <ele>602</ele>
        <time>2018-06-11T13:02:12Z</time>
      </trkpt>
      <trkpt lat="45.85103" lon="4.25873">
        <ele>602</ele>
        <time>2018-06-11T13:02:18Z</time>
      </trkpt>
      <trkpt lat="45.85108" lon="4.25875">
        <ele>602</ele>
        <time>2018-06-11T13:02:23Z</time>
      </trkpt>
      <trkpt lat="45.85117" lon="4.25878">
        <ele>602</ele>
        <time>2018-06-11T13:02:29Z</time>
      </trkpt>
      <trkpt lat="45.85126" lon="4.25881">
        <ele>602</ele>
        <time>2018-06-11T13:02:35Z</time>
      </trkpt>
      <trkpt lat="45.8513" lon="4.25882">
        <ele>602</ele>
        <time>2018-06-11T13:02:40Z</time>
      </trkpt>
      <trkpt lat="45.85137" lon="4.25886">
        <ele>602</ele>
        <time>2018-06-11T13:02:46Z</time>
      </trkpt>
      <trkpt lat="45.85146" lon="4.25891">
        <ele>602</ele>
        <time>2018-06-11T13:02:52Z</time>
      </trkpt>
      <trkpt lat="45.85153" lon="4.25891">
        <ele>602</ele>
        <time>2018-06-11T13:02:58Z</time>
      </trkpt>
      <trkpt lat="45.8516" lon="4.25893">
        <ele>602</ele>
        <time>2018-06-11T13:03:03Z</time>
      </trkpt>
      <trkpt lat="45.85167" lon="4.25897">
        <ele>600</ele>
        <time>2018-06-11T13:03:08Z</time>
      </trkpt>
      <trkpt lat="45.85174" lon="4.25897">
        <ele>599</ele>
        <time>2018-06-11T13:03:14Z</time>
      </trkpt>
      <trkpt lat="45.85181" lon="4.25899">
        <ele>599</ele>
        <time>2018-06-11T13:03:19Z</time>
      </trkpt>
      <trkpt lat="45.85186" lon="4.259">
        <ele>599</ele>
        <time>2018-06-11T13:03:24Z</time>
      </trkpt>
      <trkpt lat="45.8519" lon="4.25902">
        <ele>599</ele>
        <time>2018-06-11T13:03:29Z</time>
      </trkpt>
      <trkpt lat="45.852" lon="4.25903">
        <ele>598</ele>
        <time>2018-06-11T13:03:35Z</time>
      </trkpt>
      <trkpt lat="45.85208" lon="4.25905">
        <ele>598</ele>
        <time>2018-06-11T13:03:40Z</time>
      </trkpt>
      <trkpt lat="45.85216" lon="4.25904">
        <ele>597</ele>
        <time>2018-06-11T13:03:46Z</time>
      </trkpt>
      <trkpt lat="45.85224" lon="4.25901">
        <ele>597</ele>
        <time>2018-06-11T13:03:52Z</time>
      </trkpt>
      <trkpt lat="45.8523" lon="4.25903">
        <ele>597</ele>
        <time>2018-06-11T13:03:57Z</time>
      </trkpt>
      <trkpt lat="45.85238" lon="4.25906">
        <ele>598</ele>
        <time>2018-06-11T13:04:03Z</time>
      </trkpt>
      <trkpt lat="45.85247" lon="4.25909">
        <ele>598</ele>
        <time>2018-06-11T13:04:09Z</time>
      </trkpt>
      <trkpt lat="45.85255" lon="4.25909">
        <ele>596</ele>
        <time>2018-06-11T13:04:15Z</time>
      </trkpt>
      <trkpt lat="45.85263" lon="4.25911">
        <ele>595</ele>
        <time>2018-06-11T13:04:20Z</time>
      </trkpt>
      <trkpt lat="45.8527" lon="4.25913">
        <ele>594</ele>
        <time>2018-06-11T13:04:26Z</time>
      </trkpt>
      <trkpt lat="45.85277" lon="4.25915">
        <ele>594</ele>
        <time>2018-06-11T13:04:31Z</time>
      </trkpt>
      <trkpt lat="45.85286" lon="4.25918">
        <ele>600</ele>
        <time>2018-06-11T13:04:37Z</time>
      </trkpt>
      <trkpt lat="45.85291" lon="4.25919">
        <ele>599</ele>
        <time>2018-06-11T13:04:42Z</time>
      </trkpt>
      <trkpt lat="45.85301" lon="4.25921">
        <ele>599</ele>
        <time>2018-06-11T13:04:48Z</time>
      </trkpt>
      <trkpt lat="45.85308" lon="4.25923">
        <ele>598</ele>
        <time>2018-06-11T13:04:53Z</time>
      </trkpt>
      <trkpt lat="45.85314" lon="4.25924">
        <ele>597</ele>
        <time>2018-06-11T13:04:58Z</time>
      </trkpt>
      <trkpt lat="45.85324" lon="4.25924">
        <ele>596</ele>
        <time>2018-06-11T13:05:04Z</time>
      </trkpt>
      <trkpt lat="45.85331" lon="4.25924">
        <ele>595</ele>
        <time>2018-06-11T13:05:09Z</time>
      </trkpt>
      <trkpt lat="45.85338" lon="4.25924">
        <ele>592</ele>
        <time>2018-06-11T13:05:15Z</time>
      </trkpt>
      <trkpt lat="45.85348" lon="4.25921">
        <ele>592</ele>
        <time>2018-06-11T13:05:21Z</time>
      </trkpt>
      <trkpt lat="45.85357" lon="4.2592">
        <ele>592</ele>
        <time>2018-06-11T13:05:27Z</time>
      </trkpt>
      <trkpt lat="45.85362" lon="4.25919">
        <ele>592</ele>
        <time>2018-06-11T13:05:33Z</time>
      </trkpt>
      <trkpt lat="45.85371" lon="4.25916">
        <ele>586</ele>
        <time>2018-06-11T13:05:39Z</time>
      </trkpt>
      <trkpt lat="45.85379" lon="4.25914">
        <ele>586</ele>
        <time>2018-06-11T13:05:45Z</time>
      </trkpt>
      <trkpt lat="45.85382" lon="4.25917">
        <ele>591</ele>
        <time>2018-06-11T13:05:51Z</time>
      </trkpt>
      <trkpt lat="45.85384" lon="4.25919">
        <ele>591</ele>
        <time>2018-06-11T13:05:57Z</time>
      </trkpt>
      <trkpt lat="45.85386" lon="4.25921">
        <ele>590</ele>
        <time>2018-06-11T13:06:02Z</time>
      </trkpt>
      <trkpt lat="45.85388" lon="4.2592">
        <ele>590</ele>
        <time>2018-06-11T13:06:07Z</time>
      </trkpt>
      <trkpt lat="45.85395" lon="4.25918">
        <ele>589</ele>
        <time>2018-06-11T13:06:13Z</time>
      </trkpt>
      <trkpt lat="45.85404" lon="4.25915">
        <ele>585</ele>
        <time>2018-06-11T13:06:19Z</time>
      </trkpt>
      <trkpt lat="45.8541" lon="4.25914">
        <ele>585</ele>
        <time>2018-06-11T13:06:25Z</time>
      </trkpt>
      <trkpt lat="45.85417" lon="4.25911">
        <ele>584</ele>
        <time>2018-06-11T13:06:31Z</time>
      </trkpt>
      <trkpt lat="45.85422" lon="4.25909">
        <ele>583</ele>
        <time>2018-06-11T13:06:36Z</time>
      </trkpt>
      <trkpt lat="45.85427" lon="4.2591">
        <ele>582</ele>
        <time>2018-06-11T13:06:41Z</time>
      </trkpt>
      <trkpt lat="45.85431" lon="4.25909">
        <ele>582</ele>
        <time>2018-06-11T13:06:46Z</time>
      </trkpt>
      <trkpt lat="45.85434" lon="4.25907">
        <ele>581</ele>
        <time>2018-06-11T13:06:52Z</time>
      </trkpt>
      <trkpt lat="45.85437" lon="4.25904">
        <ele>581</ele>
        <time>2018-06-11T13:06:57Z</time>
      </trkpt>
      <trkpt lat="45.85439" lon="4.25905">
        <ele>581</ele>
        <time>2018-06-11T13:07:02Z</time>
      </trkpt>
      <trkpt lat="45.8544" lon="4.25907">
        <ele>580</ele>
        <time>2018-06-11T13:07:07Z</time>
      </trkpt>
      <trkpt lat="45.85445" lon="4.25913">
        <ele>580</ele>
        <time>2018-06-11T13:07:13Z</time>
      </trkpt>
      <trkpt lat="45.85451" lon="4.25918">
        <ele>580</ele>
        <time>2018-06-11T13:07:19Z</time>
      </trkpt>
      <trkpt lat="45.85453" lon="4.25923">
        <ele>580</ele>
        <time>2018-06-11T13:07:25Z</time>
      </trkpt>
      <trkpt lat="45.85454" lon="4.25929">
        <ele>580</ele>
        <time>2018-06-11T13:07:31Z</time>
      </trkpt>
      <trkpt lat="45.85454" lon="4.25936">
        <ele>579</ele>
        <time>2018-06-11T13:07:37Z</time>
      </trkpt>
      <trkpt lat="45.85456" lon="4.25942">
        <ele>579</ele>
        <time>2018-06-11T13:07:43Z</time>
      </trkpt>
      <trkpt lat="45.85458" lon="4.25949">
        <ele>579</ele>
        <time>2018-06-11T13:07:49Z</time>
      </trkpt>
      <trkpt lat="45.85458" lon="4.25953">
        <ele>579</ele>
        <time>2018-06-11T13:07:55Z</time>
      </trkpt>
      <trkpt lat="45.85459" lon="4.25956">
        <ele>579</ele>
        <time>2018-06-11T13:08:01Z</time>
      </trkpt>
      <trkpt lat="45.85463" lon="4.25958">
        <ele>579</ele>
        <time>2018-06-11T13:08:07Z</time>
      </trkpt>
      <trkpt lat="45.85462" lon="4.25958">
        <ele>579</ele>
        <time>2018-06-11T13:08:13Z</time>
      </trkpt>
      <trkpt lat="45.85463" lon="4.25958">
        <ele>579</ele>
        <time>2018-06-11T13:08:19Z</time>
      </trkpt>
      <trkpt lat="45.85463" lon="4.25958">
        <ele>579</ele>
        <time>2018-06-11T13:08:25Z</time>
      </trkpt>
      <trkpt lat="45.85462" lon="4.25961">
        <ele>579</ele>
        <time>2018-06-11T13:08:31Z</time>
      </trkpt>
      <trkpt lat="45.85463" lon="4.25969">
        <ele>578</ele>
        <time>2018-06-11T13:08:36Z</time>
      </trkpt>
      <trkpt lat="45.85465" lon="4.25976">
        <ele>578</ele>
        <time>2018-06-11T13:08:41Z</time>
      </trkpt>
      <trkpt lat="45.85468" lon="4.25982">
        <ele>578</ele>
        <time>2018-06-11T13:08:47Z</time>
      </trkpt>
      <trkpt lat="45.8547" lon="4.25984">
        <ele>577</ele>
        <time>2018-06-11T13:08:52Z</time>
      </trkpt>
      <trkpt lat="45.85471" lon="4.25992">
        <ele>577</ele>
        <time>2018-06-11T13:08:58Z</time>
      </trkpt>
      <trkpt lat="45.85472" lon="4.25999">
        <ele>576</ele>
        <time>2018-06-11T13:09:04Z</time>
      </trkpt>
      <trkpt lat="45.85473" lon="4.26004">
        <ele>576</ele>
        <time>2018-06-11T13:09:09Z</time>
      </trkpt>
      <trkpt lat="45.85474" lon="4.26009">
        <ele>575</ele>
        <time>2018-06-11T13:09:14Z</time>
      </trkpt>
      <trkpt lat="45.85475" lon="4.26018">
        <ele>575</ele>
        <time>2018-06-11T13:09:20Z</time>
      </trkpt>
      <trkpt lat="45.8548" lon="4.26027">
        <ele>575</ele>
        <time>2018-06-11T13:09:26Z</time>
      </trkpt>
      <trkpt lat="45.85479" lon="4.26035">
        <ele>575</ele>
        <time>2018-06-11T13:09:31Z</time>
      </trkpt>
      <trkpt lat="45.85477" lon="4.26042">
        <ele>576</ele>
        <time>2018-06-11T13:09:37Z</time>
      </trkpt>
      <trkpt lat="45.85473" lon="4.26054">
        <ele>576</ele>
        <time>2018-06-11T13:09:42Z</time>
      </trkpt>
      <trkpt lat="45.85468" lon="4.26068">
        <ele>576</ele>
        <time>2018-06-11T13:09:48Z</time>
      </trkpt>
      <trkpt lat="45.8547" lon="4.26075">
        <ele>575</ele>
        <time>2018-06-11T13:09:53Z</time>
      </trkpt>
      <trkpt lat="45.85475" lon="4.26084">
        <ele>573</ele>
        <time>2018-06-11T13:09:59Z</time>
      </trkpt>
      <trkpt lat="45.85474" lon="4.26088">
        <ele>574</ele>
        <time>2018-06-11T13:10:04Z</time>
      </trkpt>
      <trkpt lat="45.85473" lon="4.26089">
        <ele>574</ele>
        <time>2018-06-11T13:10:10Z</time>
      </trkpt>
      <trkpt lat="45.85473" lon="4.26089">
        <ele>574</ele>
        <time>2018-06-11T13:10:15Z</time>
      </trkpt>
      <trkpt lat="45.85473" lon="4.26089">
        <ele>574</ele>
        <time>2018-06-11T13:10:21Z</time>
      </trkpt>
      <trkpt lat="45.85473" lon="4.26089">
        <ele>574</ele>
        <time>2018-06-11T13:10:26Z</time>
      </trkpt>
      <trkpt lat="45.85473" lon="4.2609">
        <ele>574</ele>
        <time>2018-06-11T13:10:32Z</time>
      </trkpt>
      <trkpt lat="45.85473" lon="4.2609">
        <ele>574</ele>
        <time>2018-06-11T13:10:37Z</time>
      </trkpt>
      <trkpt lat="45.85475" lon="4.26092">
        <ele>573</ele>
        <time>2018-06-11T13:10:43Z</time>
      </trkpt>
      <trkpt lat="45.85475" lon="4.26092">
        <ele>573</ele>
        <time>2018-06-11T13:10:49Z</time>
      </trkpt>
      <trkpt lat="45.85475" lon="4.26092">
        <ele>573</ele>
        <time>2018-06-11T13:10:55Z</time>
      </trkpt>
      <trkpt lat="45.85475" lon="4.26092">
        <ele>573</ele>
        <time>2018-06-11T13:11:00Z</time>
      </trkpt>
      <trkpt lat="45.85476" lon="4.26091">
        <ele>573</ele>
        <time>2018-06-11T13:11:06Z</time>
      </trkpt>
      <trkpt lat="45.85479" lon="4.26087">
        <ele>572</ele>
        <time>2018-06-11T13:11:12Z</time>
      </trkpt>
      <trkpt lat="45.85482" lon="4.26085">
        <ele>571</ele>
        <time>2018-06-11T13:11:17Z</time>
      </trkpt>
      <trkpt lat="45.85487" lon="4.26078">
        <ele>571</ele>
        <time>2018-06-11T13:11:23Z</time>
      </trkpt>
      <trkpt lat="45.85492" lon="4.26076">
        <ele>570</ele>
        <time>2018-06-11T13:11:28Z</time>
      </trkpt>
      <trkpt lat="45.85497" lon="4.26071">
        <ele>570</ele>
        <time>2018-06-11T13:11:33Z</time>
      </trkpt>
      <trkpt lat="45.85504" lon="4.26069">
        <ele>562</ele>
        <time>2018-06-11T13:11:39Z</time>
      </trkpt>
      <trkpt lat="45.85508" lon="4.26065">
        <ele>561</ele>
        <time>2018-06-11T13:11:45Z</time>
      </trkpt>
      <trkpt lat="45.85513" lon="4.26059">
        <ele>560</ele>
        <time>2018-06-11T13:11:50Z</time>
      </trkpt>
      <trkpt lat="45.85518" lon="4.26055">
        <ele>560</ele>
        <time>2018-06-11T13:11:56Z</time>
      </trkpt>
      <trkpt lat="45.85521" lon="4.26056">
        <ele>559</ele>
        <time>2018-06-11T13:12:02Z</time>
      </trkpt>
      <trkpt lat="45.85524" lon="4.2606">
        <ele>559</ele>
        <time>2018-06-11T13:12:08Z</time>
      </trkpt>
      <trkpt lat="45.85528" lon="4.26067">
        <ele>559</ele>
        <time>2018-06-11T13:12:13Z</time>
      </trkpt>
      <trkpt lat="45.85529" lon="4.26075">
        <ele>559</ele>
        <time>2018-06-11T13:12:19Z</time>
      </trkpt>
      <trkpt lat="45.85531" lon="4.26082">
        <ele>558</ele>
        <time>2018-06-11T13:12:25Z</time>
      </trkpt>
      <trkpt lat="45.85531" lon="4.26087">
        <ele>558</ele>
        <time>2018-06-11T13:12:30Z</time>
      </trkpt>
      <trkpt lat="45.85531" lon="4.26094">
        <ele>558</ele>
        <time>2018-06-11T13:12:36Z</time>
      </trkpt>
      <trkpt lat="45.85532" lon="4.26104">
        <ele>557</ele>
        <time>2018-06-11T13:12:41Z</time>
      </trkpt>
      <trkpt lat="45.85532" lon="4.26112">
        <ele>557</ele>
        <time>2018-06-11T13:12:47Z</time>
      </trkpt>
      <trkpt lat="45.85535" lon="4.26122">
        <ele>557</ele>
        <time>2018-06-11T13:12:53Z</time>
      </trkpt>
      <trkpt lat="45.85537" lon="4.26129">
        <ele>557</ele>
        <time>2018-06-11T13:12:58Z</time>
      </trkpt>
      <trkpt lat="45.8554" lon="4.2613">
        <ele>556</ele>
        <time>2018-06-11T13:13:03Z</time>
      </trkpt>
      <trkpt lat="45.85548" lon="4.26135">
        <ele>556</ele>
        <time>2018-06-11T13:13:09Z</time>
      </trkpt>
      <trkpt lat="45.85551" lon="4.2614">
        <ele>555</ele>
        <time>2018-06-11T13:13:14Z</time>
      </trkpt>
      <trkpt lat="45.85555" lon="4.26144">
        <ele>555</ele>
        <time>2018-06-11T13:13:19Z</time>
      </trkpt>
      <trkpt lat="45.85559" lon="4.26146">
        <ele>555</ele>
        <time>2018-06-11T13:13:25Z</time>
      </trkpt>
      <trkpt lat="45.85562" lon="4.26149">
        <ele>554</ele>
        <time>2018-06-11T13:13:31Z</time>
      </trkpt>
      <trkpt lat="45.85566" lon="4.26154">
        <ele>554</ele>
        <time>2018-06-11T13:13:36Z</time>
      </trkpt>
      <trkpt lat="45.85572" lon="4.26157">
        <ele>553</ele>
        <time>2018-06-11T13:13:42Z</time>
      </trkpt>
      <trkpt lat="45.85581" lon="4.26157">
        <ele>552</ele>
        <time>2018-06-11T13:13:48Z</time>
      </trkpt>
      <trkpt lat="45.85585" lon="4.26158">
        <ele>550</ele>
        <time>2018-06-11T13:13:53Z</time>
      </trkpt>
      <trkpt lat="45.85595" lon="4.26153">
        <ele>550</ele>
        <time>2018-06-11T13:13:59Z</time>
      </trkpt>
      <trkpt lat="45.85599" lon="4.26147">
        <ele>550</ele>
        <time>2018-06-11T13:14:05Z</time>
      </trkpt>
      <trkpt lat="45.85604" lon="4.2614">
        <ele>550</ele>
        <time>2018-06-11T13:14:11Z</time>
      </trkpt>
      <trkpt lat="45.85608" lon="4.26137">
        <ele>550</ele>
        <time>2018-06-11T13:14:17Z</time>
      </trkpt>
      <trkpt lat="45.85615" lon="4.26127">
        <ele>549</ele>
        <time>2018-06-11T13:14:23Z</time>
      </trkpt>
      <trkpt lat="45.85619" lon="4.26125">
        <ele>549</ele>
        <time>2018-06-11T13:14:29Z</time>
      </trkpt>
      <trkpt lat="45.85623" lon="4.26123">
        <ele>549</ele>
        <time>2018-06-11T13:14:35Z</time>
      </trkpt>
      <trkpt lat="45.8563" lon="4.26111">
        <ele>549</ele>
        <time>2018-06-11T13:14:41Z</time>
      </trkpt>
      <trkpt lat="45.85635" lon="4.26098">
        <ele>548</ele>
        <time>2018-06-11T13:14:47Z</time>
      </trkpt>
      <trkpt lat="45.85638" lon="4.26091">
        <ele>548</ele>
        <time>2018-06-11T13:14:52Z</time>
      </trkpt>
      <trkpt lat="45.85641" lon="4.2608">
        <ele>544</ele>
        <time>2018-06-11T13:14:58Z</time>
      </trkpt>
      <trkpt lat="45.8564" lon="4.26077">
        <ele>544</ele>
        <time>2018-06-11T13:15:04Z</time>
      </trkpt>
      <trkpt lat="45.85642" lon="4.26078">
        <ele>544</ele>
        <time>2018-06-11T13:15:09Z</time>
      </trkpt>
      <trkpt lat="45.85642" lon="4.26078">
        <ele>544</ele>
        <time>2018-06-11T13:15:15Z</time>
      </trkpt>
      <trkpt lat="45.85644" lon="4.26073">
        <ele>544</ele>
        <time>2018-06-11T13:15:21Z</time>
      </trkpt>
      <trkpt lat="45.85645" lon="4.26071">
        <ele>544</ele>
        <time>2018-06-11T13:15:27Z</time>
      </trkpt>
      <trkpt lat="45.85649" lon="4.26066">
        <ele>544</ele>
        <time>2018-06-11T13:15:32Z</time>
      </trkpt>
      <trkpt lat="45.85655" lon="4.26055">
        <ele>544</ele>
        <time>2018-06-11T13:15:38Z</time>
      </trkpt>
      <trkpt lat="45.8566" lon="4.26051">
        <ele>544</ele>
        <time>2018-06-11T13:15:43Z</time>
      </trkpt>
      <trkpt lat="45.85667" lon="4.26048">
        <ele>542</ele>
        <time>2018-06-11T13:15:49Z</time>
      </trkpt>
      <trkpt lat="45.85674" lon="4.26045">
        <ele>542</ele>
        <time>2018-06-11T13:15:55Z</time>
      </trkpt>
      <trkpt lat="45.85679" lon="4.26037">
        <ele>542</ele>
        <time>2018-06-11T13:16:01Z</time>
      </trkpt>
      <trkpt lat="45.85686" lon="4.26028">
        <ele>542</ele>
        <time>2018-06-11T13:16:07Z</time>
      </trkpt>
      <trkpt lat="45.85693" lon="4.26021">
        <ele>541</ele>
        <time>2018-06-11T13:16:13Z</time>
      </trkpt>
      <trkpt lat="45.85699" lon="4.26014">
        <ele>541</ele>
        <time>2018-06-11T13:16:19Z</time>
      </trkpt>
      <trkpt lat="45.85704" lon="4.26006">
        <ele>541</ele>
        <time>2018-06-11T13:16:25Z</time>
      </trkpt>
      <trkpt lat="45.85709" lon="4.26">
        <ele>539</ele>
        <time>2018-06-11T13:16:31Z</time>
      </trkpt>
      <trkpt lat="45.85715" lon="4.25994">
        <ele>539</ele>
        <time>2018-06-11T13:16:36Z</time>
      </trkpt>
      <trkpt lat="45.8572" lon="4.25992">
        <ele>538</ele>
        <time>2018-06-11T13:16:41Z</time>
      </trkpt>
      <trkpt lat="45.85726" lon="4.2599">
        <ele>538</ele>
        <time>2018-06-11T13:16:47Z</time>
      </trkpt>
      <trkpt lat="45.85735" lon="4.25982">
        <ele>538</ele>
        <time>2018-06-11T13:16:53Z</time>
      </trkpt>
      <trkpt lat="45.85742" lon="4.25977">
        <ele>538</ele>
        <time>2018-06-11T13:16:59Z</time>
      </trkpt>
      <trkpt lat="45.85752" lon="4.25976">
        <ele>535</ele>
        <time>2018-06-11T13:17:05Z</time>
      </trkpt>
      <trkpt lat="45.85757" lon="4.25974">
        <ele>535</ele>
        <time>2018-06-11T13:17:10Z</time>
      </trkpt>
      <trkpt lat="45.8576" lon="4.25973">
        <ele>535</ele>
        <time>2018-06-11T13:17:15Z</time>
      </trkpt>
      <trkpt lat="45.85768" lon="4.25974">
        <ele>535</ele>
        <time>2018-06-11T13:17:21Z</time>
      </trkpt>
      <trkpt lat="45.85774" lon="4.25973">
        <ele>535</ele>
        <time>2018-06-11T13:17:26Z</time>
      </trkpt>
      <trkpt lat="45.8578" lon="4.25974">
        <ele>535</ele>
        <time>2018-06-11T13:17:32Z</time>
      </trkpt>
      <trkpt lat="45.85786" lon="4.25974">
        <ele>535</ele>
        <time>2018-06-11T13:17:38Z</time>
      </trkpt>
      <trkpt lat="45.85794" lon="4.25964">
        <ele>535</ele>
        <time>2018-06-11T13:17:44Z</time>
      </trkpt>
      <trkpt lat="45.858" lon="4.25954">
        <ele>535</ele>
        <time>2018-06-11T13:17:50Z</time>
      </trkpt>
      <trkpt lat="45.85804" lon="4.25951">
        <ele>534</ele>
        <time>2018-06-11T13:17:55Z</time>
      </trkpt>
      <trkpt lat="45.85809" lon="4.25943">
        <ele>534</ele>
        <time>2018-06-11T13:18:01Z</time>
      </trkpt>
      <trkpt lat="45.85813" lon="4.25936">
        <ele>533</ele>
        <time>2018-06-11T13:18:07Z</time>
      </trkpt>
      <trkpt lat="45.85818" lon="4.25935">
        <ele>532</ele>
        <time>2018-06-11T13:18:12Z</time>
      </trkpt>
      <trkpt lat="45.85819" lon="4.25928">
        <ele>532</ele>
        <time>2018-06-11T13:18:17Z</time>
      </trkpt>
      <trkpt lat="45.85822" lon="4.25913">
        <ele>530</ele>
        <time>2018-06-11T13:18:23Z</time>
      </trkpt>
      <trkpt lat="45.85827" lon="4.25901">
        <ele>531</ele>
        <time>2018-06-11T13:18:28Z</time>
      </trkpt>
      <trkpt lat="45.8583" lon="4.2589">
        <ele>531</ele>
        <time>2018-06-11T13:18:34Z</time>
      </trkpt>
      <trkpt lat="45.85832" lon="4.25878">
        <ele>532</ele>
        <time>2018-06-11T13:18:39Z</time>
      </trkpt>
      <trkpt lat="45.85837" lon="4.25876">
        <ele>530</ele>
        <time>2018-06-11T13:18:45Z</time>
      </trkpt>
      <trkpt lat="45.85843" lon="4.25862">
        <ele>530</ele>
        <time>2018-06-11T13:18:50Z</time>
      </trkpt>
      <trkpt lat="45.85848" lon="4.25858">
        <ele>530</ele>
        <time>2018-06-11T13:18:55Z</time>
      </trkpt>
      <trkpt lat="45.85851" lon="4.25855">
        <ele>530</ele>
        <time>2018-06-11T13:19:01Z</time>
      </trkpt>
      <trkpt lat="45.85852" lon="4.25855">
        <ele>530</ele>
        <time>2018-06-11T13:19:07Z</time>
      </trkpt>
      <trkpt lat="45.85852" lon="4.25854">
        <ele>530</ele>
        <time>2018-06-11T13:19:13Z</time>
      </trkpt>
      <trkpt lat="45.85853" lon="4.25853">
        <ele>530</ele>
        <time>2018-06-11T13:19:19Z</time>
      </trkpt>
      <trkpt lat="45.85852" lon="4.25853">
        <ele>530</ele>
        <time>2018-06-11T13:19:25Z</time>
      </trkpt>
      <trkpt lat="45.85852" lon="4.25854">
        <ele>530</ele>
        <time>2018-06-11T13:19:31Z</time>
      </trkpt>
      <trkpt lat="45.85852" lon="4.25854">
        <ele>530</ele>
        <time>2018-06-11T13:19:37Z</time>
      </trkpt>
      <trkpt lat="45.85852" lon="4.25854">
        <ele>530</ele>
        <time>2018-06-11T13:19:42Z</time>
      </trkpt>
      <trkpt lat="45.85851" lon="4.25852">
        <ele>530</ele>
        <time>2018-06-11T13:19:48Z</time>
      </trkpt>
      <trkpt lat="45.85849" lon="4.25845">
        <ele>529</ele>
        <time>2018-06-11T13:19:53Z</time>
      </trkpt>
      <trkpt lat="45.85847" lon="4.25841">
        <ele>529</ele>
        <time>2018-06-11T13:19:59Z</time>
      </trkpt>
      <trkpt lat="45.85846" lon="4.25841">
        <ele>529</ele>
        <time>2018-06-11T13:20:04Z</time>
      </trkpt>
      <trkpt lat="45.85845" lon="4.25841">
        <ele>529</ele>
        <time>2018-06-11T13:20:09Z</time>
      </trkpt>
      <trkpt lat="45.85842" lon="4.25839">
        <ele>528</ele>
        <time>2018-06-11T13:20:15Z</time>
      </trkpt>
      <trkpt lat="45.85837" lon="4.25839">
        <ele>528</ele>
        <time>2018-06-11T13:20:20Z</time>
      </trkpt>
      <trkpt lat="45.85834" lon="4.2584">
        <ele>528</ele>
        <time>2018-06-11T13:20:25Z</time>
      </trkpt>
      <trkpt lat="45.85825" lon="4.25841">
        <ele>530</ele>
        <time>2018-06-11T13:20:31Z</time>
      </trkpt>
      <trkpt lat="45.85819" lon="4.25843">
        <ele>531</ele>
        <time>2018-06-11T13:20:37Z</time>
      </trkpt>
      <trkpt lat="45.85813" lon="4.25847">
        <ele>532</ele>
        <time>2018-06-11T13:20:43Z</time>
      </trkpt>
      <trkpt lat="45.85809" lon="4.2585">
        <ele>533</ele>
        <time>2018-06-11T13:20:49Z</time>
      </trkpt>
      <trkpt lat="45.85804" lon="4.25851">
        <ele>534</ele>
        <time>2018-06-11T13:20:55Z</time>
      </trkpt>
      <trkpt lat="45.85801" lon="4.25852">
        <ele>534</ele>
        <time>2018-06-11T13:21:01Z</time>
      </trkpt>
      <trkpt lat="45.85797" lon="4.25856">
        <ele>534</ele>
        <time>2018-06-11T13:21:06Z</time>
      </trkpt>
      <trkpt lat="45.85792" lon="4.25861">
        <ele>535</ele>
        <time>2018-06-11T13:21:12Z</time>
      </trkpt>
      <trkpt lat="45.85789" lon="4.25862">
        <ele>535</ele>
        <time>2018-06-11T13:21:17Z</time>
      </trkpt>
      <trkpt lat="45.85785" lon="4.25867">
        <ele>535</ele>
        <time>2018-06-11T13:21:23Z</time>
      </trkpt>
      <trkpt lat="45.85782" lon="4.25871">
        <ele>535</ele>
        <time>2018-06-11T13:21:29Z</time>
      </trkpt>
      <trkpt lat="45.85777" lon="4.25877">
        <ele>535</ele>
        <time>2018-06-11T13:21:34Z</time>
      </trkpt>
      <trkpt lat="45.85774" lon="4.25882">
        <ele>535</ele>
        <time>2018-06-11T13:21:40Z</time>
      </trkpt>
      <trkpt lat="45.8577" lon="4.25884">
        <ele>535</ele>
        <time>2018-06-11T13:21:45Z</time>
      </trkpt>
      <trkpt lat="45.85767" lon="4.25886">
        <ele>535</ele>
        <time>2018-06-11T13:21:51Z</time>
      </trkpt>
      <trkpt lat="45.85766" lon="4.25886">
        <ele>535</ele>
        <time>2018-06-11T13:21:56Z</time>
      </trkpt>
      <trkpt lat="45.8576" lon="4.2589">
        <ele>535</ele>
        <time>2018-06-11T13:22:02Z</time>
      </trkpt>
      <trkpt lat="45.85759" lon="4.2589">
        <ele>535</ele>
        <time>2018-06-11T13:22:07Z</time>
      </trkpt>
      <trkpt lat="45.85755" lon="4.25892">
        <ele>535</ele>
        <time>2018-06-11T13:22:13Z</time>
      </trkpt>
      <trkpt lat="45.85748" lon="4.25898">
        <ele>542</ele>
        <time>2018-06-11T13:22:19Z</time>
      </trkpt>
      <trkpt lat="45.85741" lon="4.25904">
        <ele>541</ele>
        <time>2018-06-11T13:22:25Z</time>
      </trkpt>
      <trkpt lat="45.85735" lon="4.25907">
        <ele>542</ele>
        <time>2018-06-11T13:22:31Z</time>
      </trkpt>
      <trkpt lat="45.85732" lon="4.25907">
        <ele>542</ele>
        <time>2018-06-11T13:22:37Z</time>
      </trkpt>
      <trkpt lat="45.85727" lon="4.25914">
        <ele>543</ele>
        <time>2018-06-11T13:22:43Z</time>
      </trkpt>
      <trkpt lat="45.85725" lon="4.25914">
        <ele>544</ele>
        <time>2018-06-11T13:22:48Z</time>
      </trkpt>
      <trkpt lat="45.85716" lon="4.25915">
        <ele>545</ele>
        <time>2018-06-11T13:22:54Z</time>
      </trkpt>
      <trkpt lat="45.85708" lon="4.25916">
        <ele>547</ele>
        <time>2018-06-11T13:23:00Z</time>
      </trkpt>
      <trkpt lat="45.85704" lon="4.25919">
        <ele>541</ele>
        <time>2018-06-11T13:23:06Z</time>
      </trkpt>
      <trkpt lat="45.85695" lon="4.25922">
        <ele>542</ele>
        <time>2018-06-11T13:23:12Z</time>
      </trkpt>
      <trkpt lat="45.85684" lon="4.2592">
        <ele>544</ele>
        <time>2018-06-11T13:23:18Z</time>
      </trkpt>
      <trkpt lat="45.85683" lon="4.25917">
        <ele>549</ele>
        <time>2018-06-11T13:23:23Z</time>
      </trkpt>
      <trkpt lat="45.85682" lon="4.25907">
        <ele>550</ele>
        <time>2018-06-11T13:23:29Z</time>
      </trkpt>
      <trkpt lat="45.85684" lon="4.25901">
        <ele>550</ele>
        <time>2018-06-11T13:23:35Z</time>
      </trkpt>
      <trkpt lat="45.85689" lon="4.25892">
        <ele>550</ele>
        <time>2018-06-11T13:23:41Z</time>
      </trkpt>
      <trkpt lat="45.85691" lon="4.2589">
        <ele>550</ele>
        <time>2018-06-11T13:23:47Z</time>
      </trkpt>
      <trkpt lat="45.8569" lon="4.25888">
        <ele>550</ele>
        <time>2018-06-11T13:23:53Z</time>
      </trkpt>
      <trkpt lat="45.85691" lon="4.25888">
        <ele>550</ele>
        <time>2018-06-11T13:23:58Z</time>
      </trkpt>
      <trkpt lat="45.85691" lon="4.25888">
        <ele>550</ele>
        <time>2018-06-11T13:24:04Z</time>
      </trkpt>
      <trkpt lat="45.8569" lon="4.25885">
        <ele>551</ele>
        <time>2018-06-11T13:24:10Z</time>
      </trkpt>
      <trkpt lat="45.85689" lon="4.25884">
        <ele>551</ele>
        <time>2018-06-11T13:24:15Z</time>
      </trkpt>
      <trkpt lat="45.85689" lon="4.25884">
        <ele>551</ele>
        <time>2018-06-11T13:24:20Z</time>
      </trkpt>
      <trkpt lat="45.85692" lon="4.25879">
        <ele>551</ele>
        <time>2018-06-11T13:24:26Z</time>
      </trkpt>
      <trkpt lat="45.85694" lon="4.25874">
        <ele>551</ele>
        <time>2018-06-11T13:24:31Z</time>
      </trkpt>
      <trkpt lat="45.85698" lon="4.25866">
        <ele>552</ele>
        <time>2018-06-11T13:24:36Z</time>
      </trkpt>
      <trkpt lat="45.85702" lon="4.25855">
        <ele>553</ele>
        <time>2018-06-11T13:24:42Z</time>
      </trkpt>
      <trkpt lat="45.85704" lon="4.25853">
        <ele>552</ele>
        <time>2018-06-11T13:24:47Z</time>
      </trkpt>
      <trkpt lat="45.8571" lon="4.25848">
        <ele>552</ele>
        <time>2018-06-11T13:24:53Z</time>
      </trkpt>
      <trkpt lat="45.85712" lon="4.25845">
        <ele>552</ele>
        <time>2018-06-11T13:24:58Z</time>
      </trkpt>
      <trkpt lat="45.85716" lon="4.25839">
        <ele>552</ele>
        <time>2018-06-11T13:25:04Z</time>
      </trkpt>
      <trkpt lat="45.85718" lon="4.25828">
        <ele>561</ele>
        <time>2018-06-11T13:25:10Z</time>
      </trkpt>
      <trkpt lat="45.85722" lon="4.25822">
        <ele>561</ele>
        <time>2018-06-11T13:25:15Z</time>
      </trkpt>
      <trkpt lat="45.85727" lon="4.25817">
        <ele>561</ele>
        <time>2018-06-11T13:25:21Z</time>
      </trkpt>
      <trkpt lat="45.8573" lon="4.2581">
        <ele>561</ele>
        <time>2018-06-11T13:25:27Z</time>
      </trkpt>
      <trkpt lat="45.85733" lon="4.25806">
        <ele>562</ele>
        <time>2018-06-11T13:25:32Z</time>
      </trkpt>
      <trkpt lat="45.85739" lon="4.25797">
        <ele>563</ele>
        <time>2018-06-11T13:25:38Z</time>
      </trkpt>
      <trkpt lat="45.85743" lon="4.25792">
        <ele>564</ele>
        <time>2018-06-11T13:25:43Z</time>
      </trkpt>
      <trkpt lat="45.85747" lon="4.25782">
        <ele>565</ele>
        <time>2018-06-11T13:25:49Z</time>
      </trkpt>
      <trkpt lat="45.85749" lon="4.25776">
        <ele>566</ele>
        <time>2018-06-11T13:25:54Z</time>
      </trkpt>
      <trkpt lat="45.85752" lon="4.25771">
        <ele>557</ele>
        <time>2018-06-11T13:25:59Z</time>
      </trkpt>
      <trkpt lat="45.85754" lon="4.25764">
        <ele>559</ele>
        <time>2018-06-11T13:26:04Z</time>
      </trkpt>
      <trkpt lat="45.85756" lon="4.25757">
        <ele>562</ele>
        <time>2018-06-11T13:26:09Z</time>
      </trkpt>
      <trkpt lat="45.85758" lon="4.2575">
        <ele>563</ele>
        <time>2018-06-11T13:26:15Z</time>
      </trkpt>
      <trkpt lat="45.85764" lon="4.25743">
        <ele>566</ele>
        <time>2018-06-11T13:26:21Z</time>
      </trkpt>
      <trkpt lat="45.85767" lon="4.25735">
        <ele>565</ele>
        <time>2018-06-11T13:26:26Z</time>
      </trkpt>
      <trkpt lat="45.85771" lon="4.25728">
        <ele>565</ele>
        <time>2018-06-11T13:26:31Z</time>
      </trkpt>
      <trkpt lat="45.85774" lon="4.25724">
        <ele>565</ele>
        <time>2018-06-11T13:26:37Z</time>
      </trkpt>
      <trkpt lat="45.85777" lon="4.25721">
        <ele>564</ele>
        <time>2018-06-11T13:26:42Z</time>
      </trkpt>
      <trkpt lat="45.85781" lon="4.25712">
        <ele>564</ele>
        <time>2018-06-11T13:26:48Z</time>
      </trkpt>
      <trkpt lat="45.85784" lon="4.25705">
        <ele>565</ele>
        <time>2018-06-11T13:26:53Z</time>
      </trkpt>
      <trkpt lat="45.8579" lon="4.25691">
        <ele>565</ele>
        <time>2018-06-11T13:26:59Z</time>
      </trkpt>
      <trkpt lat="45.85794" lon="4.25682">
        <ele>565</ele>
        <time>2018-06-11T13:27:05Z</time>
      </trkpt>
      <trkpt lat="45.85796" lon="4.25678">
        <ele>565</ele>
        <time>2018-06-11T13:27:10Z</time>
      </trkpt>
      <trkpt lat="45.85799" lon="4.2567">
        <ele>565</ele>
        <time>2018-06-11T13:27:15Z</time>
      </trkpt>
      <trkpt lat="45.858" lon="4.25666">
        <ele>572</ele>
        <time>2018-06-11T13:27:21Z</time>
      </trkpt>
      <trkpt lat="45.85802" lon="4.25657">
        <ele>572</ele>
        <time>2018-06-11T13:27:26Z</time>
      </trkpt>
      <trkpt lat="45.85798" lon="4.25649">
        <ele>573</ele>
        <time>2018-06-11T13:27:32Z</time>
      </trkpt>
      <trkpt lat="45.85797" lon="4.25642">
        <ele>574</ele>
        <time>2018-06-11T13:27:37Z</time>
      </trkpt>
      <trkpt lat="45.85798" lon="4.25635">
        <ele>574</ele>
        <time>2018-06-11T13:27:43Z</time>
      </trkpt>
      <trkpt lat="45.85801" lon="4.25634">
        <ele>574</ele>
        <time>2018-06-11T13:27:50Z</time>
      </trkpt>
      <trkpt lat="45.85804" lon="4.25634">
        <ele>574</ele>
        <time>2018-06-11T13:27:55Z</time>
      </trkpt>
      <trkpt lat="45.85805" lon="4.25631">
        <ele>574</ele>
        <time>2018-06-11T13:28:01Z</time>
      </trkpt>
      <trkpt lat="45.85803" lon="4.25629">
        <ele>574</ele>
        <time>2018-06-11T13:28:07Z</time>
      </trkpt>
      <trkpt lat="45.85801" lon="4.25628">
        <ele>574</ele>
        <time>2018-06-11T13:28:13Z</time>
      </trkpt>
      <trkpt lat="45.85801" lon="4.25631">
        <ele>574</ele>
        <time>2018-06-11T13:28:18Z</time>
      </trkpt>
      <trkpt lat="45.858" lon="4.25632">
        <ele>574</ele>
        <time>2018-06-11T13:28:24Z</time>
      </trkpt>
      <trkpt lat="45.858" lon="4.25631">
        <ele>574</ele>
        <time>2018-06-11T13:28:30Z</time>
      </trkpt>
      <trkpt lat="45.85801" lon="4.25629">
        <ele>574</ele>
        <time>2018-06-11T13:28:35Z</time>
      </trkpt>
      <trkpt lat="45.858" lon="4.25626">
        <ele>575</ele>
        <time>2018-06-11T13:28:40Z</time>
      </trkpt>
      <trkpt lat="45.85801" lon="4.25612">
        <ele>575</ele>
        <time>2018-06-11T13:28:47Z</time>
      </trkpt>
      <trkpt lat="45.85802" lon="4.25605">
        <ele>576</ele>
        <time>2018-06-11T13:28:52Z</time>
      </trkpt>
      <trkpt lat="45.85805" lon="4.25595">
        <ele>576</ele>
        <time>2018-06-11T13:28:57Z</time>
      </trkpt>
      <trkpt lat="45.8581" lon="4.25596">
        <ele>575</ele>
        <time>2018-06-11T13:29:03Z</time>
      </trkpt>
      <trkpt lat="45.85812" lon="4.25596">
        <ele>575</ele>
        <time>2018-06-11T13:29:09Z</time>
      </trkpt>
      <trkpt lat="45.85812" lon="4.25596">
        <ele>575</ele>
        <time>2018-06-11T13:29:15Z</time>
      </trkpt>
      <trkpt lat="45.85812" lon="4.25596">
        <ele>575</ele>
        <time>2018-06-11T13:29:20Z</time>
      </trkpt>
      <trkpt lat="45.85812" lon="4.25596">
        <ele>575</ele>
        <time>2018-06-11T13:29:26Z</time>
      </trkpt>
      <trkpt lat="45.85812" lon="4.25596">
        <ele>575</ele>
        <time>2018-06-11T13:29:32Z</time>
      </trkpt>
      <trkpt lat="45.85812" lon="4.25596">
        <ele>575</ele>
        <time>2018-06-11T13:29:38Z</time>
      </trkpt>
      <trkpt lat="45.85812" lon="4.25596">
        <ele>575</ele>
        <time>2018-06-11T13:29:44Z</time>
      </trkpt>
      <trkpt lat="45.85812" lon="4.25596">
        <ele>575</ele>
        <time>2018-06-11T13:29:50Z</time>
      </trkpt>
      <trkpt lat="45.85812" lon="4.25596">
        <ele>575</ele>
        <time>2018-06-11T13:29:56Z</time>
      </trkpt>
      <trkpt lat="45.85815" lon="4.25597">
        <ele>575</ele>
        <time>2018-06-11T13:30:02Z</time>
      </trkpt>
      <trkpt lat="45.85815" lon="4.25597">
        <ele>575</ele>
        <time>2018-06-11T13:30:07Z</time>
      </trkpt>
      <trkpt lat="45.85815" lon="4.25597">
        <ele>575</ele>
        <time>2018-06-11T13:30:13Z</time>
      </trkpt>
      <trkpt lat="45.85815" lon="4.25597">
        <ele>575</ele>
        <time>2018-06-11T13:30:18Z</time>
      </trkpt>
      <trkpt lat="45.85815" lon="4.25597">
        <ele>575</ele>
        <time>2018-06-11T13:30:24Z</time>
      </trkpt>
      <trkpt lat="45.85815" lon="4.25597">
        <ele>575</ele>
        <time>2018-06-11T13:30:30Z</time>
      </trkpt>
      <trkpt lat="45.85815" lon="4.25597">
        <ele>575</ele>
        <time>2018-06-11T13:30:36Z</time>
      </trkpt>
      <trkpt lat="45.85815" lon="4.25597">
        <ele>575</ele>
        <time>2018-06-11T13:30:41Z</time>
      </trkpt>
      <trkpt lat="45.85815" lon="4.25597">
        <ele>575</ele>
        <time>2018-06-11T13:30:47Z</time>
      </trkpt>
      <trkpt lat="45.85815" lon="4.25598">
        <ele>575</ele>
        <time>2018-06-11T13:30:52Z</time>
      </trkpt>
      <trkpt lat="45.85813" lon="4.256">
        <ele>575</ele>
        <time>2018-06-11T13:30:58Z</time>
      </trkpt>
      <trkpt lat="45.85809" lon="4.25604">
        <ele>575</ele>
        <time>2018-06-11T13:31:03Z</time>
      </trkpt>
      <trkpt lat="45.85806" lon="4.25603">
        <ele>575</ele>
        <time>2018-06-11T13:31:08Z</time>
      </trkpt>
      <trkpt lat="45.85808" lon="4.2559">
        <ele>575</ele>
        <time>2018-06-11T13:31:14Z</time>
      </trkpt>
      <trkpt lat="45.85811" lon="4.25588">
        <ele>575</ele>
        <time>2018-06-11T13:31:19Z</time>
      </trkpt>
      <trkpt lat="45.85813" lon="4.25585">
        <ele>575</ele>
        <time>2018-06-11T13:31:24Z</time>
      </trkpt>
      <trkpt lat="45.85823" lon="4.25568">
        <ele>578</ele>
        <time>2018-06-11T13:31:30Z</time>
      </trkpt>
      <trkpt lat="45.85826" lon="4.25557">
        <ele>579</ele>
        <time>2018-06-11T13:31:35Z</time>
      </trkpt>
      <trkpt lat="45.85833" lon="4.25546">
        <ele>580</ele>
        <time>2018-06-11T13:31:41Z</time>
      </trkpt>
      <trkpt lat="45.85836" lon="4.25541">
        <ele>571</ele>
        <time>2018-06-11T13:31:46Z</time>
      </trkpt>
      <trkpt lat="45.85839" lon="4.25531">
        <ele>572</ele>
        <time>2018-06-11T13:31:52Z</time>
      </trkpt>
      <trkpt lat="45.85842" lon="4.25526">
        <ele>573</ele>
        <time>2018-06-11T13:31:58Z</time>
      </trkpt>
      <trkpt lat="45.85843" lon="4.25518">
        <ele>574</ele>
        <time>2018-06-11T13:32:04Z</time>
      </trkpt>
      <trkpt lat="45.85846" lon="4.25507">
        <ele>575</ele>
        <time>2018-06-11T13:32:09Z</time>
      </trkpt>
      <trkpt lat="45.85849" lon="4.25495">
        <ele>577</ele>
        <time>2018-06-11T13:32:15Z</time>
      </trkpt>
      <trkpt lat="45.8585" lon="4.25485">
        <ele>577</ele>
        <time>2018-06-11T13:32:20Z</time>
      </trkpt>
      <trkpt lat="45.85853" lon="4.25477">
        <ele>576</ele>
        <time>2018-06-11T13:32:26Z</time>
      </trkpt>
      <trkpt lat="45.85859" lon="4.25468">
        <ele>576</ele>
        <time>2018-06-11T13:32:31Z</time>
      </trkpt>
      <trkpt lat="45.85864" lon="4.25457">
        <ele>575</ele>
        <time>2018-06-11T13:32:37Z</time>
      </trkpt>
      <trkpt lat="45.85865" lon="4.25451">
        <ele>576</ele>
        <time>2018-06-11T13:32:43Z</time>
      </trkpt>
      <trkpt lat="45.85872" lon="4.25442">
        <ele>575</ele>
        <time>2018-06-11T13:32:48Z</time>
      </trkpt>
      <trkpt lat="45.85878" lon="4.25433">
        <ele>575</ele>
        <time>2018-06-11T13:32:54Z</time>
      </trkpt>
      <trkpt lat="45.85881" lon="4.25428">
        <ele>575</ele>
        <time>2018-06-11T13:32:59Z</time>
      </trkpt>
      <trkpt lat="45.85885" lon="4.25419">
        <ele>575</ele>
        <time>2018-06-11T13:33:05Z</time>
      </trkpt>
      <trkpt lat="45.85893" lon="4.2541">
        <ele>575</ele>
        <time>2018-06-11T13:33:11Z</time>
      </trkpt>
      <trkpt lat="45.85897" lon="4.25407">
        <ele>574</ele>
        <time>2018-06-11T13:33:16Z</time>
      </trkpt>
      <trkpt lat="45.85903" lon="4.25398">
        <ele>574</ele>
        <time>2018-06-11T13:33:22Z</time>
      </trkpt>
      <trkpt lat="45.8591" lon="4.25389">
        <ele>574</ele>
        <time>2018-06-11T13:33:28Z</time>
      </trkpt>
      <trkpt lat="45.85916" lon="4.25385">
        <ele>574</ele>
        <time>2018-06-11T13:33:33Z</time>
      </trkpt>
      <trkpt lat="45.85923" lon="4.25378">
        <ele>566</ele>
        <time>2018-06-11T13:33:39Z</time>
      </trkpt>
      <trkpt lat="45.85927" lon="4.25369">
        <ele>566</ele>
        <time>2018-06-11T13:33:45Z</time>
      </trkpt>
      <trkpt lat="45.85929" lon="4.25362">
        <ele>566</ele>
        <time>2018-06-11T13:33:51Z</time>
      </trkpt>
      <trkpt lat="45.85934" lon="4.2535">
        <ele>566</ele>
        <time>2018-06-11T13:33:57Z</time>
      </trkpt>
      <trkpt lat="45.85936" lon="4.25339">
        <ele>567</ele>
        <time>2018-06-11T13:34:03Z</time>
      </trkpt>
      <trkpt lat="45.8594" lon="4.25328">
        <ele>567</ele>
        <time>2018-06-11T13:34:08Z</time>
      </trkpt>
      <trkpt lat="45.85944" lon="4.25316">
        <ele>566</ele>
        <time>2018-06-11T13:34:14Z</time>
      </trkpt>
      <trkpt lat="45.85946" lon="4.25305">
        <ele>565</ele>
        <time>2018-06-11T13:34:20Z</time>
      </trkpt>
      <trkpt lat="45.85947" lon="4.25297">
        <ele>565</ele>
        <time>2018-06-11T13:34:25Z</time>
      </trkpt>
      <trkpt lat="45.85948" lon="4.25292">
        <ele>564</ele>
        <time>2018-06-11T13:34:30Z</time>
      </trkpt>
      <trkpt lat="45.85949" lon="4.25287">
        <ele>564</ele>
        <time>2018-06-11T13:34:36Z</time>
      </trkpt>
      <trkpt lat="45.85947" lon="4.25276">
        <ele>565</ele>
        <time>2018-06-11T13:34:41Z</time>
      </trkpt>
      <trkpt lat="45.85945" lon="4.25261">
        <ele>565</ele>
        <time>2018-06-11T13:34:47Z</time>
      </trkpt>
      <trkpt lat="45.85945" lon="4.25252">
        <ele>565</ele>
        <time>2018-06-11T13:34:52Z</time>
      </trkpt>
      <trkpt lat="45.85947" lon="4.2524">
        <ele>566</ele>
        <time>2018-06-11T13:34:57Z</time>
      </trkpt>
      <trkpt lat="45.85947" lon="4.25234">
        <ele>565</ele>
        <time>2018-06-11T13:35:03Z</time>
      </trkpt>
      <trkpt lat="45.85949" lon="4.25221">
        <ele>565</ele>
        <time>2018-06-11T13:35:09Z</time>
      </trkpt>
      <trkpt lat="45.8595" lon="4.25212">
        <ele>565</ele>
        <time>2018-06-11T13:35:15Z</time>
      </trkpt>
      <trkpt lat="45.85951" lon="4.25203">
        <ele>565</ele>
        <time>2018-06-11T13:35:20Z</time>
      </trkpt>
      <trkpt lat="45.85951" lon="4.25191">
        <ele>565</ele>
        <time>2018-06-11T13:35:25Z</time>
      </trkpt>
      <trkpt lat="45.85949" lon="4.25182">
        <ele>566</ele>
        <time>2018-06-11T13:35:31Z</time>
      </trkpt>
      <trkpt lat="45.85949" lon="4.25176">
        <ele>566</ele>
        <time>2018-06-11T13:35:36Z</time>
      </trkpt>
      <trkpt lat="45.85949" lon="4.2517">
        <ele>566</ele>
        <time>2018-06-11T13:35:42Z</time>
      </trkpt>
      <trkpt lat="45.8595" lon="4.25165">
        <ele>569</ele>
        <time>2018-06-11T13:35:47Z</time>
      </trkpt>
      <trkpt lat="45.85951" lon="4.25159">
        <ele>569</ele>
        <time>2018-06-11T13:35:52Z</time>
      </trkpt>
      <trkpt lat="45.85952" lon="4.25152">
        <ele>569</ele>
        <time>2018-06-11T13:35:58Z</time>
      </trkpt>
      <trkpt lat="45.85956" lon="4.25147">
        <ele>569</ele>
        <time>2018-06-11T13:36:03Z</time>
      </trkpt>
      <trkpt lat="45.85956" lon="4.25141">
        <ele>569</ele>
        <time>2018-06-11T13:36:09Z</time>
      </trkpt>
      <trkpt lat="45.85957" lon="4.25135">
        <ele>570</ele>
        <time>2018-06-11T13:36:15Z</time>
      </trkpt>
      <trkpt lat="45.85958" lon="4.25127">
        <ele>570</ele>
        <time>2018-06-11T13:36:21Z</time>
      </trkpt>
      <trkpt lat="45.85953" lon="4.25115">
        <ele>571</ele>
        <time>2018-06-11T13:36:27Z</time>
      </trkpt>
      <trkpt lat="45.85952" lon="4.25111">
        <ele>571</ele>
        <time>2018-06-11T13:36:32Z</time>
      </trkpt>
      <trkpt lat="45.85949" lon="4.25098">
        <ele>571</ele>
        <time>2018-06-11T13:36:38Z</time>
      </trkpt>
      <trkpt lat="45.85945" lon="4.25093">
        <ele>572</ele>
        <time>2018-06-11T13:36:44Z</time>
      </trkpt>
      <trkpt lat="45.8594" lon="4.25081">
        <ele>575</ele>
        <time>2018-06-11T13:36:50Z</time>
      </trkpt>
      <trkpt lat="45.85939" lon="4.25079">
        <ele>575</ele>
        <time>2018-06-11T13:36:55Z</time>
      </trkpt>
      <trkpt lat="45.85937" lon="4.25075">
        <ele>575</ele>
        <time>2018-06-11T13:37:01Z</time>
      </trkpt>
      <trkpt lat="45.85937" lon="4.25069">
        <ele>575</ele>
        <time>2018-06-11T13:37:06Z</time>
      </trkpt>
      <trkpt lat="45.85938" lon="4.25059">
        <ele>575</ele>
        <time>2018-06-11T13:37:11Z</time>
      </trkpt>
      <trkpt lat="45.85939" lon="4.25052">
        <ele>575</ele>
        <time>2018-06-11T13:37:17Z</time>
      </trkpt>
      <trkpt lat="45.85938" lon="4.25044">
        <ele>576</ele>
        <time>2018-06-11T13:37:23Z</time>
      </trkpt>
      <trkpt lat="45.85937" lon="4.25037">
        <ele>576</ele>
        <time>2018-06-11T13:37:29Z</time>
      </trkpt>
      <trkpt lat="45.85936" lon="4.25028">
        <ele>576</ele>
        <time>2018-06-11T13:37:34Z</time>
      </trkpt>
      <trkpt lat="45.85934" lon="4.25014">
        <ele>577</ele>
        <time>2018-06-11T13:37:39Z</time>
      </trkpt>
      <trkpt lat="45.85931" lon="4.25008">
        <ele>577</ele>
        <time>2018-06-11T13:37:45Z</time>
      </trkpt>
      <trkpt lat="45.8593" lon="4.25004">
        <ele>577</ele>
        <time>2018-06-11T13:37:50Z</time>
      </trkpt>
      <trkpt lat="45.85928" lon="4.24997">
        <ele>578</ele>
        <time>2018-06-11T13:37:56Z</time>
      </trkpt>
      <trkpt lat="45.85925" lon="4.2499">
        <ele>578</ele>
        <time>2018-06-11T13:38:02Z</time>
      </trkpt>
      <trkpt lat="45.85922" lon="4.24983">
        <ele>577</ele>
        <time>2018-06-11T13:38:07Z</time>
      </trkpt>
      <trkpt lat="45.85918" lon="4.24976">
        <ele>577</ele>
        <time>2018-06-11T13:38:12Z</time>
      </trkpt>
      <trkpt lat="45.85915" lon="4.24969">
        <ele>577</ele>
        <time>2018-06-11T13:38:18Z</time>
      </trkpt>
      <trkpt lat="45.85914" lon="4.24965">
        <ele>576</ele>
        <time>2018-06-11T13:38:23Z</time>
      </trkpt>
      <trkpt lat="45.85912" lon="4.24959">
        <ele>576</ele>
        <time>2018-06-11T13:38:29Z</time>
      </trkpt>
      <trkpt lat="45.85907" lon="4.24953">
        <ele>576</ele>
        <time>2018-06-11T13:38:35Z</time>
      </trkpt>
      <trkpt lat="45.85904" lon="4.24946">
        <ele>576</ele>
        <time>2018-06-11T13:38:41Z</time>
      </trkpt>
      <trkpt lat="45.85902" lon="4.24936">
        <ele>576</ele>
        <time>2018-06-11T13:38:47Z</time>
      </trkpt>
      <trkpt lat="45.85901" lon="4.24927">
        <ele>576</ele>
        <time>2018-06-11T13:38:54Z</time>
      </trkpt>
      <trkpt lat="45.85902" lon="4.2492">
        <ele>576</ele>
        <time>2018-06-11T13:39:00Z</time>
      </trkpt>
      <trkpt lat="45.859" lon="4.24916">
        <ele>575</ele>
        <time>2018-06-11T13:39:05Z</time>
      </trkpt>
      <trkpt lat="45.85895" lon="4.24909">
        <ele>574</ele>
        <time>2018-06-11T13:39:10Z</time>
      </trkpt>
      <trkpt lat="45.85892" lon="4.24901">
        <ele>574</ele>
        <time>2018-06-11T13:39:16Z</time>
      </trkpt>
      <trkpt lat="45.8589" lon="4.24892">
        <ele>573</ele>
        <time>2018-06-11T13:39:22Z</time>
      </trkpt>
      <trkpt lat="45.85891" lon="4.24881">
        <ele>573</ele>
        <time>2018-06-11T13:39:28Z</time>
      </trkpt>
      <trkpt lat="45.85896" lon="4.24872">
        <ele>572</ele>
        <time>2018-06-11T13:39:34Z</time>
      </trkpt>
      <trkpt lat="45.85898" lon="4.2486">
        <ele>572</ele>
        <time>2018-06-11T13:39:40Z</time>
      </trkpt>
      <trkpt lat="45.85899" lon="4.24854">
        <ele>571</ele>
        <time>2018-06-11T13:39:46Z</time>
      </trkpt>
      <trkpt lat="45.85902" lon="4.24838">
        <ele>571</ele>
        <time>2018-06-11T13:39:52Z</time>
      </trkpt>
      <trkpt lat="45.85903" lon="4.24827">
        <ele>569</ele>
        <time>2018-06-11T13:39:58Z</time>
      </trkpt>
      <trkpt lat="45.85904" lon="4.2482">
        <ele>568</ele>
        <time>2018-06-11T13:40:04Z</time>
      </trkpt>
      <trkpt lat="45.85905" lon="4.24813">
        <ele>568</ele>
        <time>2018-06-11T13:40:10Z</time>
      </trkpt>
      <trkpt lat="45.85908" lon="4.24805">
        <ele>568</ele>
        <time>2018-06-11T13:40:16Z</time>
      </trkpt>
      <trkpt lat="45.85909" lon="4.24793">
        <ele>567</ele>
        <time>2018-06-11T13:40:22Z</time>
      </trkpt>
      <trkpt lat="45.85907" lon="4.24782">
        <ele>567</ele>
        <time>2018-06-11T13:40:27Z</time>
      </trkpt>
      <trkpt lat="45.85908" lon="4.24771">
        <ele>566</ele>
        <time>2018-06-11T13:40:33Z</time>
      </trkpt>
      <trkpt lat="45.85909" lon="4.24763">
        <ele>566</ele>
        <time>2018-06-11T13:40:38Z</time>
      </trkpt>
      <trkpt lat="45.85909" lon="4.24754">
        <ele>566</ele>
        <time>2018-06-11T13:40:44Z</time>
      </trkpt>
      <trkpt lat="45.85909" lon="4.24746">
        <ele>564</ele>
        <time>2018-06-11T13:40:50Z</time>
      </trkpt>
      <trkpt lat="45.85907" lon="4.24736">
        <ele>563</ele>
        <time>2018-06-11T13:40:55Z</time>
      </trkpt>
      <trkpt lat="45.85909" lon="4.24724">
        <ele>562</ele>
        <time>2018-06-11T13:41:01Z</time>
      </trkpt>
      <trkpt lat="45.85909" lon="4.24714">
        <ele>561</ele>
        <time>2018-06-11T13:41:06Z</time>
      </trkpt>
      <trkpt lat="45.85909" lon="4.24706">
        <ele>561</ele>
        <time>2018-06-11T13:41:12Z</time>
      </trkpt>
      <trkpt lat="45.85911" lon="4.24701">
        <ele>560</ele>
        <time>2018-06-11T13:41:18Z</time>
      </trkpt>
      <trkpt lat="45.85912" lon="4.24694">
        <ele>560</ele>
        <time>2018-06-11T13:41:24Z</time>
      </trkpt>
      <trkpt lat="45.85913" lon="4.24685">
        <ele>559</ele>
        <time>2018-06-11T13:41:29Z</time>
      </trkpt>
      <trkpt lat="45.85918" lon="4.24675">
        <ele>559</ele>
        <time>2018-06-11T13:41:35Z</time>
      </trkpt>
      <trkpt lat="45.85922" lon="4.24653">
        <ele>557</ele>
        <time>2018-06-11T13:41:40Z</time>
      </trkpt>
      <trkpt lat="45.85929" lon="4.24646">
        <ele>557</ele>
        <time>2018-06-11T13:41:46Z</time>
      </trkpt>
      <trkpt lat="45.85932" lon="4.2464">
        <ele>557</ele>
        <time>2018-06-11T13:41:52Z</time>
      </trkpt>
      <trkpt lat="45.85933" lon="4.24634">
        <ele>557</ele>
        <time>2018-06-11T13:41:58Z</time>
      </trkpt>
      <trkpt lat="45.8593" lon="4.24624">
        <ele>556</ele>
        <time>2018-06-11T13:42:04Z</time>
      </trkpt>
      <trkpt lat="45.85932" lon="4.24619">
        <ele>556</ele>
        <time>2018-06-11T13:42:10Z</time>
      </trkpt>
      <trkpt lat="45.85931" lon="4.24614">
        <ele>555</ele>
        <time>2018-06-11T13:42:16Z</time>
      </trkpt>
      <trkpt lat="45.85931" lon="4.2461">
        <ele>555</ele>
        <time>2018-06-11T13:42:22Z</time>
      </trkpt>
      <trkpt lat="45.85935" lon="4.24601">
        <ele>554</ele>
        <time>2018-06-11T13:42:28Z</time>
      </trkpt>
      <trkpt lat="45.85935" lon="4.24594">
        <ele>554</ele>
        <time>2018-06-11T13:42:34Z</time>
      </trkpt>
      <trkpt lat="45.85932" lon="4.24586">
        <ele>553</ele>
        <time>2018-06-11T13:42:40Z</time>
      </trkpt>
      <trkpt lat="45.85929" lon="4.24582">
        <ele>549</ele>
        <time>2018-06-11T13:42:45Z</time>
      </trkpt>
      <trkpt lat="45.85925" lon="4.24575">
        <ele>549</ele>
        <time>2018-06-11T13:42:50Z</time>
      </trkpt>
      <trkpt lat="45.85923" lon="4.24566">
        <ele>548</ele>
        <time>2018-06-11T13:42:56Z</time>
      </trkpt>
      <trkpt lat="45.85922" lon="4.24557">
        <ele>548</ele>
        <time>2018-06-11T13:43:02Z</time>
      </trkpt>
      <trkpt lat="45.85921" lon="4.24548">
        <ele>547</ele>
        <time>2018-06-11T13:43:08Z</time>
      </trkpt>
      <trkpt lat="45.85919" lon="4.24537">
        <ele>545</ele>
        <time>2018-06-11T13:43:13Z</time>
      </trkpt>
      <trkpt lat="45.85918" lon="4.24531">
        <ele>545</ele>
        <time>2018-06-11T13:43:19Z</time>
      </trkpt>
      <trkpt lat="45.85915" lon="4.24528">
        <ele>541</ele>
        <time>2018-06-11T13:43:25Z</time>
      </trkpt>
      <trkpt lat="45.85912" lon="4.2452">
        <ele>540</ele>
        <time>2018-06-11T13:43:30Z</time>
      </trkpt>
      <trkpt lat="45.8591" lon="4.24516">
        <ele>539</ele>
        <time>2018-06-11T13:43:36Z</time>
      </trkpt>
      <trkpt lat="45.85907" lon="4.24512">
        <ele>539</ele>
        <time>2018-06-11T13:43:41Z</time>
      </trkpt>
      <trkpt lat="45.85903" lon="4.24507">
        <ele>539</ele>
        <time>2018-06-11T13:43:47Z</time>
      </trkpt>
      <trkpt lat="45.85901" lon="4.24499">
        <ele>534</ele>
        <time>2018-06-11T13:43:52Z</time>
      </trkpt>
      <trkpt lat="45.85898" lon="4.24493">
        <ele>534</ele>
        <time>2018-06-11T13:43:58Z</time>
      </trkpt>
      <trkpt lat="45.85896" lon="4.24488">
        <ele>533</ele>
        <time>2018-06-11T13:44:03Z</time>
      </trkpt>
      <trkpt lat="45.85894" lon="4.24482">
        <ele>533</ele>
        <time>2018-06-11T13:44:09Z</time>
      </trkpt>
      <trkpt lat="45.85894" lon="4.24479">
        <ele>533</ele>
        <time>2018-06-11T13:44:15Z</time>
      </trkpt>
      <trkpt lat="45.85894" lon="4.24478">
        <ele>533</ele>
        <time>2018-06-11T13:44:20Z</time>
      </trkpt>
      <trkpt lat="45.85892" lon="4.24477">
        <ele>533</ele>
        <time>2018-06-11T13:44:25Z</time>
      </trkpt>
      <trkpt lat="45.85886" lon="4.24479">
        <ele>533</ele>
        <time>2018-06-11T13:44:30Z</time>
      </trkpt>
      <trkpt lat="45.85878" lon="4.24481">
        <ele>533</ele>
        <time>2018-06-11T13:44:36Z</time>
      </trkpt>
      <trkpt lat="45.85875" lon="4.24479">
        <ele>533</ele>
        <time>2018-06-11T13:44:41Z</time>
      </trkpt>
      <trkpt lat="45.85867" lon="4.24474">
        <ele>533</ele>
        <time>2018-06-11T13:44:47Z</time>
      </trkpt>
      <trkpt lat="45.85862" lon="4.24468">
        <ele>533</ele>
        <time>2018-06-11T13:44:52Z</time>
      </trkpt>
      <trkpt lat="45.85855" lon="4.24463">
        <ele>532</ele>
        <time>2018-06-11T13:44:58Z</time>
      </trkpt>
      <trkpt lat="45.8585" lon="4.24453">
        <ele>532</ele>
        <time>2018-06-11T13:45:04Z</time>
      </trkpt>
      <trkpt lat="45.85848" lon="4.24445">
        <ele>531</ele>
        <time>2018-06-11T13:45:09Z</time>
      </trkpt>
      <trkpt lat="45.85844" lon="4.24435">
        <ele>531</ele>
        <time>2018-06-11T13:45:15Z</time>
      </trkpt>
      <trkpt lat="45.85843" lon="4.24429">
        <ele>531</ele>
        <time>2018-06-11T13:45:20Z</time>
      </trkpt>
      <trkpt lat="45.85841" lon="4.24416">
        <ele>529</ele>
        <time>2018-06-11T13:45:26Z</time>
      </trkpt>
      <trkpt lat="45.8584" lon="4.24406">
        <ele>528</ele>
        <time>2018-06-11T13:45:31Z</time>
      </trkpt>
      <trkpt lat="45.85838" lon="4.24395">
        <ele>527</ele>
        <time>2018-06-11T13:45:37Z</time>
      </trkpt>
      <trkpt lat="45.85836" lon="4.24384">
        <ele>527</ele>
        <time>2018-06-11T13:45:43Z</time>
      </trkpt>
      <trkpt lat="45.85836" lon="4.24373">
        <ele>527</ele>
        <time>2018-06-11T13:45:49Z</time>
      </trkpt>
      <trkpt lat="45.85835" lon="4.24363">
        <ele>527</ele>
        <time>2018-06-11T13:45:55Z</time>
      </trkpt>
      <trkpt lat="45.85833" lon="4.24349">
        <ele>531</ele>
        <time>2018-06-11T13:46:01Z</time>
      </trkpt>
      <trkpt lat="45.85832" lon="4.24339">
        <ele>530</ele>
        <time>2018-06-11T13:46:07Z</time>
      </trkpt>
      <trkpt lat="45.85829" lon="4.24326">
        <ele>529</ele>
        <time>2018-06-11T13:46:13Z</time>
      </trkpt>
      <trkpt lat="45.85826" lon="4.24317">
        <ele>530</ele>
        <time>2018-06-11T13:46:19Z</time>
      </trkpt>
      <trkpt lat="45.85823" lon="4.24306">
        <ele>530</ele>
        <time>2018-06-11T13:46:25Z</time>
      </trkpt>
      <trkpt lat="45.8582" lon="4.24297">
        <ele>530</ele>
        <time>2018-06-11T13:46:30Z</time>
      </trkpt>
      <trkpt lat="45.85816" lon="4.2429">
        <ele>529</ele>
        <time>2018-06-11T13:46:35Z</time>
      </trkpt>
      <trkpt lat="45.85812" lon="4.24279">
        <ele>529</ele>
        <time>2018-06-11T13:46:41Z</time>
      </trkpt>
      <trkpt lat="45.85807" lon="4.24268">
        <ele>529</ele>
        <time>2018-06-11T13:46:47Z</time>
      </trkpt>
      <trkpt lat="45.85804" lon="4.24259">
        <ele>529</ele>
        <time>2018-06-11T13:46:53Z</time>
      </trkpt>
      <trkpt lat="45.858" lon="4.24249">
        <ele>528</ele>
        <time>2018-06-11T13:46:58Z</time>
      </trkpt>
      <trkpt lat="45.85797" lon="4.24242">
        <ele>528</ele>
        <time>2018-06-11T13:47:03Z</time>
      </trkpt>
      <trkpt lat="45.85793" lon="4.24233">
        <ele>528</ele>
        <time>2018-06-11T13:47:09Z</time>
      </trkpt>
      <trkpt lat="45.8579" lon="4.24224">
        <ele>528</ele>
        <time>2018-06-11T13:47:14Z</time>
      </trkpt>
      <trkpt lat="45.85786" lon="4.24213">
        <ele>528</ele>
        <time>2018-06-11T13:47:20Z</time>
      </trkpt>
      <trkpt lat="45.85782" lon="4.24202">
        <ele>527</ele>
        <time>2018-06-11T13:47:26Z</time>
      </trkpt>
      <trkpt lat="45.85775" lon="4.24191">
        <ele>527</ele>
        <time>2018-06-11T13:47:32Z</time>
      </trkpt>
      <trkpt lat="45.85771" lon="4.24182">
        <ele>527</ele>
        <time>2018-06-11T13:47:37Z</time>
      </trkpt>
      <trkpt lat="45.85767" lon="4.24174">
        <ele>527</ele>
        <time>2018-06-11T13:47:42Z</time>
      </trkpt>
      <trkpt lat="45.85763" lon="4.24167">
        <ele>527</ele>
        <time>2018-06-11T13:47:48Z</time>
      </trkpt>
      <trkpt lat="45.85759" lon="4.24158">
        <ele>526</ele>
        <time>2018-06-11T13:47:54Z</time>
      </trkpt>
      <trkpt lat="45.85755" lon="4.24146">
        <ele>526</ele>
        <time>2018-06-11T13:48:00Z</time>
      </trkpt>
      <trkpt lat="45.85752" lon="4.24136">
        <ele>526</ele>
        <time>2018-06-11T13:48:05Z</time>
      </trkpt>
      <trkpt lat="45.85748" lon="4.24126">
        <ele>524</ele>
        <time>2018-06-11T13:48:12Z</time>
      </trkpt>
      <trkpt lat="45.85746" lon="4.2412">
        <ele>524</ele>
        <time>2018-06-11T13:48:17Z</time>
      </trkpt>
      <trkpt lat="45.85741" lon="4.2411">
        <ele>524</ele>
        <time>2018-06-11T13:48:23Z</time>
      </trkpt>
      <trkpt lat="45.85738" lon="4.24102">
        <ele>524</ele>
        <time>2018-06-11T13:48:28Z</time>
      </trkpt>
      <trkpt lat="45.85734" lon="4.24093">
        <ele>524</ele>
        <time>2018-06-11T13:48:34Z</time>
      </trkpt>
      <trkpt lat="45.85731" lon="4.24085">
        <ele>524</ele>
        <time>2018-06-11T13:48:39Z</time>
      </trkpt>
      <trkpt lat="45.85725" lon="4.24075">
        <ele>523</ele>
        <time>2018-06-11T13:48:45Z</time>
      </trkpt>
      <trkpt lat="45.85718" lon="4.24065">
        <ele>522</ele>
        <time>2018-06-11T13:48:51Z</time>
      </trkpt>
      <trkpt lat="45.85714" lon="4.24054">
        <ele>522</ele>
        <time>2018-06-11T13:48:57Z</time>
      </trkpt>
      <trkpt lat="45.85711" lon="4.24047">
        <ele>522</ele>
        <time>2018-06-11T13:49:02Z</time>
      </trkpt>
      <trkpt lat="45.85708" lon="4.24039">
        <ele>522</ele>
        <time>2018-06-11T13:49:07Z</time>
      </trkpt>
      <trkpt lat="45.85703" lon="4.24031">
        <ele>522</ele>
        <time>2018-06-11T13:49:13Z</time>
      </trkpt>
      <trkpt lat="45.85697" lon="4.24022">
        <ele>522</ele>
        <time>2018-06-11T13:49:18Z</time>
      </trkpt>
      <trkpt lat="45.85693" lon="4.24011">
        <ele>521</ele>
        <time>2018-06-11T13:49:24Z</time>
      </trkpt>
      <trkpt lat="45.85687" lon="4.24001">
        <ele>521</ele>
        <time>2018-06-11T13:49:30Z</time>
      </trkpt>
      <trkpt lat="45.8568" lon="4.23997">
        <ele>520</ele>
        <time>2018-06-11T13:49:36Z</time>
      </trkpt>
      <trkpt lat="45.85674" lon="4.2399">
        <ele>520</ele>
        <time>2018-06-11T13:49:42Z</time>
      </trkpt>
      <trkpt lat="45.85667" lon="4.23986">
        <ele>520</ele>
        <time>2018-06-11T13:49:47Z</time>
      </trkpt>
      <trkpt lat="45.8566" lon="4.23981">
        <ele>520</ele>
        <time>2018-06-11T13:49:52Z</time>
      </trkpt>
      <trkpt lat="45.85657" lon="4.23979">
        <ele>520</ele>
        <time>2018-06-11T13:49:57Z</time>
      </trkpt>
      <trkpt lat="45.85653" lon="4.23976">
        <ele>520</ele>
        <time>2018-06-11T13:50:03Z</time>
      </trkpt>
      <trkpt lat="45.85652" lon="4.23978">
        <ele>520</ele>
        <time>2018-06-11T13:50:08Z</time>
      </trkpt>
      <trkpt lat="45.85652" lon="4.23979">
        <ele>520</ele>
        <time>2018-06-11T13:50:14Z</time>
      </trkpt>
      <trkpt lat="45.85652" lon="4.23979">
        <ele>520</ele>
        <time>2018-06-11T13:50:20Z</time>
      </trkpt>
      <trkpt lat="45.85651" lon="4.23979">
        <ele>520</ele>
        <time>2018-06-11T13:50:26Z</time>
      </trkpt>
      <trkpt lat="45.85653" lon="4.23978">
        <ele>520</ele>
        <time>2018-06-11T13:50:31Z</time>
      </trkpt>
      <trkpt lat="45.85652" lon="4.23977">
        <ele>520</ele>
        <time>2018-06-11T13:50:36Z</time>
      </trkpt>
      <trkpt lat="45.85651" lon="4.23977">
        <ele>520</ele>
        <time>2018-06-11T13:50:42Z</time>
      </trkpt>
      <trkpt lat="45.8565" lon="4.23977">
        <ele>520</ele>
        <time>2018-06-11T13:50:48Z</time>
      </trkpt>
      <trkpt lat="45.85648" lon="4.23976">
        <ele>520</ele>
        <time>2018-06-11T13:50:53Z</time>
      </trkpt>
      <trkpt lat="45.85643" lon="4.23974">
        <ele>520</ele>
        <time>2018-06-11T13:50:58Z</time>
      </trkpt>
      <trkpt lat="45.85637" lon="4.23972">
        <ele>520</ele>
        <time>2018-06-11T13:51:03Z</time>
      </trkpt>
      <trkpt lat="45.85629" lon="4.2397">
        <ele>520</ele>
        <time>2018-06-11T13:51:08Z</time>
      </trkpt>
      <trkpt lat="45.85622" lon="4.23972">
        <ele>520</ele>
        <time>2018-06-11T13:51:14Z</time>
      </trkpt>
      <trkpt lat="45.85614" lon="4.23972">
        <ele>520</ele>
        <time>2018-06-11T13:51:19Z</time>
      </trkpt>
      <trkpt lat="45.85606" lon="4.23972">
        <ele>520</ele>
        <time>2018-06-11T13:51:25Z</time>
      </trkpt>
      <trkpt lat="45.85599" lon="4.23974">
        <ele>520</ele>
        <time>2018-06-11T13:51:30Z</time>
      </trkpt>
      <trkpt lat="45.85591" lon="4.23976">
        <ele>520</ele>
        <time>2018-06-11T13:51:36Z</time>
      </trkpt>
      <trkpt lat="45.85582" lon="4.23978">
        <ele>520</ele>
        <time>2018-06-11T13:51:41Z</time>
      </trkpt>
      <trkpt lat="45.85576" lon="4.23979">
        <ele>520</ele>
        <time>2018-06-11T13:51:47Z</time>
      </trkpt>
      <trkpt lat="45.85566" lon="4.23983">
        <ele>520</ele>
        <time>2018-06-11T13:51:53Z</time>
      </trkpt>
      <trkpt lat="45.85557" lon="4.23988">
        <ele>520</ele>
        <time>2018-06-11T13:51:59Z</time>
      </trkpt>
      <trkpt lat="45.8555" lon="4.23992">
        <ele>520</ele>
        <time>2018-06-11T13:52:04Z</time>
      </trkpt>
      <trkpt lat="45.85543" lon="4.23996">
        <ele>520</ele>
        <time>2018-06-11T13:52:10Z</time>
      </trkpt>
      <trkpt lat="45.85535" lon="4.24">
        <ele>520</ele>
        <time>2018-06-11T13:52:16Z</time>
      </trkpt>
      <trkpt lat="45.8553" lon="4.24003">
        <ele>518</ele>
        <time>2018-06-11T13:52:21Z</time>
      </trkpt>
      <trkpt lat="45.85522" lon="4.2401">
        <ele>518</ele>
        <time>2018-06-11T13:52:26Z</time>
      </trkpt>
      <trkpt lat="45.85517" lon="4.24017">
        <ele>518</ele>
        <time>2018-06-11T13:52:32Z</time>
      </trkpt>
      <trkpt lat="45.85509" lon="4.24025">
        <ele>517</ele>
        <time>2018-06-11T13:52:38Z</time>
      </trkpt>
      <trkpt lat="45.85502" lon="4.24029">
        <ele>517</ele>
        <time>2018-06-11T13:52:43Z</time>
      </trkpt>
      <trkpt lat="45.85495" lon="4.24035">
        <ele>515</ele>
        <time>2018-06-11T13:52:49Z</time>
      </trkpt>
      <trkpt lat="45.85489" lon="4.2404">
        <ele>515</ele>
        <time>2018-06-11T13:52:54Z</time>
      </trkpt>
      <trkpt lat="45.85483" lon="4.24044">
        <ele>515</ele>
        <time>2018-06-11T13:52:59Z</time>
      </trkpt>
      <trkpt lat="45.85476" lon="4.2405">
        <ele>515</ele>
        <time>2018-06-11T13:53:05Z</time>
      </trkpt>
      <trkpt lat="45.85467" lon="4.24057">
        <ele>514</ele>
        <time>2018-06-11T13:53:11Z</time>
      </trkpt>
      <trkpt lat="45.85459" lon="4.24064">
        <ele>514</ele>
        <time>2018-06-11T13:53:17Z</time>
      </trkpt>
      <trkpt lat="45.85451" lon="4.24072">
        <ele>514</ele>
        <time>2018-06-11T13:53:22Z</time>
      </trkpt>
      <trkpt lat="45.85444" lon="4.24079">
        <ele>513</ele>
        <time>2018-06-11T13:53:28Z</time>
      </trkpt>
      <trkpt lat="45.85439" lon="4.24084">
        <ele>511</ele>
        <time>2018-06-11T13:53:33Z</time>
      </trkpt>
      <trkpt lat="45.8543" lon="4.24086">
        <ele>511</ele>
        <time>2018-06-11T13:53:38Z</time>
      </trkpt>
      <trkpt lat="45.85422" lon="4.24087">
        <ele>512</ele>
        <time>2018-06-11T13:53:44Z</time>
      </trkpt>
      <trkpt lat="45.85413" lon="4.24086">
        <ele>511</ele>
        <time>2018-06-11T13:53:50Z</time>
      </trkpt>
      <trkpt lat="45.85405" lon="4.24085">
        <ele>509</ele>
        <time>2018-06-11T13:53:56Z</time>
      </trkpt>
      <trkpt lat="45.85396" lon="4.24084">
        <ele>508</ele>
        <time>2018-06-11T13:54:02Z</time>
      </trkpt>
      <trkpt lat="45.85388" lon="4.2408">
        <ele>510</ele>
        <time>2018-06-11T13:54:08Z</time>
      </trkpt>
      <trkpt lat="45.85379" lon="4.2407">
        <ele>509</ele>
        <time>2018-06-11T13:54:14Z</time>
      </trkpt>
      <trkpt lat="45.85372" lon="4.24058">
        <ele>509</ele>
        <time>2018-06-11T13:54:20Z</time>
      </trkpt>
      <trkpt lat="45.85367" lon="4.24052">
        <ele>509</ele>
        <time>2018-06-11T13:54:26Z</time>
      </trkpt>
      <trkpt lat="45.85361" lon="4.24043">
        <ele>509</ele>
        <time>2018-06-11T13:54:31Z</time>
      </trkpt>
      <trkpt lat="45.85359" lon="4.24036">
        <ele>509</ele>
        <time>2018-06-11T13:54:37Z</time>
      </trkpt>
      <trkpt lat="45.85355" lon="4.24028">
        <ele>509</ele>
        <time>2018-06-11T13:54:42Z</time>
      </trkpt>
      <trkpt lat="45.8535" lon="4.24019">
        <ele>509</ele>
        <time>2018-06-11T13:54:48Z</time>
      </trkpt>
      <trkpt lat="45.85346" lon="4.24011">
        <ele>509</ele>
        <time>2018-06-11T13:54:54Z</time>
      </trkpt>
      <trkpt lat="45.8534" lon="4.24003">
        <ele>509</ele>
        <time>2018-06-11T13:54:59Z</time>
      </trkpt>
      <trkpt lat="45.85333" lon="4.23994">
        <ele>508</ele>
        <time>2018-06-11T13:55:05Z</time>
      </trkpt>
      <trkpt lat="45.85327" lon="4.23988">
        <ele>507</ele>
        <time>2018-06-11T13:55:11Z</time>
      </trkpt>
      <trkpt lat="45.85323" lon="4.23983">
        <ele>506</ele>
        <time>2018-06-11T13:55:16Z</time>
      </trkpt>
      <trkpt lat="45.85318" lon="4.23979">
        <ele>506</ele>
        <time>2018-06-11T13:55:21Z</time>
      </trkpt>
      <trkpt lat="45.8531" lon="4.23971">
        <ele>505</ele>
        <time>2018-06-11T13:55:27Z</time>
      </trkpt>
      <trkpt lat="45.85302" lon="4.23965">
        <ele>505</ele>
        <time>2018-06-11T13:55:33Z</time>
      </trkpt>
      <trkpt lat="45.85294" lon="4.23961">
        <ele>504</ele>
        <time>2018-06-11T13:55:38Z</time>
      </trkpt>
      <trkpt lat="45.85283" lon="4.23952">
        <ele>503</ele>
        <time>2018-06-11T13:55:44Z</time>
      </trkpt>
      <trkpt lat="45.85275" lon="4.23944">
        <ele>503</ele>
        <time>2018-06-11T13:55:49Z</time>
      </trkpt>
      <trkpt lat="45.85269" lon="4.23937">
        <ele>502</ele>
        <time>2018-06-11T13:55:54Z</time>
      </trkpt>
      <trkpt lat="45.85266" lon="4.23931">
        <ele>502</ele>
        <time>2018-06-11T13:55:59Z</time>
      </trkpt>
      <trkpt lat="45.85262" lon="4.23923">
        <ele>501</ele>
        <time>2018-06-11T13:56:04Z</time>
      </trkpt>
      <trkpt lat="45.85256" lon="4.23912">
        <ele>501</ele>
        <time>2018-06-11T13:56:10Z</time>
      </trkpt>
      <trkpt lat="45.85248" lon="4.23903">
        <ele>497</ele>
        <time>2018-06-11T13:56:16Z</time>
      </trkpt>
      <trkpt lat="45.85242" lon="4.23895">
        <ele>496</ele>
        <time>2018-06-11T13:56:22Z</time>
      </trkpt>
      <trkpt lat="45.85238" lon="4.23883">
        <ele>496</ele>
        <time>2018-06-11T13:56:28Z</time>
      </trkpt>
      <trkpt lat="45.85231" lon="4.23876">
        <ele>496</ele>
        <time>2018-06-11T13:56:34Z</time>
      </trkpt>
      <trkpt lat="45.85225" lon="4.23868">
        <ele>495</ele>
        <time>2018-06-11T13:56:40Z</time>
      </trkpt>
      <trkpt lat="45.85221" lon="4.23859">
        <ele>495</ele>
        <time>2018-06-11T13:56:45Z</time>
      </trkpt>
      <trkpt lat="45.85216" lon="4.23848">
        <ele>495</ele>
        <time>2018-06-11T13:56:50Z</time>
      </trkpt>
      <trkpt lat="45.85209" lon="4.23838">
        <ele>494</ele>
        <time>2018-06-11T13:56:56Z</time>
      </trkpt>
      <trkpt lat="45.85204" lon="4.23829">
        <ele>494</ele>
        <time>2018-06-11T13:57:02Z</time>
      </trkpt>
      <trkpt lat="45.85196" lon="4.2382">
        <ele>494</ele>
        <time>2018-06-11T13:57:08Z</time>
      </trkpt>
      <trkpt lat="45.8519" lon="4.23809">
        <ele>493</ele>
        <time>2018-06-11T13:57:14Z</time>
      </trkpt>
      <trkpt lat="45.85183" lon="4.23799">
        <ele>493</ele>
        <time>2018-06-11T13:57:20Z</time>
      </trkpt>
      <trkpt lat="45.85178" lon="4.2379">
        <ele>493</ele>
        <time>2018-06-11T13:57:25Z</time>
      </trkpt>
      <trkpt lat="45.85173" lon="4.23779">
        <ele>493</ele>
        <time>2018-06-11T13:57:31Z</time>
      </trkpt>
      <trkpt lat="45.85167" lon="4.23771">
        <ele>493</ele>
        <time>2018-06-11T13:57:37Z</time>
      </trkpt>
      <trkpt lat="45.85162" lon="4.23764">
        <ele>491</ele>
        <time>2018-06-11T13:57:42Z</time>
      </trkpt>
      <trkpt lat="45.85155" lon="4.23759">
        <ele>491</ele>
        <time>2018-06-11T13:57:48Z</time>
      </trkpt>
      <trkpt lat="45.85146" lon="4.23755">
        <ele>491</ele>
        <time>2018-06-11T13:57:54Z</time>
      </trkpt>
      <trkpt lat="45.85136" lon="4.23752">
        <ele>491</ele>
        <time>2018-06-11T13:58:00Z</time>
      </trkpt>
      <trkpt lat="45.85129" lon="4.23748">
        <ele>494</ele>
        <time>2018-06-11T13:58:05Z</time>
      </trkpt>
      <trkpt lat="45.85122" lon="4.23746">
        <ele>494</ele>
        <time>2018-06-11T13:58:10Z</time>
      </trkpt>
      <trkpt lat="45.85113" lon="4.23747">
        <ele>494</ele>
        <time>2018-06-11T13:58:16Z</time>
      </trkpt>
      <trkpt lat="45.85103" lon="4.23747">
        <ele>493</ele>
        <time>2018-06-11T13:58:22Z</time>
      </trkpt>
      <trkpt lat="45.85093" lon="4.23744">
        <ele>492</ele>
        <time>2018-06-11T13:58:28Z</time>
      </trkpt>
      <trkpt lat="45.85085" lon="4.2374">
        <ele>492</ele>
        <time>2018-06-11T13:58:34Z</time>
      </trkpt>
      <trkpt lat="45.85079" lon="4.23739">
        <ele>490</ele>
        <time>2018-06-11T13:58:40Z</time>
      </trkpt>
      <trkpt lat="45.85073" lon="4.23737">
        <ele>490</ele>
        <time>2018-06-11T13:58:45Z</time>
      </trkpt>
      <trkpt lat="45.85067" lon="4.23729">
        <ele>490</ele>
        <time>2018-06-11T13:58:51Z</time>
      </trkpt>
      <trkpt lat="45.85059" lon="4.23723">
        <ele>490</ele>
        <time>2018-06-11T13:58:57Z</time>
      </trkpt>
      <trkpt lat="45.85055" lon="4.23717">
        <ele>490</ele>
        <time>2018-06-11T13:59:02Z</time>
      </trkpt>
      <trkpt lat="45.85047" lon="4.23709">
        <ele>490</ele>
        <time>2018-06-11T13:59:08Z</time>
      </trkpt>
      <trkpt lat="45.85043" lon="4.23702">
        <ele>490</ele>
        <time>2018-06-11T13:59:14Z</time>
      </trkpt>
      <trkpt lat="45.85042" lon="4.237">
        <ele>490</ele>
        <time>2018-06-11T13:59:19Z</time>
      </trkpt>
      <trkpt lat="45.85037" lon="4.2369">
        <ele>490</ele>
        <time>2018-06-11T13:59:25Z</time>
      </trkpt>
      <trkpt lat="45.85034" lon="4.23678">
        <ele>489</ele>
        <time>2018-06-11T13:59:30Z</time>
      </trkpt>
      <trkpt lat="45.85034" lon="4.23664">
        <ele>490</ele>
        <time>2018-06-11T13:59:36Z</time>
      </trkpt>
      <trkpt lat="45.85032" lon="4.23653">
        <ele>490</ele>
        <time>2018-06-11T13:59:42Z</time>
      </trkpt>
      <trkpt lat="45.8503" lon="4.23641">
        <ele>490</ele>
        <time>2018-06-11T13:59:47Z</time>
      </trkpt>
      <trkpt lat="45.85027" lon="4.23635">
        <ele>490</ele>
        <time>2018-06-11T13:59:53Z</time>
      </trkpt>
      <trkpt lat="45.85025" lon="4.2363">
        <ele>490</ele>
        <time>2018-06-11T13:59:58Z</time>
      </trkpt>
      <trkpt lat="45.85022" lon="4.23621">
        <ele>490</ele>
        <time>2018-06-11T14:00:03Z</time>
      </trkpt>
      <trkpt lat="45.85019" lon="4.2361">
        <ele>489</ele>
        <time>2018-06-11T14:00:09Z</time>
      </trkpt>
      <trkpt lat="45.85016" lon="4.23599">
        <ele>488</ele>
        <time>2018-06-11T14:00:14Z</time>
      </trkpt>
      <trkpt lat="45.85011" lon="4.23586">
        <ele>486</ele>
        <time>2018-06-11T14:00:19Z</time>
      </trkpt>
      <trkpt lat="45.85007" lon="4.23577">
        <ele>486</ele>
        <time>2018-06-11T14:00:25Z</time>
      </trkpt>
      <trkpt lat="45.85003" lon="4.23567">
        <ele>488</ele>
        <time>2018-06-11T14:00:30Z</time>
      </trkpt>
      <trkpt lat="45.84999" lon="4.23558">
        <ele>481</ele>
        <time>2018-06-11T14:00:35Z</time>
      </trkpt>
      <trkpt lat="45.84997" lon="4.23549">
        <ele>481</ele>
        <time>2018-06-11T14:00:41Z</time>
      </trkpt>
      <trkpt lat="45.84993" lon="4.23543">
        <ele>481</ele>
        <time>2018-06-11T14:00:46Z</time>
      </trkpt>
      <trkpt lat="45.84988" lon="4.23534">
        <ele>481</ele>
        <time>2018-06-11T14:00:52Z</time>
      </trkpt>
      <trkpt lat="45.84982" lon="4.23525">
        <ele>481</ele>
        <time>2018-06-11T14:00:57Z</time>
      </trkpt>
      <trkpt lat="45.84975" lon="4.23518">
        <ele>480</ele>
        <time>2018-06-11T14:01:02Z</time>
      </trkpt>
      <trkpt lat="45.8497" lon="4.23513">
        <ele>480</ele>
        <time>2018-06-11T14:01:07Z</time>
      </trkpt>
      <trkpt lat="45.84964" lon="4.23508">
        <ele>479</ele>
        <time>2018-06-11T14:01:13Z</time>
      </trkpt>
      <trkpt lat="45.84953" lon="4.23496">
        <ele>478</ele>
        <time>2018-06-11T14:01:18Z</time>
      </trkpt>
      <trkpt lat="45.84941" lon="4.23491">
        <ele>476</ele>
        <time>2018-06-11T14:01:24Z</time>
      </trkpt>
      <trkpt lat="45.84937" lon="4.23486">
        <ele>476</ele>
        <time>2018-06-11T14:01:29Z</time>
      </trkpt>
      <trkpt lat="45.84931" lon="4.23481">
        <ele>476</ele>
        <time>2018-06-11T14:01:35Z</time>
      </trkpt>
      <trkpt lat="45.84924" lon="4.23469">
        <ele>476</ele>
        <time>2018-06-11T14:01:41Z</time>
      </trkpt>
      <trkpt lat="45.84917" lon="4.23457">
        <ele>476</ele>
        <time>2018-06-11T14:01:47Z</time>
      </trkpt>
      <trkpt lat="45.84912" lon="4.23452">
        <ele>471</ele>
        <time>2018-06-11T14:01:53Z</time>
      </trkpt>
      <trkpt lat="45.84904" lon="4.23448">
        <ele>471</ele>
        <time>2018-06-11T14:01:59Z</time>
      </trkpt>
      <trkpt lat="45.84897" lon="4.23445">
        <ele>470</ele>
        <time>2018-06-11T14:02:05Z</time>
      </trkpt>
      <trkpt lat="45.84889" lon="4.2344">
        <ele>470</ele>
        <time>2018-06-11T14:02:10Z</time>
      </trkpt>
      <trkpt lat="45.84882" lon="4.23438">
        <ele>470</ele>
        <time>2018-06-11T14:02:16Z</time>
      </trkpt>
      <trkpt lat="45.84878" lon="4.23429">
        <ele>469</ele>
        <time>2018-06-11T14:02:22Z</time>
      </trkpt>
      <trkpt lat="45.84874" lon="4.23419">
        <ele>469</ele>
        <time>2018-06-11T14:02:27Z</time>
      </trkpt>
      <trkpt lat="45.8487" lon="4.23409">
        <ele>470</ele>
        <time>2018-06-11T14:02:33Z</time>
      </trkpt>
      <trkpt lat="45.84864" lon="4.23398">
        <ele>469</ele>
        <time>2018-06-11T14:02:39Z</time>
      </trkpt>
      <trkpt lat="45.84858" lon="4.23386">
        <ele>469</ele>
        <time>2018-06-11T14:02:45Z</time>
      </trkpt>
      <trkpt lat="45.84854" lon="4.23378">
        <ele>469</ele>
        <time>2018-06-11T14:02:50Z</time>
      </trkpt>
      <trkpt lat="45.84849" lon="4.23369">
        <ele>469</ele>
        <time>2018-06-11T14:02:56Z</time>
      </trkpt>
      <trkpt lat="45.84845" lon="4.23359">
        <ele>469</ele>
        <time>2018-06-11T14:03:01Z</time>
      </trkpt>
      <trkpt lat="45.84841" lon="4.23347">
        <ele>469</ele>
        <time>2018-06-11T14:03:07Z</time>
      </trkpt>
      <trkpt lat="45.84838" lon="4.23338">
        <ele>468</ele>
        <time>2018-06-11T14:03:12Z</time>
      </trkpt>
      <trkpt lat="45.84833" lon="4.23327">
        <ele>468</ele>
        <time>2018-06-11T14:03:18Z</time>
      </trkpt>
      <trkpt lat="45.8483" lon="4.23318">
        <ele>468</ele>
        <time>2018-06-11T14:03:23Z</time>
      </trkpt>
      <trkpt lat="45.84825" lon="4.23308">
        <ele>469</ele>
        <time>2018-06-11T14:03:29Z</time>
      </trkpt>
      <trkpt lat="45.84819" lon="4.23298">
        <ele>469</ele>
        <time>2018-06-11T14:03:34Z</time>
      </trkpt>
      <trkpt lat="45.84813" lon="4.23286">
        <ele>469</ele>
        <time>2018-06-11T14:03:40Z</time>
      </trkpt>
      <trkpt lat="45.84808" lon="4.23277">
        <ele>469</ele>
        <time>2018-06-11T14:03:45Z</time>
      </trkpt>
      <trkpt lat="45.84803" lon="4.23266">
        <ele>469</ele>
        <time>2018-06-11T14:03:51Z</time>
      </trkpt>
      <trkpt lat="45.848" lon="4.2326">
        <ele>469</ele>
        <time>2018-06-11T14:03:56Z</time>
      </trkpt>
      <trkpt lat="45.84794" lon="4.23251">
        <ele>469</ele>
        <time>2018-06-11T14:04:02Z</time>
      </trkpt>
      <trkpt lat="45.84788" lon="4.23241">
        <ele>467</ele>
        <time>2018-06-11T14:04:08Z</time>
      </trkpt>
      <trkpt lat="45.84782" lon="4.23231">
        <ele>467</ele>
        <time>2018-06-11T14:04:14Z</time>
      </trkpt>
      <trkpt lat="45.8478" lon="4.23223">
        <ele>467</ele>
        <time>2018-06-11T14:04:19Z</time>
      </trkpt>
      <trkpt lat="45.84778" lon="4.2321">
        <ele>467</ele>
        <time>2018-06-11T14:04:25Z</time>
      </trkpt>
      <trkpt lat="45.84775" lon="4.23198">
        <ele>466</ele>
        <time>2018-06-11T14:04:31Z</time>
      </trkpt>
      <trkpt lat="45.84775" lon="4.23187">
        <ele>466</ele>
        <time>2018-06-11T14:04:36Z</time>
      </trkpt>
      <trkpt lat="45.84774" lon="4.23179">
        <ele>466</ele>
        <time>2018-06-11T14:04:41Z</time>
      </trkpt>
      <trkpt lat="45.84771" lon="4.23166">
        <ele>465</ele>
        <time>2018-06-11T14:04:47Z</time>
      </trkpt>
      <trkpt lat="45.84767" lon="4.2316">
        <ele>465</ele>
        <time>2018-06-11T14:04:52Z</time>
      </trkpt>
      <trkpt lat="45.84762" lon="4.23148">
        <ele>465</ele>
        <time>2018-06-11T14:04:58Z</time>
      </trkpt>
      <trkpt lat="45.8476" lon="4.23142">
        <ele>465</ele>
        <time>2018-06-11T14:05:03Z</time>
      </trkpt>
      <trkpt lat="45.84757" lon="4.23138">
        <ele>466</ele>
        <time>2018-06-11T14:05:08Z</time>
      </trkpt>
      <trkpt lat="45.84753" lon="4.23132">
        <ele>466</ele>
        <time>2018-06-11T14:05:14Z</time>
      </trkpt>
      <trkpt lat="45.84752" lon="4.23131">
        <ele>466</ele>
        <time>2018-06-11T14:05:20Z</time>
      </trkpt>
      <trkpt lat="45.84747" lon="4.23124">
        <ele>458</ele>
        <time>2018-06-11T14:05:25Z</time>
      </trkpt>
      <trkpt lat="45.84741" lon="4.23119">
        <ele>458</ele>
        <time>2018-06-11T14:05:31Z</time>
      </trkpt>
      <trkpt lat="45.84735" lon="4.23119">
        <ele>458</ele>
        <time>2018-06-11T14:05:36Z</time>
      </trkpt>
      <trkpt lat="45.8473" lon="4.23115">
        <ele>458</ele>
        <time>2018-06-11T14:05:42Z</time>
      </trkpt>
      <trkpt lat="45.84723" lon="4.2312">
        <ele>457</ele>
        <time>2018-06-11T14:05:48Z</time>
      </trkpt>
      <trkpt lat="45.84716" lon="4.23127">
        <ele>457</ele>
        <time>2018-06-11T14:05:54Z</time>
      </trkpt>
      <trkpt lat="45.84713" lon="4.2313">
        <ele>457</ele>
        <time>2018-06-11T14:05:59Z</time>
      </trkpt>
      <trkpt lat="45.84709" lon="4.23135">
        <ele>456</ele>
        <time>2018-06-11T14:06:04Z</time>
      </trkpt>
      <trkpt lat="45.84705" lon="4.23139">
        <ele>456</ele>
        <time>2018-06-11T14:06:10Z</time>
      </trkpt>
      <trkpt lat="45.847" lon="4.23143">
        <ele>456</ele>
        <time>2018-06-11T14:06:16Z</time>
      </trkpt>
      <trkpt lat="45.84693" lon="4.23145">
        <ele>455</ele>
        <time>2018-06-11T14:06:22Z</time>
      </trkpt>
      <trkpt lat="45.84684" lon="4.23147">
        <ele>455</ele>
        <time>2018-06-11T14:06:28Z</time>
      </trkpt>
      <trkpt lat="45.84679" lon="4.23148">
        <ele>455</ele>
        <time>2018-06-11T14:06:34Z</time>
      </trkpt>
      <trkpt lat="45.84672" lon="4.23151">
        <ele>454</ele>
        <time>2018-06-11T14:06:40Z</time>
      </trkpt>
      <trkpt lat="45.84662" lon="4.23153">
        <ele>452</ele>
        <time>2018-06-11T14:06:46Z</time>
      </trkpt>
      <trkpt lat="45.84654" lon="4.23151">
        <ele>452</ele>
        <time>2018-06-11T14:06:52Z</time>
      </trkpt>
      <trkpt lat="45.84648" lon="4.23149">
        <ele>452</ele>
        <time>2018-06-11T14:06:58Z</time>
      </trkpt>
      <trkpt lat="45.84633" lon="4.2315">
        <ele>452</ele>
        <time>2018-06-11T14:07:04Z</time>
      </trkpt>
      <trkpt lat="45.84627" lon="4.23149">
        <ele>452</ele>
        <time>2018-06-11T14:07:09Z</time>
      </trkpt>
      <trkpt lat="45.84625" lon="4.23147">
        <ele>452</ele>
        <time>2018-06-11T14:07:15Z</time>
      </trkpt>
      <trkpt lat="45.84621" lon="4.23147">
        <ele>452</ele>
        <time>2018-06-11T14:07:20Z</time>
      </trkpt>
      <trkpt lat="45.8462" lon="4.23147">
        <ele>453</ele>
        <time>2018-06-11T14:07:25Z</time>
      </trkpt>
      <trkpt lat="45.84614" lon="4.23147">
        <ele>453</ele>
        <time>2018-06-11T14:07:31Z</time>
      </trkpt>
      <trkpt lat="45.8461" lon="4.23147">
        <ele>453</ele>
        <time>2018-06-11T14:07:36Z</time>
      </trkpt>
      <trkpt lat="45.84603" lon="4.23148">
        <ele>453</ele>
        <time>2018-06-11T14:07:42Z</time>
      </trkpt>
      <trkpt lat="45.84599" lon="4.23144">
        <ele>453</ele>
        <time>2018-06-11T14:07:48Z</time>
      </trkpt>
      <trkpt lat="45.84589" lon="4.23142">
        <ele>453</ele>
        <time>2018-06-11T14:07:54Z</time>
      </trkpt>
      <trkpt lat="45.84588" lon="4.23143">
        <ele>453</ele>
        <time>2018-06-11T14:07:59Z</time>
      </trkpt>
      <trkpt lat="45.84581" lon="4.23145">
        <ele>455</ele>
        <time>2018-06-11T14:08:05Z</time>
      </trkpt>
      <trkpt lat="45.84577" lon="4.23145">
        <ele>455</ele>
        <time>2018-06-11T14:08:10Z</time>
      </trkpt>
      <trkpt lat="45.84575" lon="4.23147">
        <ele>455</ele>
        <time>2018-06-11T14:08:16Z</time>
      </trkpt>
      <trkpt lat="45.84558" lon="4.23151">
        <ele>456</ele>
        <time>2018-06-11T14:08:21Z</time>
      </trkpt>
      <trkpt lat="45.84554" lon="4.23155">
        <ele>456</ele>
        <time>2018-06-11T14:08:27Z</time>
      </trkpt>
      <trkpt lat="45.84548" lon="4.23158">
        <ele>456</ele>
        <time>2018-06-11T14:08:32Z</time>
      </trkpt>
      <trkpt lat="45.84547" lon="4.23158">
        <ele>456</ele>
        <time>2018-06-11T14:08:38Z</time>
      </trkpt>
      <trkpt lat="45.84546" lon="4.23158">
        <ele>456</ele>
        <time>2018-06-11T14:08:43Z</time>
      </trkpt>
      <trkpt lat="45.84533" lon="4.23165">
        <ele>458</ele>
        <time>2018-06-11T14:08:49Z</time>
      </trkpt>
      <trkpt lat="45.8453" lon="4.23168">
        <ele>464</ele>
        <time>2018-06-11T14:08:54Z</time>
      </trkpt>
      <trkpt lat="45.84524" lon="4.23186">
        <ele>465</ele>
        <time>2018-06-11T14:09:00Z</time>
      </trkpt>
      <trkpt lat="45.84523" lon="4.23186">
        <ele>465</ele>
        <time>2018-06-11T14:09:05Z</time>
      </trkpt>
      <trkpt lat="45.84519" lon="4.23189">
        <ele>465</ele>
        <time>2018-06-11T14:09:10Z</time>
      </trkpt>
      <trkpt lat="45.84513" lon="4.23194">
        <ele>465</ele>
        <time>2018-06-11T14:09:15Z</time>
      </trkpt>
      <trkpt lat="45.84506" lon="4.23197">
        <ele>466</ele>
        <time>2018-06-11T14:09:21Z</time>
      </trkpt>
      <trkpt lat="45.84503" lon="4.23195">
        <ele>466</ele>
        <time>2018-06-11T14:09:27Z</time>
      </trkpt>
      <trkpt lat="45.84497" lon="4.23195">
        <ele>471</ele>
        <time>2018-06-11T14:09:32Z</time>
      </trkpt>
      <trkpt lat="45.84495" lon="4.23189">
        <ele>471</ele>
        <time>2018-06-11T14:09:37Z</time>
      </trkpt>
      <trkpt lat="45.84488" lon="4.23181">
        <ele>470</ele>
        <time>2018-06-11T14:09:43Z</time>
      </trkpt>
      <trkpt lat="45.8448" lon="4.23176">
        <ele>471</ele>
        <time>2018-06-11T14:09:49Z</time>
      </trkpt>
      <trkpt lat="45.84473" lon="4.23172">
        <ele>471</ele>
        <time>2018-06-11T14:09:55Z</time>
      </trkpt>
      <trkpt lat="45.84469" lon="4.23165">
        <ele>465</ele>
        <time>2018-06-11T14:10:01Z</time>
      </trkpt>
      <trkpt lat="45.84464" lon="4.2316">
        <ele>465</ele>
        <time>2018-06-11T14:10:06Z</time>
      </trkpt>
      <trkpt lat="45.84461" lon="4.23156">
        <ele>465</ele>
        <time>2018-06-11T14:10:12Z</time>
      </trkpt>
      <trkpt lat="45.84458" lon="4.23153">
        <ele>465</ele>
        <time>2018-06-11T14:10:17Z</time>
      </trkpt>
      <trkpt lat="45.84452" lon="4.23146">
        <ele>465</ele>
        <time>2018-06-11T14:10:23Z</time>
      </trkpt>
      <trkpt lat="45.84445" lon="4.23136">
        <ele>465</ele>
        <time>2018-06-11T14:10:28Z</time>
      </trkpt>
      <trkpt lat="45.84438" lon="4.23129">
        <ele>465</ele>
        <time>2018-06-11T14:10:33Z</time>
      </trkpt>
      <trkpt lat="45.84431" lon="4.23125">
        <ele>465</ele>
        <time>2018-06-11T14:10:39Z</time>
      </trkpt>
      <trkpt lat="45.84425" lon="4.23119">
        <ele>465</ele>
        <time>2018-06-11T14:10:44Z</time>
      </trkpt>
      <trkpt lat="45.84419" lon="4.23116">
        <ele>465</ele>
        <time>2018-06-11T14:10:50Z</time>
      </trkpt>
      <trkpt lat="45.84406" lon="4.23106">
        <ele>469</ele>
        <time>2018-06-11T14:10:56Z</time>
      </trkpt>
      <trkpt lat="45.84399" lon="4.23099">
        <ele>469</ele>
        <time>2018-06-11T14:11:02Z</time>
      </trkpt>
      <trkpt lat="45.84392" lon="4.23095">
        <ele>469</ele>
        <time>2018-06-11T14:11:08Z</time>
      </trkpt>
      <trkpt lat="45.84386" lon="4.23092">
        <ele>470</ele>
        <time>2018-06-11T14:11:14Z</time>
      </trkpt>
      <trkpt lat="45.84381" lon="4.23088">
        <ele>470</ele>
        <time>2018-06-11T14:11:19Z</time>
      </trkpt>
      <trkpt lat="45.84374" lon="4.23083">
        <ele>463</ele>
        <time>2018-06-11T14:11:25Z</time>
      </trkpt>
      <trkpt lat="45.84365" lon="4.23078">
        <ele>464</ele>
        <time>2018-06-11T14:11:30Z</time>
      </trkpt>
      <trkpt lat="45.84356" lon="4.23074">
        <ele>464</ele>
        <time>2018-06-11T14:11:36Z</time>
      </trkpt>
      <trkpt lat="45.84346" lon="4.23068">
        <ele>465</ele>
        <time>2018-06-11T14:11:42Z</time>
      </trkpt>
      <trkpt lat="45.84341" lon="4.23062">
        <ele>464</ele>
        <time>2018-06-11T14:11:48Z</time>
      </trkpt>
      <trkpt lat="45.84336" lon="4.23057">
        <ele>464</ele>
        <time>2018-06-11T14:11:54Z</time>
      </trkpt>
      <trkpt lat="45.84331" lon="4.23053">
        <ele>467</ele>
        <time>2018-06-11T14:11:59Z</time>
      </trkpt>
      <trkpt lat="45.84323" lon="4.23045">
        <ele>466</ele>
        <time>2018-06-11T14:12:05Z</time>
      </trkpt>
      <trkpt lat="45.84318" lon="4.23036">
        <ele>465</ele>
        <time>2018-06-11T14:12:10Z</time>
      </trkpt>
      <trkpt lat="45.84311" lon="4.23028">
        <ele>465</ele>
        <time>2018-06-11T14:12:16Z</time>
      </trkpt>
      <trkpt lat="45.84304" lon="4.23023">
        <ele>465</ele>
        <time>2018-06-11T14:12:22Z</time>
      </trkpt>
      <trkpt lat="45.843" lon="4.23019">
        <ele>465</ele>
        <time>2018-06-11T14:12:27Z</time>
      </trkpt>
      <trkpt lat="45.84294" lon="4.23014">
        <ele>465</ele>
        <time>2018-06-11T14:12:33Z</time>
      </trkpt>
      <trkpt lat="45.84287" lon="4.23007">
        <ele>465</ele>
        <time>2018-06-11T14:12:39Z</time>
      </trkpt>
      <trkpt lat="45.84279" lon="4.23001">
        <ele>465</ele>
        <time>2018-06-11T14:12:45Z</time>
      </trkpt>
      <trkpt lat="45.84269" lon="4.22998">
        <ele>461</ele>
        <time>2018-06-11T14:12:51Z</time>
      </trkpt>
      <trkpt lat="45.8426" lon="4.22995">
        <ele>462</ele>
        <time>2018-06-11T14:12:57Z</time>
      </trkpt>
      <trkpt lat="45.84254" lon="4.22991">
        <ele>462</ele>
        <time>2018-06-11T14:13:02Z</time>
      </trkpt>
      <trkpt lat="45.84248" lon="4.22987">
        <ele>462</ele>
        <time>2018-06-11T14:13:08Z</time>
      </trkpt>
      <trkpt lat="45.84242" lon="4.22983">
        <ele>461</ele>
        <time>2018-06-11T14:13:13Z</time>
      </trkpt>
      <trkpt lat="45.84235" lon="4.2298">
        <ele>461</ele>
        <time>2018-06-11T14:13:18Z</time>
      </trkpt>
      <trkpt lat="45.84225" lon="4.22978">
        <ele>460</ele>
        <time>2018-06-11T14:13:24Z</time>
      </trkpt>
      <trkpt lat="45.84217" lon="4.22977">
        <ele>460</ele>
        <time>2018-06-11T14:13:29Z</time>
      </trkpt>
      <trkpt lat="45.8421" lon="4.22978">
        <ele>459</ele>
        <time>2018-06-11T14:13:35Z</time>
      </trkpt>
      <trkpt lat="45.84201" lon="4.22982">
        <ele>459</ele>
        <time>2018-06-11T14:13:41Z</time>
      </trkpt>
      <trkpt lat="45.84195" lon="4.22986">
        <ele>459</ele>
        <time>2018-06-11T14:13:47Z</time>
      </trkpt>
      <trkpt lat="45.8419" lon="4.22989">
        <ele>459</ele>
        <time>2018-06-11T14:13:53Z</time>
      </trkpt>
      <trkpt lat="45.84182" lon="4.22992">
        <ele>458</ele>
        <time>2018-06-11T14:13:58Z</time>
      </trkpt>
      <trkpt lat="45.84174" lon="4.22998">
        <ele>458</ele>
        <time>2018-06-11T14:14:04Z</time>
      </trkpt>
      <trkpt lat="45.84168" lon="4.23003">
        <ele>458</ele>
        <time>2018-06-11T14:14:10Z</time>
      </trkpt>
      <trkpt lat="45.84161" lon="4.23006">
        <ele>454</ele>
        <time>2018-06-11T14:14:16Z</time>
      </trkpt>
      <trkpt lat="45.84151" lon="4.2301">
        <ele>451</ele>
        <time>2018-06-11T14:14:22Z</time>
      </trkpt>
      <trkpt lat="45.84145" lon="4.23016">
        <ele>449</ele>
        <time>2018-06-11T14:14:27Z</time>
      </trkpt>
      <trkpt lat="45.84139" lon="4.23025">
        <ele>448</ele>
        <time>2018-06-11T14:14:33Z</time>
      </trkpt>
      <trkpt lat="45.84132" lon="4.23034">
        <ele>447</ele>
        <time>2018-06-11T14:14:39Z</time>
      </trkpt>
      <trkpt lat="45.84127" lon="4.23048">
        <ele>446</ele>
        <time>2018-06-11T14:14:45Z</time>
      </trkpt>
      <trkpt lat="45.84127" lon="4.23059">
        <ele>446</ele>
        <time>2018-06-11T14:14:50Z</time>
      </trkpt>
      <trkpt lat="45.84127" lon="4.23076">
        <ele>446</ele>
        <time>2018-06-11T14:14:56Z</time>
      </trkpt>
      <trkpt lat="45.84123" lon="4.23092">
        <ele>445</ele>
        <time>2018-06-11T14:15:02Z</time>
      </trkpt>
      <trkpt lat="45.84122" lon="4.23102">
        <ele>445</ele>
        <time>2018-06-11T14:15:07Z</time>
      </trkpt>
      <trkpt lat="45.84118" lon="4.23111">
        <ele>445</ele>
        <time>2018-06-11T14:15:13Z</time>
      </trkpt>
      <trkpt lat="45.84114" lon="4.23126">
        <ele>445</ele>
        <time>2018-06-11T14:15:18Z</time>
      </trkpt>
      <trkpt lat="45.84112" lon="4.23137">
        <ele>444</ele>
        <time>2018-06-11T14:15:24Z</time>
      </trkpt>
      <trkpt lat="45.8411" lon="4.23147">
        <ele>444</ele>
        <time>2018-06-11T14:15:29Z</time>
      </trkpt>
      <trkpt lat="45.84107" lon="4.23159">
        <ele>443</ele>
        <time>2018-06-11T14:15:35Z</time>
      </trkpt>
      <trkpt lat="45.84104" lon="4.23171">
        <ele>442</ele>
        <time>2018-06-11T14:15:40Z</time>
      </trkpt>
      <trkpt lat="45.841" lon="4.23185">
        <ele>442</ele>
        <time>2018-06-11T14:15:46Z</time>
      </trkpt>
      <trkpt lat="45.84092" lon="4.23198">
        <ele>442</ele>
        <time>2018-06-11T14:15:52Z</time>
      </trkpt>
      <trkpt lat="45.8409" lon="4.23206">
        <ele>442</ele>
        <time>2018-06-11T14:15:58Z</time>
      </trkpt>
      <trkpt lat="45.84087" lon="4.23222">
        <ele>440</ele>
        <time>2018-06-11T14:16:04Z</time>
      </trkpt>
      <trkpt lat="45.84082" lon="4.23232">
        <ele>435</ele>
        <time>2018-06-11T14:16:10Z</time>
      </trkpt>
      <trkpt lat="45.84079" lon="4.23241">
        <ele>433</ele>
        <time>2018-06-11T14:16:15Z</time>
      </trkpt>
      <trkpt lat="45.84077" lon="4.23251">
        <ele>432</ele>
        <time>2018-06-11T14:16:21Z</time>
      </trkpt>
      <trkpt lat="45.84073" lon="4.23261">
        <ele>434</ele>
        <time>2018-06-11T14:16:27Z</time>
      </trkpt>
      <trkpt lat="45.84072" lon="4.23271">
        <ele>435</ele>
        <time>2018-06-11T14:16:32Z</time>
      </trkpt>
      <trkpt lat="45.84067" lon="4.23284">
        <ele>436</ele>
        <time>2018-06-11T14:16:38Z</time>
      </trkpt>
      <trkpt lat="45.84065" lon="4.23292">
        <ele>437</ele>
        <time>2018-06-11T14:16:43Z</time>
      </trkpt>
      <trkpt lat="45.84058" lon="4.2331">
        <ele>437</ele>
        <time>2018-06-11T14:16:49Z</time>
      </trkpt>
      <trkpt lat="45.84054" lon="4.23322">
        <ele>437</ele>
        <time>2018-06-11T14:16:55Z</time>
      </trkpt>
      <trkpt lat="45.84056" lon="4.23334">
        <ele>439</ele>
        <time>2018-06-11T14:17:00Z</time>
      </trkpt>
      <trkpt lat="45.84061" lon="4.2334">
        <ele>438</ele>
        <time>2018-06-11T14:17:05Z</time>
      </trkpt>
      <trkpt lat="45.84068" lon="4.2335">
        <ele>438</ele>
        <time>2018-06-11T14:17:11Z</time>
      </trkpt>
      <trkpt lat="45.84074" lon="4.2336">
        <ele>439</ele>
        <time>2018-06-11T14:17:17Z</time>
      </trkpt>
      <trkpt lat="45.84077" lon="4.23369">
        <ele>440</ele>
        <time>2018-06-11T14:17:22Z</time>
      </trkpt>
      <trkpt lat="45.84082" lon="4.23377">
        <ele>440</ele>
        <time>2018-06-11T14:17:27Z</time>
      </trkpt>
      <trkpt lat="45.84082" lon="4.23389">
        <ele>441</ele>
        <time>2018-06-11T14:17:33Z</time>
      </trkpt>
      <trkpt lat="45.8408" lon="4.23398">
        <ele>441</ele>
        <time>2018-06-11T14:17:39Z</time>
      </trkpt>
      <trkpt lat="45.8408" lon="4.23408">
        <ele>441</ele>
        <time>2018-06-11T14:17:44Z</time>
      </trkpt>
      <trkpt lat="45.84079" lon="4.23422">
        <ele>443</ele>
        <time>2018-06-11T14:17:50Z</time>
      </trkpt>
      <trkpt lat="45.84081" lon="4.23433">
        <ele>445</ele>
        <time>2018-06-11T14:17:56Z</time>
      </trkpt>
      <trkpt lat="45.84082" lon="4.23447">
        <ele>447</ele>
        <time>2018-06-11T14:18:02Z</time>
      </trkpt>
      <trkpt lat="45.84083" lon="4.23454">
        <ele>448</ele>
        <time>2018-06-11T14:18:07Z</time>
      </trkpt>
      <trkpt lat="45.84085" lon="4.23469">
        <ele>445</ele>
        <time>2018-06-11T14:18:13Z</time>
      </trkpt>
      <trkpt lat="45.84087" lon="4.23479">
        <ele>445</ele>
        <time>2018-06-11T14:18:18Z</time>
      </trkpt>
      <trkpt lat="45.8409" lon="4.23494">
        <ele>445</ele>
        <time>2018-06-11T14:18:24Z</time>
      </trkpt>
      <trkpt lat="45.84086" lon="4.23504">
        <ele>444</ele>
        <time>2018-06-11T14:18:30Z</time>
      </trkpt>
      <trkpt lat="45.84089" lon="4.23514">
        <ele>445</ele>
        <time>2018-06-11T14:18:35Z</time>
      </trkpt>
      <trkpt lat="45.84085" lon="4.23522">
        <ele>445</ele>
        <time>2018-06-11T14:18:40Z</time>
      </trkpt>
      <trkpt lat="45.8408" lon="4.23531">
        <ele>451</ele>
        <time>2018-06-11T14:18:46Z</time>
      </trkpt>
      <trkpt lat="45.84076" lon="4.23537">
        <ele>451</ele>
        <time>2018-06-11T14:18:51Z</time>
      </trkpt>
      <trkpt lat="45.84073" lon="4.23549">
        <ele>451</ele>
        <time>2018-06-11T14:18:57Z</time>
      </trkpt>
      <trkpt lat="45.84071" lon="4.23554">
        <ele>451</ele>
        <time>2018-06-11T14:19:02Z</time>
      </trkpt>
      <trkpt lat="45.8407" lon="4.23557">
        <ele>451</ele>
        <time>2018-06-11T14:19:07Z</time>
      </trkpt>
      <trkpt lat="45.84071" lon="4.23564">
        <ele>451</ele>
        <time>2018-06-11T14:19:13Z</time>
      </trkpt>
      <trkpt lat="45.84069" lon="4.23576">
        <ele>450</ele>
        <time>2018-06-11T14:19:18Z</time>
      </trkpt>
      <trkpt lat="45.84069" lon="4.23585">
        <ele>448</ele>
        <time>2018-06-11T14:19:24Z</time>
      </trkpt>
      <trkpt lat="45.84068" lon="4.2359">
        <ele>448</ele>
        <time>2018-06-11T14:19:30Z</time>
      </trkpt>
      <trkpt lat="45.84061" lon="4.23603">
        <ele>450</ele>
        <time>2018-06-11T14:19:35Z</time>
      </trkpt>
      <trkpt lat="45.84057" lon="4.23611">
        <ele>451</ele>
        <time>2018-06-11T14:19:41Z</time>
      </trkpt>
      <trkpt lat="45.84054" lon="4.23619">
        <ele>451</ele>
        <time>2018-06-11T14:19:47Z</time>
      </trkpt>
      <trkpt lat="45.84051" lon="4.23624">
        <ele>451</ele>
        <time>2018-06-11T14:19:52Z</time>
      </trkpt>
      <trkpt lat="45.84047" lon="4.23632">
        <ele>451</ele>
        <time>2018-06-11T14:19:58Z</time>
      </trkpt>
      <trkpt lat="45.84044" lon="4.23635">
        <ele>451</ele>
        <time>2018-06-11T14:20:04Z</time>
      </trkpt>
      <trkpt lat="45.84037" lon="4.23639">
        <ele>452</ele>
        <time>2018-06-11T14:20:09Z</time>
      </trkpt>
      <trkpt lat="45.84035" lon="4.2364">
        <ele>452</ele>
        <time>2018-06-11T14:20:15Z</time>
      </trkpt>
      <trkpt lat="45.84033" lon="4.2364">
        <ele>452</ele>
        <time>2018-06-11T14:20:20Z</time>
      </trkpt>
      <trkpt lat="45.84023" lon="4.23647">
        <ele>453</ele>
        <time>2018-06-11T14:20:26Z</time>
      </trkpt>
      <trkpt lat="45.84019" lon="4.23648">
        <ele>454</ele>
        <time>2018-06-11T14:20:31Z</time>
      </trkpt>
      <trkpt lat="45.84011" lon="4.23651">
        <ele>455</ele>
        <time>2018-06-11T14:20:37Z</time>
      </trkpt>
      <trkpt lat="45.84004" lon="4.23651">
        <ele>455</ele>
        <time>2018-06-11T14:20:42Z</time>
      </trkpt>
      <trkpt lat="45.83997" lon="4.23652">
        <ele>462</ele>
        <time>2018-06-11T14:20:48Z</time>
      </trkpt>
      <trkpt lat="45.83992" lon="4.23651">
        <ele>463</ele>
        <time>2018-06-11T14:20:54Z</time>
      </trkpt>
      <trkpt lat="45.83985" lon="4.23653">
        <ele>463</ele>
        <time>2018-06-11T14:21:00Z</time>
      </trkpt>
      <trkpt lat="45.83985" lon="4.23653">
        <ele>463</ele>
        <time>2018-06-11T14:21:05Z</time>
      </trkpt>
      <trkpt lat="45.83984" lon="4.23653">
        <ele>464</ele>
        <time>2018-06-11T14:21:11Z</time>
      </trkpt>
      <trkpt lat="45.83975" lon="4.23653">
        <ele>465</ele>
        <time>2018-06-11T14:21:17Z</time>
      </trkpt>
      <trkpt lat="45.83972" lon="4.23653">
        <ele>465</ele>
        <time>2018-06-11T14:21:22Z</time>
      </trkpt>
      <trkpt lat="45.83967" lon="4.23653">
        <ele>466</ele>
        <time>2018-06-11T14:21:28Z</time>
      </trkpt>
      <trkpt lat="45.83965" lon="4.23653">
        <ele>466</ele>
        <time>2018-06-11T14:21:33Z</time>
      </trkpt>
      <trkpt lat="45.83955" lon="4.23647">
        <ele>468</ele>
        <time>2018-06-11T14:21:38Z</time>
      </trkpt>
      <trkpt lat="45.8395" lon="4.23645">
        <ele>468</ele>
        <time>2018-06-11T14:21:43Z</time>
      </trkpt>
      <trkpt lat="45.83946" lon="4.23648">
        <ele>469</ele>
        <time>2018-06-11T14:21:49Z</time>
      </trkpt>
      <trkpt lat="45.83942" lon="4.23651">
        <ele>469</ele>
        <time>2018-06-11T14:21:54Z</time>
      </trkpt>
      <trkpt lat="45.83936" lon="4.23652">
        <ele>469</ele>
        <time>2018-06-11T14:22:00Z</time>
      </trkpt>
      <trkpt lat="45.83932" lon="4.23655">
        <ele>470</ele>
        <time>2018-06-11T14:22:05Z</time>
      </trkpt>
      <trkpt lat="45.83928" lon="4.23657">
        <ele>470</ele>
        <time>2018-06-11T14:22:11Z</time>
      </trkpt>
      <trkpt lat="45.83923" lon="4.23662">
        <ele>471</ele>
        <time>2018-06-11T14:22:16Z</time>
      </trkpt>
      <trkpt lat="45.83916" lon="4.23665">
        <ele>472</ele>
        <time>2018-06-11T14:22:22Z</time>
      </trkpt>
      <trkpt lat="45.83913" lon="4.23667">
        <ele>472</ele>
        <time>2018-06-11T14:22:27Z</time>
      </trkpt>
      <trkpt lat="45.83909" lon="4.23669">
        <ele>473</ele>
        <time>2018-06-11T14:22:33Z</time>
      </trkpt>
      <trkpt lat="45.83903" lon="4.2367">
        <ele>473</ele>
        <time>2018-06-11T14:22:38Z</time>
      </trkpt>
      <trkpt lat="45.83897" lon="4.23676">
        <ele>474</ele>
        <time>2018-06-11T14:22:44Z</time>
      </trkpt>
      <trkpt lat="45.83891" lon="4.2368">
        <ele>474</ele>
        <time>2018-06-11T14:22:49Z</time>
      </trkpt>
      <trkpt lat="45.83888" lon="4.2368">
        <ele>474</ele>
        <time>2018-06-11T14:22:55Z</time>
      </trkpt>
      <trkpt lat="45.83884" lon="4.23675">
        <ele>475</ele>
        <time>2018-06-11T14:23:01Z</time>
      </trkpt>
      <trkpt lat="45.8388" lon="4.23671">
        <ele>475</ele>
        <time>2018-06-11T14:23:07Z</time>
      </trkpt>
      <trkpt lat="45.83876" lon="4.23668">
        <ele>475</ele>
        <time>2018-06-11T14:23:13Z</time>
      </trkpt>
      <trkpt lat="45.83876" lon="4.23668">
        <ele>475</ele>
        <time>2018-06-11T14:23:19Z</time>
      </trkpt>
      <trkpt lat="45.83875" lon="4.23667">
        <ele>475</ele>
        <time>2018-06-11T14:23:24Z</time>
      </trkpt>
      <trkpt lat="45.8387" lon="4.23665">
        <ele>477</ele>
        <time>2018-06-11T14:23:30Z</time>
      </trkpt>
      <trkpt lat="45.83866" lon="4.23663">
        <ele>477</ele>
        <time>2018-06-11T14:23:36Z</time>
      </trkpt>
      <trkpt lat="45.83861" lon="4.23664">
        <ele>478</ele>
        <time>2018-06-11T14:23:42Z</time>
      </trkpt>
      <trkpt lat="45.83859" lon="4.23666">
        <ele>478</ele>
        <time>2018-06-11T14:23:47Z</time>
      </trkpt>
      <trkpt lat="45.83857" lon="4.23671">
        <ele>477</ele>
        <time>2018-06-11T14:23:53Z</time>
      </trkpt>
      <trkpt lat="45.83856" lon="4.23676">
        <ele>477</ele>
        <time>2018-06-11T14:23:58Z</time>
      </trkpt>
      <trkpt lat="45.83853" lon="4.2368">
        <ele>477</ele>
        <time>2018-06-11T14:24:04Z</time>
      </trkpt>
      <trkpt lat="45.83851" lon="4.23684">
        <ele>477</ele>
        <time>2018-06-11T14:24:09Z</time>
      </trkpt>
      <trkpt lat="45.83851" lon="4.23684">
        <ele>477</ele>
        <time>2018-06-11T14:24:15Z</time>
      </trkpt>
      <trkpt lat="45.83852" lon="4.23689">
        <ele>477</ele>
        <time>2018-06-11T14:24:21Z</time>
      </trkpt>
      <trkpt lat="45.83851" lon="4.2369">
        <ele>477</ele>
        <time>2018-06-11T14:24:27Z</time>
      </trkpt>
      <trkpt lat="45.83851" lon="4.2369">
        <ele>477</ele>
        <time>2018-06-11T14:24:32Z</time>
      </trkpt>
      <trkpt lat="45.83851" lon="4.2369">
        <ele>477</ele>
        <time>2018-06-11T14:24:38Z</time>
      </trkpt>
      <trkpt lat="45.83851" lon="4.23689">
        <ele>477</ele>
        <time>2018-06-11T14:24:44Z</time>
      </trkpt>
      <trkpt lat="45.83851" lon="4.23689">
        <ele>477</ele>
        <time>2018-06-11T14:24:50Z</time>
      </trkpt>
      <trkpt lat="45.83851" lon="4.23689">
        <ele>477</ele>
        <time>2018-06-11T14:24:55Z</time>
      </trkpt>
      <trkpt lat="45.83849" lon="4.23688">
        <ele>477</ele>
        <time>2018-06-11T14:25:01Z</time>
      </trkpt>
      <trkpt lat="45.83849" lon="4.23688">
        <ele>477</ele>
        <time>2018-06-11T14:25:07Z</time>
      </trkpt>
      <trkpt lat="45.83849" lon="4.23688">
        <ele>477</ele>
        <time>2018-06-11T14:25:13Z</time>
      </trkpt>
      <trkpt lat="45.83847" lon="4.23687">
        <ele>477</ele>
        <time>2018-06-11T14:25:19Z</time>
      </trkpt>
      <trkpt lat="45.83847" lon="4.23687">
        <ele>477</ele>
        <time>2018-06-11T14:25:24Z</time>
      </trkpt>
      <trkpt lat="45.83847" lon="4.23687">
        <ele>477</ele>
        <time>2018-06-11T14:25:30Z</time>
      </trkpt>
      <trkpt lat="45.83847" lon="4.23687">
        <ele>477</ele>
        <time>2018-06-11T14:25:35Z</time>
      </trkpt>
      <trkpt lat="45.83847" lon="4.23687">
        <ele>477</ele>
        <time>2018-06-11T14:25:41Z</time>
      </trkpt>
      <trkpt lat="45.83848" lon="4.23687">
        <ele>477</ele>
        <time>2018-06-11T14:25:46Z</time>
      </trkpt>
      <trkpt lat="45.83848" lon="4.23687">
        <ele>477</ele>
        <time>2018-06-11T14:25:51Z</time>
      </trkpt>
      <trkpt lat="45.83848" lon="4.23687">
        <ele>477</ele>
        <time>2018-06-11T14:25:57Z</time>
      </trkpt>
      <trkpt lat="45.83848" lon="4.23687">
        <ele>477</ele>
        <time>2018-06-11T14:26:03Z</time>
      </trkpt>
      <trkpt lat="45.83848" lon="4.23687">
        <ele>477</ele>
        <time>2018-06-11T14:26:08Z</time>
      </trkpt>
      <trkpt lat="45.83848" lon="4.23687">
        <ele>477</ele>
        <time>2018-06-11T14:26:14Z</time>
      </trkpt>
      <trkpt lat="45.83848" lon="4.23687">
        <ele>477</ele>
        <time>2018-06-11T14:26:19Z</time>
      </trkpt>
    </trkseg>
  </trk>
</gpx>